<?xml version="1.0" encoding="UTF-8" standalone="no" ?>
<gpx xmlns="http://www.topografix.com/GPX/1/1" xmlns:xsi="http://www.w3.org/2001/XMLSchema-instance" xsi:schemaLocation="http://www.topografix.com/GPX/1/1 http://www.topografix.com/GPX/1/1/gpx.xsd" version="1.1" creator="VisuGPX - https://www.visugpx.com">
  <metadata>
    <name>Vénosc / Balcon du Vénéon</name>
    <desc><![CDATA[Randonnées "avec les mains", sujets au vertige s'abstenir]]></desc>
  </metadata>
  <trk>
    <name><![CDATA[Balcon du Vénéon]]></name>
    <trkseg>
      <trkpt lat="44.98694" lon="6.11666">
        <ele>974.89</ele>
        <time>2020-08-23T07:55:24Z</time>
      </trkpt>
      <trkpt lat="44.98693" lon="6.11667">
        <ele>899.34</ele>
        <time>2020-08-23T07:55:30Z</time>
      </trkpt>
      <trkpt lat="44.98692" lon="6.11667">
        <ele>903.13</ele>
        <time>2020-08-23T07:55:31Z</time>
      </trkpt>
      <trkpt lat="44.98692" lon="6.11665">
        <ele>900.86</ele>
        <time>2020-08-23T07:55:37Z</time>
      </trkpt>
      <trkpt lat="44.98694" lon="6.11663">
        <ele>901.05</ele>
        <time>2020-08-23T07:56:06Z</time>
      </trkpt>
      <trkpt lat="44.98694" lon="6.11664">
        <ele>902.57</ele>
        <time>2020-08-23T07:56:46Z</time>
      </trkpt>
      <trkpt lat="44.98695" lon="6.11666">
        <ele>903.58</ele>
        <time>2020-08-23T07:57:13Z</time>
      </trkpt>
      <trkpt lat="44.98697" lon="6.11666">
        <ele>904.58</ele>
        <time>2020-08-23T07:57:40Z</time>
      </trkpt>
      <trkpt lat="44.98696" lon="6.11665">
        <ele>905.65</ele>
        <time>2020-08-23T07:58:09Z</time>
      </trkpt>
      <trkpt lat="44.98695" lon="6.11664">
        <ele>908.52</ele>
        <time>2020-08-23T07:58:18Z</time>
      </trkpt>
      <trkpt lat="44.987" lon="6.11667">
        <ele>909.01</ele>
        <time>2020-08-23T07:58:32Z</time>
      </trkpt>
      <trkpt lat="44.987" lon="6.11666">
        <ele>909.87</ele>
        <time>2020-08-23T07:58:56Z</time>
      </trkpt>
      <trkpt lat="44.98699" lon="6.11668">
        <ele>910.17</ele>
        <time>2020-08-23T07:59:05Z</time>
      </trkpt>
      <trkpt lat="44.98698" lon="6.11665">
        <ele>911.1</ele>
        <time>2020-08-23T07:59:31Z</time>
      </trkpt>
      <trkpt lat="44.98699" lon="6.11665">
        <ele>911.68</ele>
        <time>2020-08-23T07:59:47Z</time>
      </trkpt>
      <trkpt lat="44.98698" lon="6.11673">
        <ele>912.14</ele>
        <time>2020-08-23T08:00:02Z</time>
      </trkpt>
      <trkpt lat="44.98696" lon="6.11681">
        <ele>912.4</ele>
        <time>2020-08-23T08:00:10Z</time>
      </trkpt>
      <trkpt lat="44.98695" lon="6.11699">
        <ele>913.01</ele>
        <time>2020-08-23T08:00:29Z</time>
      </trkpt>
      <trkpt lat="44.98695" lon="6.11705">
        <ele>914.11</ele>
        <time>2020-08-23T08:01:04Z</time>
      </trkpt>
      <trkpt lat="44.98706" lon="6.11743">
        <ele>914.7</ele>
        <time>2020-08-23T08:01:24Z</time>
      </trkpt>
      <trkpt lat="44.98718" lon="6.11793">
        <ele>915.49</ele>
        <time>2020-08-23T08:01:51Z</time>
      </trkpt>
      <trkpt lat="44.98728" lon="6.11822">
        <ele>916.04</ele>
        <time>2020-08-23T08:02:11Z</time>
      </trkpt>
      <trkpt lat="44.98735" lon="6.11852">
        <ele>916.55</ele>
        <time>2020-08-23T08:02:32Z</time>
      </trkpt>
      <trkpt lat="44.98736" lon="6.11855">
        <ele>914.29</ele>
        <time>2020-08-23T08:02:34Z</time>
      </trkpt>
      <trkpt lat="44.98734" lon="6.11884">
        <ele>913.06</ele>
        <time>2020-08-23T08:02:53Z</time>
      </trkpt>
      <trkpt lat="44.98729" lon="6.11921">
        <ele>911.11</ele>
        <time>2020-08-23T08:03:17Z</time>
      </trkpt>
      <trkpt lat="44.98725" lon="6.11961">
        <ele>909.38</ele>
        <time>2020-08-23T08:03:42Z</time>
      </trkpt>
      <trkpt lat="44.98723" lon="6.12">
        <ele>908.3</ele>
        <time>2020-08-23T08:04:05Z</time>
      </trkpt>
      <trkpt lat="44.98718" lon="6.12027">
        <ele>907.14</ele>
        <time>2020-08-23T08:04:24Z</time>
      </trkpt>
      <trkpt lat="44.98708" lon="6.12064">
        <ele>906.23</ele>
        <time>2020-08-23T08:04:48Z</time>
      </trkpt>
      <trkpt lat="44.98704" lon="6.12091">
        <ele>905.15</ele>
        <time>2020-08-23T08:05:06Z</time>
      </trkpt>
      <trkpt lat="44.98702" lon="6.12122">
        <ele>904.82</ele>
        <time>2020-08-23T08:05:28Z</time>
      </trkpt>
      <trkpt lat="44.98688" lon="6.12142">
        <ele>905.32</ele>
        <time>2020-08-23T08:05:47Z</time>
      </trkpt>
      <trkpt lat="44.98667" lon="6.12162">
        <ele>905.89</ele>
        <time>2020-08-23T08:06:09Z</time>
      </trkpt>
      <trkpt lat="44.98647" lon="6.12176">
        <ele>906.43</ele>
        <time>2020-08-23T08:06:30Z</time>
      </trkpt>
      <trkpt lat="44.98625" lon="6.12188">
        <ele>906.94</ele>
        <time>2020-08-23T08:06:50Z</time>
      </trkpt>
      <trkpt lat="44.98606" lon="6.12204">
        <ele>907.46</ele>
        <time>2020-08-23T08:07:10Z</time>
      </trkpt>
      <trkpt lat="44.9859" lon="6.12224">
        <ele>907.94</ele>
        <time>2020-08-23T08:07:30Z</time>
      </trkpt>
      <trkpt lat="44.98582" lon="6.12253">
        <ele>908.42</ele>
        <time>2020-08-23T08:07:49Z</time>
      </trkpt>
      <trkpt lat="44.98581" lon="6.12264">
        <ele>910.86</ele>
        <time>2020-08-23T08:07:56Z</time>
      </trkpt>
      <trkpt lat="44.98575" lon="6.12289">
        <ele>912.19</ele>
        <time>2020-08-23T08:08:14Z</time>
      </trkpt>
      <trkpt lat="44.98559" lon="6.12308">
        <ele>914.22</ele>
        <time>2020-08-23T08:08:34Z</time>
      </trkpt>
      <trkpt lat="44.98551" lon="6.12309">
        <ele>915.35</ele>
        <time>2020-08-23T08:08:50Z</time>
      </trkpt>
      <trkpt lat="44.98543" lon="6.12308">
        <ele>916.54</ele>
        <time>2020-08-23T08:09:08Z</time>
      </trkpt>
      <trkpt lat="44.98521" lon="6.12315">
        <ele>917.03</ele>
        <time>2020-08-23T08:09:29Z</time>
      </trkpt>
      <trkpt lat="44.98503" lon="6.1232">
        <ele>917.41</ele>
        <time>2020-08-23T08:09:46Z</time>
      </trkpt>
      <trkpt lat="44.98501" lon="6.12335">
        <ele>918.72</ele>
        <time>2020-08-23T08:10:00Z</time>
      </trkpt>
      <trkpt lat="44.98501" lon="6.1234">
        <ele>919.69</ele>
        <time>2020-08-23T08:10:05Z</time>
      </trkpt>
      <trkpt lat="44.98504" lon="6.12356">
        <ele>921.73</ele>
        <time>2020-08-23T08:10:17Z</time>
      </trkpt>
      <trkpt lat="44.98504" lon="6.12376">
        <ele>923.6</ele>
        <time>2020-08-23T08:10:33Z</time>
      </trkpt>
      <trkpt lat="44.98502" lon="6.12391">
        <ele>925.53</ele>
        <time>2020-08-23T08:10:48Z</time>
      </trkpt>
      <trkpt lat="44.985" lon="6.12396">
        <ele>926.36</ele>
        <time>2020-08-23T08:10:54Z</time>
      </trkpt>
      <trkpt lat="44.985" lon="6.12411">
        <ele>928.08</ele>
        <time>2020-08-23T08:11:10Z</time>
      </trkpt>
      <trkpt lat="44.9849" lon="6.12433">
        <ele>930.67</ele>
        <time>2020-08-23T08:11:30Z</time>
      </trkpt>
      <trkpt lat="44.98481" lon="6.12449">
        <ele>932.26</ele>
        <time>2020-08-23T08:11:48Z</time>
      </trkpt>
      <trkpt lat="44.98477" lon="6.12473">
        <ele>933.86</ele>
        <time>2020-08-23T08:12:08Z</time>
      </trkpt>
      <trkpt lat="44.98477" lon="6.12491">
        <ele>935.55</ele>
        <time>2020-08-23T08:12:25Z</time>
      </trkpt>
      <trkpt lat="44.98482" lon="6.12509">
        <ele>937.92</ele>
        <time>2020-08-23T08:12:43Z</time>
      </trkpt>
      <trkpt lat="44.98483" lon="6.12532">
        <ele>939.39</ele>
        <time>2020-08-23T08:13:02Z</time>
      </trkpt>
      <trkpt lat="44.98489" lon="6.12544">
        <ele>940.05</ele>
        <time>2020-08-23T08:13:14Z</time>
      </trkpt>
      <trkpt lat="44.98499" lon="6.12559">
        <ele>942.64</ele>
        <time>2020-08-23T08:13:32Z</time>
      </trkpt>
      <trkpt lat="44.98507" lon="6.12574">
        <ele>943.27</ele>
        <time>2020-08-23T08:13:47Z</time>
      </trkpt>
      <trkpt lat="44.98505" lon="6.12584">
        <ele>944.15</ele>
        <time>2020-08-23T08:13:56Z</time>
      </trkpt>
      <trkpt lat="44.98502" lon="6.12597">
        <ele>945.73</ele>
        <time>2020-08-23T08:14:08Z</time>
      </trkpt>
      <trkpt lat="44.98496" lon="6.12613">
        <ele>947.28</ele>
        <time>2020-08-23T08:14:24Z</time>
      </trkpt>
      <trkpt lat="44.98494" lon="6.12638">
        <ele>950</ele>
        <time>2020-08-23T08:14:45Z</time>
      </trkpt>
      <trkpt lat="44.98496" lon="6.12647">
        <ele>950.01</ele>
        <time>2020-08-23T08:14:52Z</time>
      </trkpt>
      <trkpt lat="44.985" lon="6.12668">
        <ele>952.49</ele>
        <time>2020-08-23T08:15:10Z</time>
      </trkpt>
      <trkpt lat="44.98498" lon="6.12683">
        <ele>954.14</ele>
        <time>2020-08-23T08:15:27Z</time>
      </trkpt>
      <trkpt lat="44.98505" lon="6.12695">
        <ele>954.23</ele>
        <time>2020-08-23T08:15:43Z</time>
      </trkpt>
      <trkpt lat="44.98507" lon="6.12697">
        <ele>951.93</ele>
        <time>2020-08-23T08:15:47Z</time>
      </trkpt>
      <trkpt lat="44.98515" lon="6.12703">
        <ele>948.57</ele>
        <time>2020-08-23T08:16:01Z</time>
      </trkpt>
      <trkpt lat="44.98522" lon="6.1271">
        <ele>945.16</ele>
        <time>2020-08-23T08:16:11Z</time>
      </trkpt>
      <trkpt lat="44.9853" lon="6.12721">
        <ele>943.42</ele>
        <time>2020-08-23T08:16:25Z</time>
      </trkpt>
      <trkpt lat="44.98534" lon="6.1273">
        <ele>941.86</ele>
        <time>2020-08-23T08:16:33Z</time>
      </trkpt>
      <trkpt lat="44.98535" lon="6.12734">
        <ele>941.89</ele>
        <time>2020-08-23T08:16:36Z</time>
      </trkpt>
      <trkpt lat="44.98534" lon="6.12745">
        <ele>941.99</ele>
        <time>2020-08-23T08:16:43Z</time>
      </trkpt>
      <trkpt lat="44.98535" lon="6.12757">
        <ele>941.25</ele>
        <time>2020-08-23T08:16:50Z</time>
      </trkpt>
      <trkpt lat="44.98524" lon="6.12789">
        <ele>941.52</ele>
        <time>2020-08-23T08:17:10Z</time>
      </trkpt>
      <trkpt lat="44.9852" lon="6.12791">
        <ele>941.7</ele>
        <time>2020-08-23T08:17:21Z</time>
      </trkpt>
      <trkpt lat="44.98517" lon="6.12789">
        <ele>944.15</ele>
        <time>2020-08-23T08:17:29Z</time>
      </trkpt>
      <trkpt lat="44.98516" lon="6.1279">
        <ele>944.58</ele>
        <time>2020-08-23T08:17:57Z</time>
      </trkpt>
      <trkpt lat="44.98516" lon="6.12801">
        <ele>944.95</ele>
        <time>2020-08-23T08:18:20Z</time>
      </trkpt>
      <trkpt lat="44.98513" lon="6.1281">
        <ele>945.03</ele>
        <time>2020-08-23T08:18:25Z</time>
      </trkpt>
      <trkpt lat="44.98513" lon="6.12814">
        <ele>942.64</ele>
        <time>2020-08-23T08:18:27Z</time>
      </trkpt>
      <trkpt lat="44.98514" lon="6.1282">
        <ele>941.93</ele>
        <time>2020-08-23T08:18:31Z</time>
      </trkpt>
      <trkpt lat="44.98522" lon="6.12829">
        <ele>941.3</ele>
        <time>2020-08-23T08:18:38Z</time>
      </trkpt>
      <trkpt lat="44.98518" lon="6.12838">
        <ele>941.39</ele>
        <time>2020-08-23T08:18:43Z</time>
      </trkpt>
      <trkpt lat="44.98518" lon="6.12848">
        <ele>941.51</ele>
        <time>2020-08-23T08:18:49Z</time>
      </trkpt>
      <trkpt lat="44.98511" lon="6.12865">
        <ele>941.69</ele>
        <time>2020-08-23T08:19:01Z</time>
      </trkpt>
      <trkpt lat="44.98499" lon="6.12883">
        <ele>941.83</ele>
        <time>2020-08-23T08:19:15Z</time>
      </trkpt>
      <trkpt lat="44.98492" lon="6.12897">
        <ele>941.97</ele>
        <time>2020-08-23T08:19:32Z</time>
      </trkpt>
      <trkpt lat="44.98491" lon="6.12902">
        <ele>944.36</ele>
        <time>2020-08-23T08:19:41Z</time>
      </trkpt>
      <trkpt lat="44.98491" lon="6.12912">
        <ele>945.35</ele>
        <time>2020-08-23T08:19:56Z</time>
      </trkpt>
      <trkpt lat="44.98488" lon="6.12922">
        <ele>945.4</ele>
        <time>2020-08-23T08:20:12Z</time>
      </trkpt>
      <trkpt lat="44.98493" lon="6.1293">
        <ele>945.45</ele>
        <time>2020-08-23T08:20:23Z</time>
      </trkpt>
      <trkpt lat="44.98492" lon="6.12932">
        <ele>945.47</ele>
        <time>2020-08-23T08:20:25Z</time>
      </trkpt>
      <trkpt lat="44.985" lon="6.12945">
        <ele>945.55</ele>
        <time>2020-08-23T08:20:39Z</time>
      </trkpt>
      <trkpt lat="44.98502" lon="6.1296">
        <ele>946.47</ele>
        <time>2020-08-23T08:20:54Z</time>
      </trkpt>
      <trkpt lat="44.98508" lon="6.12977">
        <ele>949.91</ele>
        <time>2020-08-23T08:21:10Z</time>
      </trkpt>
      <trkpt lat="44.9851" lon="6.12994">
        <ele>953.77</ele>
        <time>2020-08-23T08:21:26Z</time>
      </trkpt>
      <trkpt lat="44.98514" lon="6.13005">
        <ele>956.22</ele>
        <time>2020-08-23T08:21:43Z</time>
      </trkpt>
      <trkpt lat="44.98517" lon="6.13017">
        <ele>959.81</ele>
        <time>2020-08-23T08:22:00Z</time>
      </trkpt>
      <trkpt lat="44.98521" lon="6.13027">
        <ele>962.13</ele>
        <time>2020-08-23T08:22:16Z</time>
      </trkpt>
      <trkpt lat="44.98523" lon="6.1303">
        <ele>962.84</ele>
        <time>2020-08-23T08:22:35Z</time>
      </trkpt>
      <trkpt lat="44.98525" lon="6.13036">
        <ele>962.86</ele>
        <time>2020-08-23T08:22:58Z</time>
      </trkpt>
      <trkpt lat="44.98525" lon="6.13046">
        <ele>965.55</ele>
        <time>2020-08-23T08:23:15Z</time>
      </trkpt>
      <trkpt lat="44.98525" lon="6.13049">
        <ele>966.43</ele>
        <time>2020-08-23T08:23:19Z</time>
      </trkpt>
      <trkpt lat="44.98533" lon="6.1306">
        <ele>968.16</ele>
        <time>2020-08-23T08:23:33Z</time>
      </trkpt>
      <trkpt lat="44.98538" lon="6.13073">
        <ele>969.93</ele>
        <time>2020-08-23T08:23:50Z</time>
      </trkpt>
      <trkpt lat="44.98545" lon="6.13082">
        <ele>971.8</ele>
        <time>2020-08-23T08:24:04Z</time>
      </trkpt>
      <trkpt lat="44.98548" lon="6.13087">
        <ele>973.58</ele>
        <time>2020-08-23T08:24:15Z</time>
      </trkpt>
      <trkpt lat="44.98555" lon="6.13101">
        <ele>976.59</ele>
        <time>2020-08-23T08:24:33Z</time>
      </trkpt>
      <trkpt lat="44.98563" lon="6.13111">
        <ele>980.19</ele>
        <time>2020-08-23T08:24:50Z</time>
      </trkpt>
      <trkpt lat="44.98562" lon="6.13121">
        <ele>981.01</ele>
        <time>2020-08-23T08:25:08Z</time>
      </trkpt>
      <trkpt lat="44.98563" lon="6.13132">
        <ele>984.47</ele>
        <time>2020-08-23T08:25:27Z</time>
      </trkpt>
      <trkpt lat="44.98565" lon="6.13143">
        <ele>987.29</ele>
        <time>2020-08-23T08:25:42Z</time>
      </trkpt>
      <trkpt lat="44.98561" lon="6.1314">
        <ele>988.26</ele>
        <time>2020-08-23T08:25:52Z</time>
      </trkpt>
      <trkpt lat="44.98551" lon="6.13133">
        <ele>990.16</ele>
        <time>2020-08-23T08:26:06Z</time>
      </trkpt>
      <trkpt lat="44.98543" lon="6.13131">
        <ele>991.82</ele>
        <time>2020-08-23T08:26:20Z</time>
      </trkpt>
      <trkpt lat="44.98534" lon="6.13136">
        <ele>993.76</ele>
        <time>2020-08-23T08:26:33Z</time>
      </trkpt>
      <trkpt lat="44.98533" lon="6.13146">
        <ele>995.72</ele>
        <time>2020-08-23T08:26:46Z</time>
      </trkpt>
      <trkpt lat="44.9854" lon="6.13155">
        <ele>997.61</ele>
        <time>2020-08-23T08:26:59Z</time>
      </trkpt>
      <trkpt lat="44.98538" lon="6.13169">
        <ele>998.7</ele>
        <time>2020-08-23T08:27:15Z</time>
      </trkpt>
      <trkpt lat="44.98543" lon="6.13174">
        <ele>1001.72</ele>
        <time>2020-08-23T08:27:28Z</time>
      </trkpt>
      <trkpt lat="44.98544" lon="6.13176">
        <ele>1002.26</ele>
        <time>2020-08-23T08:28:06Z</time>
      </trkpt>
      <trkpt lat="44.98544" lon="6.13173">
        <ele>1002.75</ele>
        <time>2020-08-23T08:28:28Z</time>
      </trkpt>
      <trkpt lat="44.98543" lon="6.13173">
        <ele>1003.08</ele>
        <time>2020-08-23T08:28:43Z</time>
      </trkpt>
      <trkpt lat="44.98545" lon="6.13174">
        <ele>1003.49</ele>
        <time>2020-08-23T08:29:01Z</time>
      </trkpt>
      <trkpt lat="44.98544" lon="6.13174">
        <ele>1004.01</ele>
        <time>2020-08-23T08:29:26Z</time>
      </trkpt>
      <trkpt lat="44.9855" lon="6.13182">
        <ele>1006.28</ele>
        <time>2020-08-23T08:29:40Z</time>
      </trkpt>
      <trkpt lat="44.98552" lon="6.1319">
        <ele>1008.32</ele>
        <time>2020-08-23T08:29:58Z</time>
      </trkpt>
      <trkpt lat="44.98552" lon="6.13198">
        <ele>1010.42</ele>
        <time>2020-08-23T08:30:09Z</time>
      </trkpt>
      <trkpt lat="44.98552" lon="6.13203">
        <ele>1011.81</ele>
        <time>2020-08-23T08:30:16Z</time>
      </trkpt>
      <trkpt lat="44.98552" lon="6.13212">
        <ele>1014.02</ele>
        <time>2020-08-23T08:30:30Z</time>
      </trkpt>
      <trkpt lat="44.98547" lon="6.13218">
        <ele>1016.87</ele>
        <time>2020-08-23T08:30:43Z</time>
      </trkpt>
      <trkpt lat="44.98537" lon="6.13222">
        <ele>1018.87</ele>
        <time>2020-08-23T08:30:57Z</time>
      </trkpt>
      <trkpt lat="44.98532" lon="6.13229">
        <ele>1020.76</ele>
        <time>2020-08-23T08:31:09Z</time>
      </trkpt>
      <trkpt lat="44.98534" lon="6.13237">
        <ele>1022.68</ele>
        <time>2020-08-23T08:31:21Z</time>
      </trkpt>
      <trkpt lat="44.98543" lon="6.13244">
        <ele>1024.85</ele>
        <time>2020-08-23T08:31:35Z</time>
      </trkpt>
      <trkpt lat="44.98552" lon="6.13253">
        <ele>1027.48</ele>
        <time>2020-08-23T08:31:51Z</time>
      </trkpt>
      <trkpt lat="44.98555" lon="6.13262">
        <ele>1029.42</ele>
        <time>2020-08-23T08:32:04Z</time>
      </trkpt>
      <trkpt lat="44.98546" lon="6.13263">
        <ele>1032.68</ele>
        <time>2020-08-23T08:32:18Z</time>
      </trkpt>
      <trkpt lat="44.98535" lon="6.13269">
        <ele>1033.88</ele>
        <time>2020-08-23T08:32:33Z</time>
      </trkpt>
      <trkpt lat="44.98529" lon="6.13278">
        <ele>1036.55</ele>
        <time>2020-08-23T08:32:46Z</time>
      </trkpt>
      <trkpt lat="44.98528" lon="6.13286">
        <ele>1039.67</ele>
        <time>2020-08-23T08:33:01Z</time>
      </trkpt>
      <trkpt lat="44.98529" lon="6.13291">
        <ele>1041.59</ele>
        <time>2020-08-23T08:33:14Z</time>
      </trkpt>
      <trkpt lat="44.98531" lon="6.13294">
        <ele>1042.58</ele>
        <time>2020-08-23T08:33:29Z</time>
      </trkpt>
      <trkpt lat="44.98531" lon="6.13294">
        <ele>1042.72</ele>
        <time>2020-08-23T08:33:42Z</time>
      </trkpt>
      <trkpt lat="44.9853" lon="6.13295">
        <ele>1043.22</ele>
        <time>2020-08-23T08:34:10Z</time>
      </trkpt>
      <trkpt lat="44.98525" lon="6.13295">
        <ele>1044.43</ele>
        <time>2020-08-23T08:34:28Z</time>
      </trkpt>
      <trkpt lat="44.98525" lon="6.13295">
        <ele>1044.45</ele>
        <time>2020-08-23T08:34:29Z</time>
      </trkpt>
      <trkpt lat="44.9852" lon="6.13299">
        <ele>1044.64</ele>
        <time>2020-08-23T08:34:36Z</time>
      </trkpt>
      <trkpt lat="44.98513" lon="6.1331">
        <ele>1046.63</ele>
        <time>2020-08-23T08:34:50Z</time>
      </trkpt>
      <trkpt lat="44.98509" lon="6.13314">
        <ele>1047.55</ele>
        <time>2020-08-23T08:34:57Z</time>
      </trkpt>
      <trkpt lat="44.98501" lon="6.13327">
        <ele>1050.39</ele>
        <time>2020-08-23T08:35:14Z</time>
      </trkpt>
      <trkpt lat="44.985" lon="6.13336">
        <ele>1052.39</ele>
        <time>2020-08-23T08:35:28Z</time>
      </trkpt>
      <trkpt lat="44.98498" lon="6.13341">
        <ele>1052.44</ele>
        <time>2020-08-23T08:35:33Z</time>
      </trkpt>
      <trkpt lat="44.98492" lon="6.13361">
        <ele>1053.53</ele>
        <time>2020-08-23T08:35:50Z</time>
      </trkpt>
      <trkpt lat="44.98488" lon="6.13381">
        <ele>1055.47</ele>
        <time>2020-08-23T08:36:07Z</time>
      </trkpt>
      <trkpt lat="44.98482" lon="6.13395">
        <ele>1056.57</ele>
        <time>2020-08-23T08:36:22Z</time>
      </trkpt>
      <trkpt lat="44.98476" lon="6.13403">
        <ele>1058.44</ele>
        <time>2020-08-23T08:36:32Z</time>
      </trkpt>
      <trkpt lat="44.98462" lon="6.13401">
        <ele>1061.1</ele>
        <time>2020-08-23T08:36:49Z</time>
      </trkpt>
      <trkpt lat="44.98458" lon="6.13404">
        <ele>1061.97</ele>
        <time>2020-08-23T08:37:02Z</time>
      </trkpt>
      <trkpt lat="44.98459" lon="6.13406">
        <ele>1062.35</ele>
        <time>2020-08-23T08:37:25Z</time>
      </trkpt>
      <trkpt lat="44.98457" lon="6.13411">
        <ele>1062.42</ele>
        <time>2020-08-23T08:37:30Z</time>
      </trkpt>
      <trkpt lat="44.98454" lon="6.13441">
        <ele>1065.45</ele>
        <time>2020-08-23T08:37:52Z</time>
      </trkpt>
      <trkpt lat="44.98453" lon="6.13453">
        <ele>1066.44</ele>
        <time>2020-08-23T08:38:05Z</time>
      </trkpt>
      <trkpt lat="44.98449" lon="6.13474">
        <ele>1068.44</ele>
        <time>2020-08-23T08:38:24Z</time>
      </trkpt>
      <trkpt lat="44.98446" lon="6.13497">
        <ele>1071.17</ele>
        <time>2020-08-23T08:38:42Z</time>
      </trkpt>
      <trkpt lat="44.98441" lon="6.13523">
        <ele>1073.95</ele>
        <time>2020-08-23T08:39:02Z</time>
      </trkpt>
      <trkpt lat="44.98437" lon="6.13548">
        <ele>1076.89</ele>
        <time>2020-08-23T08:39:22Z</time>
      </trkpt>
      <trkpt lat="44.98434" lon="6.13573">
        <ele>1080.01</ele>
        <time>2020-08-23T08:39:41Z</time>
      </trkpt>
      <trkpt lat="44.98432" lon="6.1358">
        <ele>1080.27</ele>
        <time>2020-08-23T08:39:55Z</time>
      </trkpt>
      <trkpt lat="44.98426" lon="6.13601">
        <ele>1083.26</ele>
        <time>2020-08-23T08:40:15Z</time>
      </trkpt>
      <trkpt lat="44.98421" lon="6.13614">
        <ele>1085.15</ele>
        <time>2020-08-23T08:40:29Z</time>
      </trkpt>
      <trkpt lat="44.98411" lon="6.13631">
        <ele>1087.06</ele>
        <time>2020-08-23T08:40:49Z</time>
      </trkpt>
      <trkpt lat="44.984" lon="6.13651">
        <ele>1089.95</ele>
        <time>2020-08-23T08:41:11Z</time>
      </trkpt>
      <trkpt lat="44.98396" lon="6.13659">
        <ele>1090.85</ele>
        <time>2020-08-23T08:41:19Z</time>
      </trkpt>
      <trkpt lat="44.98385" lon="6.1368">
        <ele>1093.67</ele>
        <time>2020-08-23T08:41:41Z</time>
      </trkpt>
      <trkpt lat="44.98376" lon="6.13701">
        <ele>1096.49</ele>
        <time>2020-08-23T08:42:01Z</time>
      </trkpt>
      <trkpt lat="44.98364" lon="6.13726">
        <ele>1099.29</ele>
        <time>2020-08-23T08:42:23Z</time>
      </trkpt>
      <trkpt lat="44.98352" lon="6.13751">
        <ele>1102.29</ele>
        <time>2020-08-23T08:42:46Z</time>
      </trkpt>
      <trkpt lat="44.98347" lon="6.13777">
        <ele>1105.05</ele>
        <time>2020-08-23T08:43:07Z</time>
      </trkpt>
      <trkpt lat="44.98347" lon="6.13806">
        <ele>1108.05</ele>
        <time>2020-08-23T08:43:27Z</time>
      </trkpt>
      <trkpt lat="44.98343" lon="6.13835">
        <ele>1111.64</ele>
        <time>2020-08-23T08:43:49Z</time>
      </trkpt>
      <trkpt lat="44.98328" lon="6.1386">
        <ele>1114.35</ele>
        <time>2020-08-23T08:44:12Z</time>
      </trkpt>
      <trkpt lat="44.98324" lon="6.13866">
        <ele>1115.22</ele>
        <time>2020-08-23T08:44:25Z</time>
      </trkpt>
      <trkpt lat="44.98313" lon="6.13882">
        <ele>1117.21</ele>
        <time>2020-08-23T08:44:41Z</time>
      </trkpt>
      <trkpt lat="44.98312" lon="6.13887">
        <ele>1118.21</ele>
        <time>2020-08-23T08:45:00Z</time>
      </trkpt>
      <trkpt lat="44.98301" lon="6.13905">
        <ele>1120.17</ele>
        <time>2020-08-23T08:45:18Z</time>
      </trkpt>
      <trkpt lat="44.98293" lon="6.1393">
        <ele>1122.1</ele>
        <time>2020-08-23T08:45:37Z</time>
      </trkpt>
      <trkpt lat="44.98287" lon="6.13961">
        <ele>1124.12</ele>
        <time>2020-08-23T08:45:58Z</time>
      </trkpt>
      <trkpt lat="44.98279" lon="6.13987">
        <ele>1125.98</ele>
        <time>2020-08-23T08:46:16Z</time>
      </trkpt>
      <trkpt lat="44.98268" lon="6.14014">
        <ele>1128.72</ele>
        <time>2020-08-23T08:46:37Z</time>
      </trkpt>
      <trkpt lat="44.98257" lon="6.14038">
        <ele>1131.41</ele>
        <time>2020-08-23T08:46:58Z</time>
      </trkpt>
      <trkpt lat="44.98243" lon="6.14065">
        <ele>1134.2</ele>
        <time>2020-08-23T08:47:21Z</time>
      </trkpt>
      <trkpt lat="44.98237" lon="6.14094">
        <ele>1136.98</ele>
        <time>2020-08-23T08:47:41Z</time>
      </trkpt>
      <trkpt lat="44.98232" lon="6.14121">
        <ele>1139.64</ele>
        <time>2020-08-23T08:48:01Z</time>
      </trkpt>
      <trkpt lat="44.9823" lon="6.14136">
        <ele>1139.76</ele>
        <time>2020-08-23T08:48:12Z</time>
      </trkpt>
      <trkpt lat="44.98224" lon="6.14152">
        <ele>1142.11</ele>
        <time>2020-08-23T08:48:24Z</time>
      </trkpt>
      <trkpt lat="44.98221" lon="6.14157">
        <ele>1142.25</ele>
        <time>2020-08-23T08:48:39Z</time>
      </trkpt>
      <trkpt lat="44.98205" lon="6.14177">
        <ele>1144.01</ele>
        <time>2020-08-23T08:48:58Z</time>
      </trkpt>
      <trkpt lat="44.98191" lon="6.14205">
        <ele>1145.85</ele>
        <time>2020-08-23T08:49:22Z</time>
      </trkpt>
      <trkpt lat="44.98186" lon="6.14217">
        <ele>1146.01</ele>
        <time>2020-08-23T08:49:37Z</time>
      </trkpt>
      <trkpt lat="44.98176" lon="6.14242">
        <ele>1148.68</ele>
        <time>2020-08-23T08:49:58Z</time>
      </trkpt>
      <trkpt lat="44.98161" lon="6.14267">
        <ele>1151.28</ele>
        <time>2020-08-23T08:50:21Z</time>
      </trkpt>
      <trkpt lat="44.98145" lon="6.14287">
        <ele>1153.95</ele>
        <time>2020-08-23T08:50:42Z</time>
      </trkpt>
      <trkpt lat="44.9813" lon="6.14308">
        <ele>1156.57</ele>
        <time>2020-08-23T08:51:03Z</time>
      </trkpt>
      <trkpt lat="44.9812" lon="6.14329">
        <ele>1158.33</ele>
        <time>2020-08-23T08:51:21Z</time>
      </trkpt>
      <trkpt lat="44.98111" lon="6.14357">
        <ele>1160.87</ele>
        <time>2020-08-23T08:51:43Z</time>
      </trkpt>
      <trkpt lat="44.9811" lon="6.14361">
        <ele>1161.74</ele>
        <time>2020-08-23T08:51:47Z</time>
      </trkpt>
      <trkpt lat="44.98107" lon="6.14366">
        <ele>1161.77</ele>
        <time>2020-08-23T08:51:51Z</time>
      </trkpt>
      <trkpt lat="44.98091" lon="6.1439">
        <ele>1163.57</ele>
        <time>2020-08-23T08:52:14Z</time>
      </trkpt>
      <trkpt lat="44.98072" lon="6.14412">
        <ele>1164.6</ele>
        <time>2020-08-23T08:52:38Z</time>
      </trkpt>
      <trkpt lat="44.98064" lon="6.14422">
        <ele>1165.53</ele>
        <time>2020-08-23T08:52:57Z</time>
      </trkpt>
      <trkpt lat="44.98064" lon="6.1442">
        <ele>1165.61</ele>
        <time>2020-08-23T08:53:08Z</time>
      </trkpt>
      <trkpt lat="44.98064" lon="6.1442">
        <ele>1165.78</ele>
        <time>2020-08-23T08:53:29Z</time>
      </trkpt>
      <trkpt lat="44.98062" lon="6.14422">
        <ele>1165.94</ele>
        <time>2020-08-23T08:53:55Z</time>
      </trkpt>
      <trkpt lat="44.98055" lon="6.14433">
        <ele>1166.84</ele>
        <time>2020-08-23T08:54:11Z</time>
      </trkpt>
      <trkpt lat="44.98048" lon="6.1444">
        <ele>1167.74</ele>
        <time>2020-08-23T08:54:29Z</time>
      </trkpt>
      <trkpt lat="44.98045" lon="6.1445">
        <ele>1167.84</ele>
        <time>2020-08-23T08:54:42Z</time>
      </trkpt>
      <trkpt lat="44.98043" lon="6.14449">
        <ele>1168.84</ele>
        <time>2020-08-23T08:55:10Z</time>
      </trkpt>
      <trkpt lat="44.98039" lon="6.1445">
        <ele>1168.88</ele>
        <time>2020-08-23T08:55:14Z</time>
      </trkpt>
      <trkpt lat="44.98018" lon="6.14463">
        <ele>1169.96</ele>
        <time>2020-08-23T08:55:38Z</time>
      </trkpt>
      <trkpt lat="44.98007" lon="6.14473">
        <ele>1170.09</ele>
        <time>2020-08-23T08:55:58Z</time>
      </trkpt>
      <trkpt lat="44.97981" lon="6.14479">
        <ele>1170.22</ele>
        <time>2020-08-23T08:56:17Z</time>
      </trkpt>
      <trkpt lat="44.97953" lon="6.14477">
        <ele>1171.14</ele>
        <time>2020-08-23T08:56:36Z</time>
      </trkpt>
      <trkpt lat="44.97923" lon="6.14479">
        <ele>1172.12</ele>
        <time>2020-08-23T08:56:59Z</time>
      </trkpt>
      <trkpt lat="44.97897" lon="6.14481">
        <ele>1172.28</ele>
        <time>2020-08-23T08:57:22Z</time>
      </trkpt>
      <trkpt lat="44.97871" lon="6.14486">
        <ele>1172.47</ele>
        <time>2020-08-23T08:57:45Z</time>
      </trkpt>
      <trkpt lat="44.97853" lon="6.14499">
        <ele>1172.6</ele>
        <time>2020-08-23T08:58:03Z</time>
      </trkpt>
      <trkpt lat="44.9784" lon="6.14523">
        <ele>1173.53</ele>
        <time>2020-08-23T08:58:22Z</time>
      </trkpt>
      <trkpt lat="44.97838" lon="6.14566">
        <ele>1175.44</ele>
        <time>2020-08-23T08:58:48Z</time>
      </trkpt>
      <trkpt lat="44.97833" lon="6.14608">
        <ele>1175.6</ele>
        <time>2020-08-23T08:59:14Z</time>
      </trkpt>
      <trkpt lat="44.97827" lon="6.1463">
        <ele>1175.68</ele>
        <time>2020-08-23T08:59:28Z</time>
      </trkpt>
      <trkpt lat="44.97821" lon="6.14654">
        <ele>1175.77</ele>
        <time>2020-08-23T08:59:45Z</time>
      </trkpt>
      <trkpt lat="44.97811" lon="6.14682">
        <ele>1175.89</ele>
        <time>2020-08-23T09:00:06Z</time>
      </trkpt>
      <trkpt lat="44.97796" lon="6.14699">
        <ele>1176.76</ele>
        <time>2020-08-23T09:00:25Z</time>
      </trkpt>
      <trkpt lat="44.9778" lon="6.14714">
        <ele>1178.52</ele>
        <time>2020-08-23T09:00:45Z</time>
      </trkpt>
      <trkpt lat="44.9777" lon="6.14728">
        <ele>1180.16</ele>
        <time>2020-08-23T09:01:01Z</time>
      </trkpt>
      <trkpt lat="44.97758" lon="6.1474">
        <ele>1182.64</ele>
        <time>2020-08-23T09:01:17Z</time>
      </trkpt>
      <trkpt lat="44.97743" lon="6.14751">
        <ele>1183.49</ele>
        <time>2020-08-23T09:01:36Z</time>
      </trkpt>
      <trkpt lat="44.97733" lon="6.14759">
        <ele>1185.26</ele>
        <time>2020-08-23T09:01:49Z</time>
      </trkpt>
      <trkpt lat="44.97723" lon="6.1477">
        <ele>1186.03</ele>
        <time>2020-08-23T09:02:04Z</time>
      </trkpt>
      <trkpt lat="44.97714" lon="6.14786">
        <ele>1187.73</ele>
        <time>2020-08-23T09:02:21Z</time>
      </trkpt>
      <trkpt lat="44.97704" lon="6.14801">
        <ele>1189.36</ele>
        <time>2020-08-23T09:02:38Z</time>
      </trkpt>
      <trkpt lat="44.97688" lon="6.14819">
        <ele>1191.98</ele>
        <time>2020-08-23T09:03:00Z</time>
      </trkpt>
      <trkpt lat="44.97677" lon="6.14834">
        <ele>1193.65</ele>
        <time>2020-08-23T09:03:17Z</time>
      </trkpt>
      <trkpt lat="44.97667" lon="6.14854">
        <ele>1194.49</ele>
        <time>2020-08-23T09:03:36Z</time>
      </trkpt>
      <trkpt lat="44.97656" lon="6.14871">
        <ele>1196.33</ele>
        <time>2020-08-23T09:03:55Z</time>
      </trkpt>
      <trkpt lat="44.97648" lon="6.14896">
        <ele>1197.95</ele>
        <time>2020-08-23T09:04:16Z</time>
      </trkpt>
      <trkpt lat="44.97647" lon="6.14904">
        <ele>1198.85</ele>
        <time>2020-08-23T09:04:32Z</time>
      </trkpt>
      <trkpt lat="44.97646" lon="6.14911">
        <ele>1198.94</ele>
        <time>2020-08-23T09:04:51Z</time>
      </trkpt>
      <trkpt lat="44.9764" lon="6.14921">
        <ele>1199.87</ele>
        <time>2020-08-23T09:05:05Z</time>
      </trkpt>
      <trkpt lat="44.97637" lon="6.14929">
        <ele>1201.52</ele>
        <time>2020-08-23T09:05:19Z</time>
      </trkpt>
      <trkpt lat="44.9763" lon="6.14941">
        <ele>1201.59</ele>
        <time>2020-08-23T09:05:34Z</time>
      </trkpt>
      <trkpt lat="44.97626" lon="6.14954">
        <ele>1203.44</ele>
        <time>2020-08-23T09:05:48Z</time>
      </trkpt>
      <trkpt lat="44.9762" lon="6.14959">
        <ele>1204.44</ele>
        <time>2020-08-23T09:06:02Z</time>
      </trkpt>
      <trkpt lat="44.97616" lon="6.14969">
        <ele>1204.5</ele>
        <time>2020-08-23T09:06:16Z</time>
      </trkpt>
      <trkpt lat="44.97613" lon="6.14982">
        <ele>1204.6</ele>
        <time>2020-08-23T09:06:32Z</time>
      </trkpt>
      <trkpt lat="44.97616" lon="6.14995">
        <ele>1205.5</ele>
        <time>2020-08-23T09:06:46Z</time>
      </trkpt>
      <trkpt lat="44.97617" lon="6.15009">
        <ele>1206.59</ele>
        <time>2020-08-23T09:07:01Z</time>
      </trkpt>
      <trkpt lat="44.97615" lon="6.15018">
        <ele>1207.46</ele>
        <time>2020-08-23T09:07:14Z</time>
      </trkpt>
      <trkpt lat="44.97613" lon="6.15026">
        <ele>1208.42</ele>
        <time>2020-08-23T09:07:29Z</time>
      </trkpt>
      <trkpt lat="44.97615" lon="6.15037">
        <ele>1208.47</ele>
        <time>2020-08-23T09:07:43Z</time>
      </trkpt>
      <trkpt lat="44.97613" lon="6.15038">
        <ele>1208.61</ele>
        <time>2020-08-23T09:08:11Z</time>
      </trkpt>
      <trkpt lat="44.97614" lon="6.15036">
        <ele>1208.71</ele>
        <time>2020-08-23T09:08:32Z</time>
      </trkpt>
      <trkpt lat="44.97613" lon="6.15038">
        <ele>1208.83</ele>
        <time>2020-08-23T09:08:55Z</time>
      </trkpt>
      <trkpt lat="44.97611" lon="6.15054">
        <ele>1210.06</ele>
        <time>2020-08-23T09:09:11Z</time>
      </trkpt>
      <trkpt lat="44.97608" lon="6.15066">
        <ele>1210.13</ele>
        <time>2020-08-23T09:09:26Z</time>
      </trkpt>
      <trkpt lat="44.97606" lon="6.15079">
        <ele>1211.03</ele>
        <time>2020-08-23T09:09:40Z</time>
      </trkpt>
      <trkpt lat="44.97606" lon="6.151">
        <ele>1212.7</ele>
        <time>2020-08-23T09:09:57Z</time>
      </trkpt>
      <trkpt lat="44.97604" lon="6.15113">
        <ele>1213.49</ele>
        <time>2020-08-23T09:10:11Z</time>
      </trkpt>
      <trkpt lat="44.97613" lon="6.15113">
        <ele>1215.11</ele>
        <time>2020-08-23T09:10:26Z</time>
      </trkpt>
      <trkpt lat="44.97622" lon="6.15114">
        <ele>1217.89</ele>
        <time>2020-08-23T09:10:41Z</time>
      </trkpt>
      <trkpt lat="44.97616" lon="6.1512">
        <ele>1219.52</ele>
        <time>2020-08-23T09:10:55Z</time>
      </trkpt>
      <trkpt lat="44.97623" lon="6.15121">
        <ele>1221.24</ele>
        <time>2020-08-23T09:11:09Z</time>
      </trkpt>
      <trkpt lat="44.97623" lon="6.15128">
        <ele>1222.98</ele>
        <time>2020-08-23T09:11:22Z</time>
      </trkpt>
      <trkpt lat="44.97626" lon="6.15129">
        <ele>1225.8</ele>
        <time>2020-08-23T09:11:35Z</time>
      </trkpt>
      <trkpt lat="44.9762" lon="6.15136">
        <ele>1226.81</ele>
        <time>2020-08-23T09:11:49Z</time>
      </trkpt>
      <trkpt lat="44.97617" lon="6.15145">
        <ele>1228.67</ele>
        <time>2020-08-23T09:12:03Z</time>
      </trkpt>
      <trkpt lat="44.97619" lon="6.15153">
        <ele>1232.1</ele>
        <time>2020-08-23T09:12:20Z</time>
      </trkpt>
      <trkpt lat="44.97625" lon="6.15149">
        <ele>1233.04</ele>
        <time>2020-08-23T09:12:32Z</time>
      </trkpt>
      <trkpt lat="44.97634" lon="6.15144">
        <ele>1233.89</ele>
        <time>2020-08-23T09:12:46Z</time>
      </trkpt>
      <trkpt lat="44.97638" lon="6.15147">
        <ele>1237.38</ele>
        <time>2020-08-23T09:13:00Z</time>
      </trkpt>
      <trkpt lat="44.97633" lon="6.15156">
        <ele>1239.4</ele>
        <time>2020-08-23T09:13:16Z</time>
      </trkpt>
      <trkpt lat="44.97631" lon="6.15161">
        <ele>1240.19</ele>
        <time>2020-08-23T09:13:28Z</time>
      </trkpt>
      <trkpt lat="44.97628" lon="6.15166">
        <ele>1242.14</ele>
        <time>2020-08-23T09:13:40Z</time>
      </trkpt>
      <trkpt lat="44.97626" lon="6.15173">
        <ele>1243.84</ele>
        <time>2020-08-23T09:13:53Z</time>
      </trkpt>
      <trkpt lat="44.97624" lon="6.15181">
        <ele>1245.5</ele>
        <time>2020-08-23T09:14:08Z</time>
      </trkpt>
      <trkpt lat="44.97629" lon="6.15181">
        <ele>1247.36</ele>
        <time>2020-08-23T09:14:22Z</time>
      </trkpt>
      <trkpt lat="44.97636" lon="6.15177">
        <ele>1249.29</ele>
        <time>2020-08-23T09:14:36Z</time>
      </trkpt>
      <trkpt lat="44.97639" lon="6.15182">
        <ele>1251.9</ele>
        <time>2020-08-23T09:14:50Z</time>
      </trkpt>
      <trkpt lat="44.97634" lon="6.15194">
        <ele>1254.33</ele>
        <time>2020-08-23T09:15:05Z</time>
      </trkpt>
      <trkpt lat="44.97631" lon="6.15203">
        <ele>1256.11</ele>
        <time>2020-08-23T09:15:20Z</time>
      </trkpt>
      <trkpt lat="44.97632" lon="6.15205">
        <ele>1258.53</ele>
        <time>2020-08-23T09:15:35Z</time>
      </trkpt>
      <trkpt lat="44.97638" lon="6.15205">
        <ele>1260.4</ele>
        <time>2020-08-23T09:15:48Z</time>
      </trkpt>
      <trkpt lat="44.97635" lon="6.1521">
        <ele>1262.08</ele>
        <time>2020-08-23T09:16:00Z</time>
      </trkpt>
      <trkpt lat="44.97629" lon="6.15215">
        <ele>1264.69</ele>
        <time>2020-08-23T09:16:14Z</time>
      </trkpt>
      <trkpt lat="44.97632" lon="6.15219">
        <ele>1266.42</ele>
        <time>2020-08-23T09:16:27Z</time>
      </trkpt>
      <trkpt lat="44.9764" lon="6.15219">
        <ele>1267.93</ele>
        <time>2020-08-23T09:16:43Z</time>
      </trkpt>
      <trkpt lat="44.9764" lon="6.15218">
        <ele>1263.71</ele>
        <time>2020-08-23T09:17:05Z</time>
      </trkpt>
      <trkpt lat="44.9764" lon="6.15218">
        <ele>1268.47</ele>
        <time>2020-08-23T09:17:06Z</time>
      </trkpt>
      <trkpt lat="44.97642" lon="6.15218">
        <ele>1268.51</ele>
        <time>2020-08-23T09:17:43Z</time>
      </trkpt>
      <trkpt lat="44.97638" lon="6.15215">
        <ele>1269.34</ele>
        <time>2020-08-23T09:18:16Z</time>
      </trkpt>
      <trkpt lat="44.97641" lon="6.15217">
        <ele>1269.37</ele>
        <time>2020-08-23T09:18:37Z</time>
      </trkpt>
      <trkpt lat="44.97652" lon="6.15217">
        <ele>1271.31</ele>
        <time>2020-08-23T09:18:55Z</time>
      </trkpt>
      <trkpt lat="44.97656" lon="6.15221">
        <ele>1274.74</ele>
        <time>2020-08-23T09:19:09Z</time>
      </trkpt>
      <trkpt lat="44.97647" lon="6.15228">
        <ele>1277.28</ele>
        <time>2020-08-23T09:19:25Z</time>
      </trkpt>
      <trkpt lat="44.97637" lon="6.15235">
        <ele>1278.03</ele>
        <time>2020-08-23T09:19:41Z</time>
      </trkpt>
      <trkpt lat="44.97637" lon="6.1524">
        <ele>1280.89</ele>
        <time>2020-08-23T09:19:56Z</time>
      </trkpt>
      <trkpt lat="44.97646" lon="6.15239">
        <ele>1282.46</ele>
        <time>2020-08-23T09:20:10Z</time>
      </trkpt>
      <trkpt lat="44.97658" lon="6.15237">
        <ele>1284.95</ele>
        <time>2020-08-23T09:20:27Z</time>
      </trkpt>
      <trkpt lat="44.97669" lon="6.1523">
        <ele>1286.64</ele>
        <time>2020-08-23T09:20:43Z</time>
      </trkpt>
      <trkpt lat="44.97677" lon="6.15221">
        <ele>1287.7</ele>
        <time>2020-08-23T09:20:58Z</time>
      </trkpt>
      <trkpt lat="44.97688" lon="6.15216">
        <ele>1288.46</ele>
        <time>2020-08-23T09:21:13Z</time>
      </trkpt>
      <trkpt lat="44.97696" lon="6.1521">
        <ele>1291.05</ele>
        <time>2020-08-23T09:21:29Z</time>
      </trkpt>
      <trkpt lat="44.97701" lon="6.15205">
        <ele>1292.78</ele>
        <time>2020-08-23T09:21:45Z</time>
      </trkpt>
      <trkpt lat="44.97709" lon="6.15198">
        <ele>1295.37</ele>
        <time>2020-08-23T09:22:01Z</time>
      </trkpt>
      <trkpt lat="44.97709" lon="6.15205">
        <ele>1297.08</ele>
        <time>2020-08-23T09:22:15Z</time>
      </trkpt>
      <trkpt lat="44.97707" lon="6.15218">
        <ele>1299.54</ele>
        <time>2020-08-23T09:22:30Z</time>
      </trkpt>
      <trkpt lat="44.97704" lon="6.1523">
        <ele>1302.04</ele>
        <time>2020-08-23T09:22:44Z</time>
      </trkpt>
      <trkpt lat="44.97706" lon="6.15234">
        <ele>1305.12</ele>
        <time>2020-08-23T09:22:57Z</time>
      </trkpt>
      <trkpt lat="44.97714" lon="6.15228">
        <ele>1306.62</ele>
        <time>2020-08-23T09:23:12Z</time>
      </trkpt>
      <trkpt lat="44.97721" lon="6.1522">
        <ele>1308.31</ele>
        <time>2020-08-23T09:23:26Z</time>
      </trkpt>
      <trkpt lat="44.97728" lon="6.15214">
        <ele>1310.01</ele>
        <time>2020-08-23T09:23:40Z</time>
      </trkpt>
      <trkpt lat="44.97733" lon="6.1521">
        <ele>1312.42</ele>
        <time>2020-08-23T09:23:53Z</time>
      </trkpt>
      <trkpt lat="44.97739" lon="6.15208">
        <ele>1314.31</ele>
        <time>2020-08-23T09:24:05Z</time>
      </trkpt>
      <trkpt lat="44.97737" lon="6.15217">
        <ele>1316.08</ele>
        <time>2020-08-23T09:24:18Z</time>
      </trkpt>
      <trkpt lat="44.97737" lon="6.1522">
        <ele>1318.57</ele>
        <time>2020-08-23T09:24:32Z</time>
      </trkpt>
      <trkpt lat="44.97737" lon="6.15218">
        <ele>1318.45</ele>
        <time>2020-08-23T09:24:49Z</time>
      </trkpt>
      <trkpt lat="44.97737" lon="6.15218">
        <ele>1319.33</ele>
        <time>2020-08-23T09:25:14Z</time>
      </trkpt>
      <trkpt lat="44.97739" lon="6.15217">
        <ele>1319.33</ele>
        <time>2020-08-23T09:25:41Z</time>
      </trkpt>
      <trkpt lat="44.97743" lon="6.15213">
        <ele>1319.35</ele>
        <time>2020-08-23T09:25:58Z</time>
      </trkpt>
      <trkpt lat="44.97744" lon="6.15218">
        <ele>1321.28</ele>
        <time>2020-08-23T09:26:10Z</time>
      </trkpt>
      <trkpt lat="44.97744" lon="6.1523">
        <ele>1323.86</ele>
        <time>2020-08-23T09:26:25Z</time>
      </trkpt>
      <trkpt lat="44.97744" lon="6.15244">
        <ele>1326.4</ele>
        <time>2020-08-23T09:26:39Z</time>
      </trkpt>
      <trkpt lat="44.97739" lon="6.15259">
        <ele>1328.84</ele>
        <time>2020-08-23T09:26:55Z</time>
      </trkpt>
      <trkpt lat="44.97736" lon="6.1527">
        <ele>1331.02</ele>
        <time>2020-08-23T09:27:09Z</time>
      </trkpt>
      <trkpt lat="44.97736" lon="6.15274">
        <ele>1331.66</ele>
        <time>2020-08-23T09:27:22Z</time>
      </trkpt>
      <trkpt lat="44.97742" lon="6.15269">
        <ele>1333.13</ele>
        <time>2020-08-23T09:27:33Z</time>
      </trkpt>
      <trkpt lat="44.97748" lon="6.15264">
        <ele>1334.62</ele>
        <time>2020-08-23T09:27:47Z</time>
      </trkpt>
      <trkpt lat="44.97753" lon="6.15255">
        <ele>1336.38</ele>
        <time>2020-08-23T09:27:58Z</time>
      </trkpt>
      <trkpt lat="44.9776" lon="6.15247">
        <ele>1339.14</ele>
        <time>2020-08-23T09:28:12Z</time>
      </trkpt>
      <trkpt lat="44.97764" lon="6.15249">
        <ele>1341.11</ele>
        <time>2020-08-23T09:28:24Z</time>
      </trkpt>
      <trkpt lat="44.97762" lon="6.15253">
        <ele>1342.85</ele>
        <time>2020-08-23T09:28:37Z</time>
      </trkpt>
      <trkpt lat="44.9776" lon="6.15258">
        <ele>1344.72</ele>
        <time>2020-08-23T09:28:49Z</time>
      </trkpt>
      <trkpt lat="44.97757" lon="6.15269">
        <ele>1346.29</ele>
        <time>2020-08-23T09:29:03Z</time>
      </trkpt>
      <trkpt lat="44.97757" lon="6.15277">
        <ele>1348.6</ele>
        <time>2020-08-23T09:29:18Z</time>
      </trkpt>
      <trkpt lat="44.97763" lon="6.15277">
        <ele>1351.23</ele>
        <time>2020-08-23T09:29:32Z</time>
      </trkpt>
      <trkpt lat="44.9776" lon="6.15283">
        <ele>1352.99</ele>
        <time>2020-08-23T09:29:46Z</time>
      </trkpt>
      <trkpt lat="44.97759" lon="6.15291">
        <ele>1355.45</ele>
        <time>2020-08-23T09:29:59Z</time>
      </trkpt>
      <trkpt lat="44.97759" lon="6.15298">
        <ele>1357.35</ele>
        <time>2020-08-23T09:30:11Z</time>
      </trkpt>
      <trkpt lat="44.97757" lon="6.15305">
        <ele>1359.96</ele>
        <time>2020-08-23T09:30:24Z</time>
      </trkpt>
      <trkpt lat="44.97756" lon="6.15305">
        <ele>1359.84</ele>
        <time>2020-08-23T09:30:42Z</time>
      </trkpt>
      <trkpt lat="44.97756" lon="6.15305">
        <ele>1360.68</ele>
        <time>2020-08-23T09:31:16Z</time>
      </trkpt>
      <trkpt lat="44.97758" lon="6.15305">
        <ele>1360.67</ele>
        <time>2020-08-23T09:31:35Z</time>
      </trkpt>
      <trkpt lat="44.97759" lon="6.15304">
        <ele>1360.68</ele>
        <time>2020-08-23T09:32:04Z</time>
      </trkpt>
      <trkpt lat="44.97758" lon="6.15305">
        <ele>1360.7</ele>
        <time>2020-08-23T09:32:29Z</time>
      </trkpt>
      <trkpt lat="44.97757" lon="6.15304">
        <ele>1360.73</ele>
        <time>2020-08-23T09:32:52Z</time>
      </trkpt>
      <trkpt lat="44.97757" lon="6.15301">
        <ele>1360.76</ele>
        <time>2020-08-23T09:33:23Z</time>
      </trkpt>
      <trkpt lat="44.97752" lon="6.15305">
        <ele>1360.82</ele>
        <time>2020-08-23T09:33:46Z</time>
      </trkpt>
      <trkpt lat="44.97746" lon="6.15314">
        <ele>1362.57</ele>
        <time>2020-08-23T09:33:59Z</time>
      </trkpt>
      <trkpt lat="44.97741" lon="6.15324">
        <ele>1365.17</ele>
        <time>2020-08-23T09:34:14Z</time>
      </trkpt>
      <trkpt lat="44.97734" lon="6.15332">
        <ele>1367.61</ele>
        <time>2020-08-23T09:34:30Z</time>
      </trkpt>
      <trkpt lat="44.97735" lon="6.15337">
        <ele>1369.2</ele>
        <time>2020-08-23T09:34:44Z</time>
      </trkpt>
      <trkpt lat="44.97746" lon="6.15335">
        <ele>1370.87</ele>
        <time>2020-08-23T09:35:01Z</time>
      </trkpt>
      <trkpt lat="44.97756" lon="6.15334">
        <ele>1373.65</ele>
        <time>2020-08-23T09:35:17Z</time>
      </trkpt>
      <trkpt lat="44.9775" lon="6.15339">
        <ele>1375.28</ele>
        <time>2020-08-23T09:35:30Z</time>
      </trkpt>
      <trkpt lat="44.97745" lon="6.15343">
        <ele>1376.99</ele>
        <time>2020-08-23T09:35:42Z</time>
      </trkpt>
      <trkpt lat="44.97743" lon="6.1535">
        <ele>1378.71</ele>
        <time>2020-08-23T09:36:03Z</time>
      </trkpt>
      <trkpt lat="44.97752" lon="6.15349">
        <ele>1381.86</ele>
        <time>2020-08-23T09:36:21Z</time>
      </trkpt>
      <trkpt lat="44.97758" lon="6.1535">
        <ele>1383.72</ele>
        <time>2020-08-23T09:36:34Z</time>
      </trkpt>
      <trkpt lat="44.97765" lon="6.15352">
        <ele>1385.66</ele>
        <time>2020-08-23T09:36:47Z</time>
      </trkpt>
      <trkpt lat="44.9777" lon="6.15354">
        <ele>1387.5</ele>
        <time>2020-08-23T09:36:59Z</time>
      </trkpt>
      <trkpt lat="44.97764" lon="6.15358">
        <ele>1389.2</ele>
        <time>2020-08-23T09:37:12Z</time>
      </trkpt>
      <trkpt lat="44.97759" lon="6.15363">
        <ele>1391.74</ele>
        <time>2020-08-23T09:37:26Z</time>
      </trkpt>
      <trkpt lat="44.97754" lon="6.15371">
        <ele>1393.64</ele>
        <time>2020-08-23T09:37:41Z</time>
      </trkpt>
      <trkpt lat="44.9775" lon="6.15378">
        <ele>1396.41</ele>
        <time>2020-08-23T09:37:54Z</time>
      </trkpt>
      <trkpt lat="44.97748" lon="6.15388">
        <ele>1398.96</ele>
        <time>2020-08-23T09:38:08Z</time>
      </trkpt>
      <trkpt lat="44.97752" lon="6.15391">
        <ele>1401.58</ele>
        <time>2020-08-23T09:38:22Z</time>
      </trkpt>
      <trkpt lat="44.97762" lon="6.15387">
        <ele>1403.17</ele>
        <time>2020-08-23T09:38:36Z</time>
      </trkpt>
      <trkpt lat="44.97769" lon="6.15387">
        <ele>1404.79</ele>
        <time>2020-08-23T09:38:50Z</time>
      </trkpt>
      <trkpt lat="44.97776" lon="6.15386">
        <ele>1406.46</ele>
        <time>2020-08-23T09:39:03Z</time>
      </trkpt>
      <trkpt lat="44.97781" lon="6.15387">
        <ele>1409.12</ele>
        <time>2020-08-23T09:39:17Z</time>
      </trkpt>
      <trkpt lat="44.9779" lon="6.15388">
        <ele>1411.91</ele>
        <time>2020-08-23T09:39:32Z</time>
      </trkpt>
      <trkpt lat="44.97797" lon="6.15387">
        <ele>1414.3</ele>
        <time>2020-08-23T09:39:45Z</time>
      </trkpt>
      <trkpt lat="44.97804" lon="6.15386">
        <ele>1415.9</ele>
        <time>2020-08-23T09:39:58Z</time>
      </trkpt>
      <trkpt lat="44.97811" lon="6.15385">
        <ele>1418.25</ele>
        <time>2020-08-23T09:40:12Z</time>
      </trkpt>
      <trkpt lat="44.97816" lon="6.15384">
        <ele>1420.19</ele>
        <time>2020-08-23T09:40:24Z</time>
      </trkpt>
      <trkpt lat="44.97824" lon="6.15382">
        <ele>1422.88</ele>
        <time>2020-08-23T09:40:38Z</time>
      </trkpt>
      <trkpt lat="44.97828" lon="6.1538">
        <ele>1424.63</ele>
        <time>2020-08-23T09:40:52Z</time>
      </trkpt>
      <trkpt lat="44.97827" lon="6.15376">
        <ele>1424.67</ele>
        <time>2020-08-23T09:41:09Z</time>
      </trkpt>
      <trkpt lat="44.97829" lon="6.15374">
        <ele>1424.71</ele>
        <time>2020-08-23T09:41:35Z</time>
      </trkpt>
      <trkpt lat="44.97828" lon="6.15376">
        <ele>1424.74</ele>
        <time>2020-08-23T09:41:56Z</time>
      </trkpt>
      <trkpt lat="44.97827" lon="6.15377">
        <ele>1424.77</ele>
        <time>2020-08-23T09:42:17Z</time>
      </trkpt>
      <trkpt lat="44.97826" lon="6.15376">
        <ele>1424.8</ele>
        <time>2020-08-23T09:42:43Z</time>
      </trkpt>
      <trkpt lat="44.97825" lon="6.15375">
        <ele>1424.81</ele>
        <time>2020-08-23T09:43:08Z</time>
      </trkpt>
      <trkpt lat="44.97826" lon="6.15376">
        <ele>1424.83</ele>
        <time>2020-08-23T09:43:34Z</time>
      </trkpt>
      <trkpt lat="44.9783" lon="6.15371">
        <ele>1424.83</ele>
        <time>2020-08-23T09:43:51Z</time>
      </trkpt>
      <trkpt lat="44.97835" lon="6.15365">
        <ele>1424.86</ele>
        <time>2020-08-23T09:44:08Z</time>
      </trkpt>
      <trkpt lat="44.97842" lon="6.15354">
        <ele>1424.9</ele>
        <time>2020-08-23T09:44:24Z</time>
      </trkpt>
      <trkpt lat="44.97851" lon="6.15338">
        <ele>1424.89</ele>
        <time>2020-08-23T09:44:43Z</time>
      </trkpt>
      <trkpt lat="44.97856" lon="6.1533">
        <ele>1424.91</ele>
        <time>2020-08-23T09:44:58Z</time>
      </trkpt>
      <trkpt lat="44.97862" lon="6.15327">
        <ele>1424.9</ele>
        <time>2020-08-23T09:45:16Z</time>
      </trkpt>
      <trkpt lat="44.97869" lon="6.15325">
        <ele>1422.61</ele>
        <time>2020-08-23T09:45:33Z</time>
      </trkpt>
      <trkpt lat="44.97884" lon="6.15321">
        <ele>1420.13</ele>
        <time>2020-08-23T09:45:53Z</time>
      </trkpt>
      <trkpt lat="44.97892" lon="6.15317">
        <ele>1419.21</ele>
        <time>2020-08-23T09:46:03Z</time>
      </trkpt>
      <trkpt lat="44.97901" lon="6.15312">
        <ele>1418.34</ele>
        <time>2020-08-23T09:46:19Z</time>
      </trkpt>
      <trkpt lat="44.97907" lon="6.15315">
        <ele>1416.51</ele>
        <time>2020-08-23T09:46:33Z</time>
      </trkpt>
      <trkpt lat="44.97912" lon="6.15317">
        <ele>1412.97</ele>
        <time>2020-08-23T09:46:48Z</time>
      </trkpt>
      <trkpt lat="44.97917" lon="6.15319">
        <ele>1412.96</ele>
        <time>2020-08-23T09:46:55Z</time>
      </trkpt>
      <trkpt lat="44.9792" lon="6.15322">
        <ele>1412.99</ele>
        <time>2020-08-23T09:47:10Z</time>
      </trkpt>
      <trkpt lat="44.97925" lon="6.15328">
        <ele>1412.96</ele>
        <time>2020-08-23T09:47:24Z</time>
      </trkpt>
      <trkpt lat="44.97927" lon="6.15326">
        <ele>1412.9</ele>
        <time>2020-08-23T09:47:44Z</time>
      </trkpt>
      <trkpt lat="44.97927" lon="6.15318">
        <ele>1415.15</ele>
        <time>2020-08-23T09:47:56Z</time>
      </trkpt>
      <trkpt lat="44.97933" lon="6.15311">
        <ele>1416.76</ele>
        <time>2020-08-23T09:48:11Z</time>
      </trkpt>
      <trkpt lat="44.97929" lon="6.15298">
        <ele>1416.63</ele>
        <time>2020-08-23T09:48:26Z</time>
      </trkpt>
      <trkpt lat="44.97928" lon="6.15292">
        <ele>1414.17</ele>
        <time>2020-08-23T09:48:32Z</time>
      </trkpt>
      <trkpt lat="44.9793" lon="6.15281">
        <ele>1414.18</ele>
        <time>2020-08-23T09:48:47Z</time>
      </trkpt>
      <trkpt lat="44.97936" lon="6.15269">
        <ele>1414.16</ele>
        <time>2020-08-23T09:49:03Z</time>
      </trkpt>
      <trkpt lat="44.97938" lon="6.15266">
        <ele>1416.63</ele>
        <time>2020-08-23T09:49:08Z</time>
      </trkpt>
      <trkpt lat="44.9794" lon="6.15261">
        <ele>1418.56</ele>
        <time>2020-08-23T09:49:30Z</time>
      </trkpt>
      <trkpt lat="44.97941" lon="6.15256">
        <ele>1419.37</ele>
        <time>2020-08-23T09:49:43Z</time>
      </trkpt>
      <trkpt lat="44.97946" lon="6.15246">
        <ele>1420.16</ele>
        <time>2020-08-23T09:49:55Z</time>
      </trkpt>
      <trkpt lat="44.97954" lon="6.15238">
        <ele>1421.9</ele>
        <time>2020-08-23T09:50:11Z</time>
      </trkpt>
      <trkpt lat="44.97957" lon="6.15229">
        <ele>1422.77</ele>
        <time>2020-08-23T09:50:24Z</time>
      </trkpt>
      <trkpt lat="44.97962" lon="6.15222">
        <ele>1422.74</ele>
        <time>2020-08-23T09:50:38Z</time>
      </trkpt>
      <trkpt lat="44.97965" lon="6.15218">
        <ele>1420.38</ele>
        <time>2020-08-23T09:50:47Z</time>
      </trkpt>
      <trkpt lat="44.9797" lon="6.15213">
        <ele>1419.52</ele>
        <time>2020-08-23T09:51:02Z</time>
      </trkpt>
      <trkpt lat="44.97969" lon="6.15208">
        <ele>1419.53</ele>
        <time>2020-08-23T09:51:14Z</time>
      </trkpt>
      <trkpt lat="44.97969" lon="6.15196">
        <ele>1419.56</ele>
        <time>2020-08-23T09:51:31Z</time>
      </trkpt>
      <trkpt lat="44.97972" lon="6.15183">
        <ele>1419.5</ele>
        <time>2020-08-23T09:51:47Z</time>
      </trkpt>
      <trkpt lat="44.97977" lon="6.15169">
        <ele>1417.93</ele>
        <time>2020-08-23T09:52:04Z</time>
      </trkpt>
      <trkpt lat="44.9798" lon="6.15155">
        <ele>1415.32</ele>
        <time>2020-08-23T09:52:20Z</time>
      </trkpt>
      <trkpt lat="44.97983" lon="6.15147">
        <ele>1413.44</ele>
        <time>2020-08-23T09:52:35Z</time>
      </trkpt>
      <trkpt lat="44.9799" lon="6.15142">
        <ele>1412.44</ele>
        <time>2020-08-23T09:52:50Z</time>
      </trkpt>
      <trkpt lat="44.97996" lon="6.15132">
        <ele>1412.43</ele>
        <time>2020-08-23T09:53:06Z</time>
      </trkpt>
      <trkpt lat="44.97999" lon="6.15123">
        <ele>1411.58</ele>
        <time>2020-08-23T09:53:17Z</time>
      </trkpt>
      <trkpt lat="44.98006" lon="6.15109">
        <ele>1409.93</ele>
        <time>2020-08-23T09:53:33Z</time>
      </trkpt>
      <trkpt lat="44.98012" lon="6.15091">
        <ele>1408.33</ele>
        <time>2020-08-23T09:53:52Z</time>
      </trkpt>
      <trkpt lat="44.98016" lon="6.15083">
        <ele>1407.56</ele>
        <time>2020-08-23T09:54:06Z</time>
      </trkpt>
      <trkpt lat="44.9802" lon="6.15077">
        <ele>1407.59</ele>
        <time>2020-08-23T09:54:17Z</time>
      </trkpt>
      <trkpt lat="44.98023" lon="6.15075">
        <ele>1409.92</ele>
        <time>2020-08-23T09:54:23Z</time>
      </trkpt>
      <trkpt lat="44.98032" lon="6.15065">
        <ele>1411.53</ele>
        <time>2020-08-23T09:54:40Z</time>
      </trkpt>
      <trkpt lat="44.98038" lon="6.15057">
        <ele>1413.21</ele>
        <time>2020-08-23T09:54:54Z</time>
      </trkpt>
      <trkpt lat="44.98046" lon="6.15047">
        <ele>1414.04</ele>
        <time>2020-08-23T09:55:09Z</time>
      </trkpt>
      <trkpt lat="44.98053" lon="6.15039">
        <ele>1414.93</ele>
        <time>2020-08-23T09:55:23Z</time>
      </trkpt>
      <trkpt lat="44.98056" lon="6.15033">
        <ele>1417.58</ele>
        <time>2020-08-23T09:55:39Z</time>
      </trkpt>
      <trkpt lat="44.98063" lon="6.15024">
        <ele>1418.39</ele>
        <time>2020-08-23T09:55:53Z</time>
      </trkpt>
      <trkpt lat="44.98067" lon="6.15013">
        <ele>1419.33</ele>
        <time>2020-08-23T09:56:08Z</time>
      </trkpt>
      <trkpt lat="44.98071" lon="6.15005">
        <ele>1420.16</ele>
        <time>2020-08-23T09:56:22Z</time>
      </trkpt>
      <trkpt lat="44.98074" lon="6.14992">
        <ele>1420.99</ele>
        <time>2020-08-23T09:56:37Z</time>
      </trkpt>
      <trkpt lat="44.98079" lon="6.1498">
        <ele>1422.83</ele>
        <time>2020-08-23T09:56:52Z</time>
      </trkpt>
      <trkpt lat="44.98081" lon="6.14972">
        <ele>1422.84</ele>
        <time>2020-08-23T09:57:07Z</time>
      </trkpt>
      <trkpt lat="44.98087" lon="6.14964">
        <ele>1422.84</ele>
        <time>2020-08-23T09:57:19Z</time>
      </trkpt>
      <trkpt lat="44.98093" lon="6.14957">
        <ele>1422.85</ele>
        <time>2020-08-23T09:57:35Z</time>
      </trkpt>
      <trkpt lat="44.98098" lon="6.14952">
        <ele>1424.6</ele>
        <time>2020-08-23T09:57:48Z</time>
      </trkpt>
      <trkpt lat="44.98101" lon="6.14947">
        <ele>1425.4</ele>
        <time>2020-08-23T09:58:04Z</time>
      </trkpt>
      <trkpt lat="44.98105" lon="6.14944">
        <ele>1425.41</ele>
        <time>2020-08-23T09:58:19Z</time>
      </trkpt>
      <trkpt lat="44.98111" lon="6.14939">
        <ele>1425.42</ele>
        <time>2020-08-23T09:58:33Z</time>
      </trkpt>
      <trkpt lat="44.98112" lon="6.14938">
        <ele>1425.43</ele>
        <time>2020-08-23T09:58:51Z</time>
      </trkpt>
      <trkpt lat="44.98113" lon="6.14931">
        <ele>1425.46</ele>
        <time>2020-08-23T09:59:06Z</time>
      </trkpt>
      <trkpt lat="44.98118" lon="6.14926">
        <ele>1426.2</ele>
        <time>2020-08-23T09:59:27Z</time>
      </trkpt>
      <trkpt lat="44.98125" lon="6.14919">
        <ele>1427.27</ele>
        <time>2020-08-23T09:59:41Z</time>
      </trkpt>
      <trkpt lat="44.98131" lon="6.14912">
        <ele>1428.05</ele>
        <time>2020-08-23T09:59:55Z</time>
      </trkpt>
      <trkpt lat="44.98135" lon="6.14909">
        <ele>1429.76</ele>
        <time>2020-08-23T10:00:11Z</time>
      </trkpt>
      <trkpt lat="44.98139" lon="6.14903">
        <ele>1432.59</ele>
        <time>2020-08-23T10:00:25Z</time>
      </trkpt>
      <trkpt lat="44.98144" lon="6.14897">
        <ele>1433.33</ele>
        <time>2020-08-23T10:00:40Z</time>
      </trkpt>
      <trkpt lat="44.98148" lon="6.14891">
        <ele>1433.32</ele>
        <time>2020-08-23T10:01:03Z</time>
      </trkpt>
      <trkpt lat="44.98152" lon="6.14881">
        <ele>1436.13</ele>
        <time>2020-08-23T10:01:19Z</time>
      </trkpt>
      <trkpt lat="44.98156" lon="6.14876">
        <ele>1436.02</ele>
        <time>2020-08-23T10:01:34Z</time>
      </trkpt>
      <trkpt lat="44.98158" lon="6.14874">
        <ele>1435.97</ele>
        <time>2020-08-23T10:01:49Z</time>
      </trkpt>
      <trkpt lat="44.98165" lon="6.14866">
        <ele>1436.89</ele>
        <time>2020-08-23T10:02:03Z</time>
      </trkpt>
      <trkpt lat="44.98174" lon="6.14856">
        <ele>1437.76</ele>
        <time>2020-08-23T10:02:22Z</time>
      </trkpt>
      <trkpt lat="44.98179" lon="6.14852">
        <ele>1438.58</ele>
        <time>2020-08-23T10:02:34Z</time>
      </trkpt>
      <trkpt lat="44.98183" lon="6.14848">
        <ele>1438.52</ele>
        <time>2020-08-23T10:02:49Z</time>
      </trkpt>
      <trkpt lat="44.98186" lon="6.14845">
        <ele>1439.31</ele>
        <time>2020-08-23T10:03:02Z</time>
      </trkpt>
      <trkpt lat="44.98188" lon="6.14841">
        <ele>1439.28</ele>
        <time>2020-08-23T10:03:17Z</time>
      </trkpt>
      <trkpt lat="44.98188" lon="6.1484">
        <ele>1439.26</ele>
        <time>2020-08-23T10:03:19Z</time>
      </trkpt>
      <trkpt lat="44.98188" lon="6.14836">
        <ele>1439.26</ele>
        <time>2020-08-23T10:03:34Z</time>
      </trkpt>
      <trkpt lat="44.98192" lon="6.14824">
        <ele>1439.28</ele>
        <time>2020-08-23T10:03:54Z</time>
      </trkpt>
      <trkpt lat="44.98195" lon="6.14818">
        <ele>1439.21</ele>
        <time>2020-08-23T10:04:15Z</time>
      </trkpt>
      <trkpt lat="44.98196" lon="6.14817">
        <ele>1439.22</ele>
        <time>2020-08-23T10:04:39Z</time>
      </trkpt>
      <trkpt lat="44.98201" lon="6.14805">
        <ele>1439.17</ele>
        <time>2020-08-23T10:05:02Z</time>
      </trkpt>
      <trkpt lat="44.98207" lon="6.14797">
        <ele>1436.72</ele>
        <time>2020-08-23T10:05:18Z</time>
      </trkpt>
      <trkpt lat="44.98212" lon="6.14794">
        <ele>1435.88</ele>
        <time>2020-08-23T10:05:33Z</time>
      </trkpt>
      <trkpt lat="44.98215" lon="6.14786">
        <ele>1436</ele>
        <time>2020-08-23T10:05:47Z</time>
      </trkpt>
      <trkpt lat="44.98221" lon="6.14776">
        <ele>1435.88</ele>
        <time>2020-08-23T10:06:03Z</time>
      </trkpt>
      <trkpt lat="44.98226" lon="6.14769">
        <ele>1432.33</ele>
        <time>2020-08-23T10:06:21Z</time>
      </trkpt>
      <trkpt lat="44.98226" lon="6.14759">
        <ele>1429.58</ele>
        <time>2020-08-23T10:06:36Z</time>
      </trkpt>
      <trkpt lat="44.98227" lon="6.14748">
        <ele>1427.14</ele>
        <time>2020-08-23T10:06:53Z</time>
      </trkpt>
      <trkpt lat="44.98232" lon="6.14738">
        <ele>1423.45</ele>
        <time>2020-08-23T10:07:06Z</time>
      </trkpt>
      <trkpt lat="44.98237" lon="6.14726">
        <ele>1423.69</ele>
        <time>2020-08-23T10:07:22Z</time>
      </trkpt>
      <trkpt lat="44.98244" lon="6.14722">
        <ele>1423.49</ele>
        <time>2020-08-23T10:07:38Z</time>
      </trkpt>
      <trkpt lat="44.98245" lon="6.14714">
        <ele>1423.56</ele>
        <time>2020-08-23T10:07:50Z</time>
      </trkpt>
      <trkpt lat="44.98242" lon="6.14714">
        <ele>1423.53</ele>
        <time>2020-08-23T10:08:19Z</time>
      </trkpt>
      <trkpt lat="44.98244" lon="6.14706">
        <ele>1423.5</ele>
        <time>2020-08-23T10:08:30Z</time>
      </trkpt>
      <trkpt lat="44.98251" lon="6.14688">
        <ele>1423.45</ele>
        <time>2020-08-23T10:08:49Z</time>
      </trkpt>
      <trkpt lat="44.98255" lon="6.14683">
        <ele>1425.93</ele>
        <time>2020-08-23T10:09:01Z</time>
      </trkpt>
      <trkpt lat="44.98256" lon="6.14679">
        <ele>1425.82</ele>
        <time>2020-08-23T10:09:20Z</time>
      </trkpt>
      <trkpt lat="44.98254" lon="6.14674">
        <ele>1423.34</ele>
        <time>2020-08-23T10:09:39Z</time>
      </trkpt>
      <trkpt lat="44.98253" lon="6.14672">
        <ele>1423.42</ele>
        <time>2020-08-23T10:10:04Z</time>
      </trkpt>
      <trkpt lat="44.98251" lon="6.14662">
        <ele>1422.55</ele>
        <time>2020-08-23T10:10:22Z</time>
      </trkpt>
      <trkpt lat="44.98263" lon="6.14654">
        <ele>1422.68</ele>
        <time>2020-08-23T10:10:38Z</time>
      </trkpt>
      <trkpt lat="44.98265" lon="6.14648">
        <ele>1425.18</ele>
        <time>2020-08-23T10:10:46Z</time>
      </trkpt>
      <trkpt lat="44.98268" lon="6.14645">
        <ele>1426.75</ele>
        <time>2020-08-23T10:11:02Z</time>
      </trkpt>
      <trkpt lat="44.98268" lon="6.14646">
        <ele>1427.5</ele>
        <time>2020-08-23T10:11:30Z</time>
      </trkpt>
      <trkpt lat="44.98269" lon="6.14645">
        <ele>1427.46</ele>
        <time>2020-08-23T10:11:51Z</time>
      </trkpt>
      <trkpt lat="44.98269" lon="6.14646">
        <ele>1427.39</ele>
        <time>2020-08-23T10:12:15Z</time>
      </trkpt>
      <trkpt lat="44.98273" lon="6.14637">
        <ele>1427.38</ele>
        <time>2020-08-23T10:12:31Z</time>
      </trkpt>
      <trkpt lat="44.9828" lon="6.14619">
        <ele>1427.27</ele>
        <time>2020-08-23T10:12:50Z</time>
      </trkpt>
      <trkpt lat="44.98289" lon="6.14606">
        <ele>1427.34</ele>
        <time>2020-08-23T10:13:08Z</time>
      </trkpt>
      <trkpt lat="44.98295" lon="6.14599">
        <ele>1428.19</ele>
        <time>2020-08-23T10:13:24Z</time>
      </trkpt>
      <trkpt lat="44.98303" lon="6.1459">
        <ele>1428.07</ele>
        <time>2020-08-23T10:13:39Z</time>
      </trkpt>
      <trkpt lat="44.98317" lon="6.14587">
        <ele>1428.03</ele>
        <time>2020-08-23T10:13:57Z</time>
      </trkpt>
      <trkpt lat="44.98318" lon="6.14586">
        <ele>1425.73</ele>
        <time>2020-08-23T10:13:59Z</time>
      </trkpt>
      <trkpt lat="44.98328" lon="6.14576">
        <ele>1425.85</ele>
        <time>2020-08-23T10:14:15Z</time>
      </trkpt>
      <trkpt lat="44.98335" lon="6.14565">
        <ele>1425.8</ele>
        <time>2020-08-23T10:14:30Z</time>
      </trkpt>
      <trkpt lat="44.98342" lon="6.14553">
        <ele>1428.12</ele>
        <time>2020-08-23T10:14:44Z</time>
      </trkpt>
      <trkpt lat="44.98345" lon="6.14536">
        <ele>1428.03</ele>
        <time>2020-08-23T10:15:00Z</time>
      </trkpt>
      <trkpt lat="44.98353" lon="6.14523">
        <ele>1428</ele>
        <time>2020-08-23T10:15:19Z</time>
      </trkpt>
      <trkpt lat="44.98352" lon="6.14521">
        <ele>1425.64</ele>
        <time>2020-08-23T10:15:22Z</time>
      </trkpt>
      <trkpt lat="44.98356" lon="6.14515">
        <ele>1424.03</ele>
        <time>2020-08-23T10:15:37Z</time>
      </trkpt>
      <trkpt lat="44.98356" lon="6.14508">
        <ele>1423.16</ele>
        <time>2020-08-23T10:15:53Z</time>
      </trkpt>
      <trkpt lat="44.98356" lon="6.145">
        <ele>1421.28</ele>
        <time>2020-08-23T10:16:05Z</time>
      </trkpt>
      <trkpt lat="44.98356" lon="6.14498">
        <ele>1420.51</ele>
        <time>2020-08-23T10:16:24Z</time>
      </trkpt>
      <trkpt lat="44.98357" lon="6.14487">
        <ele>1417.03</ele>
        <time>2020-08-23T10:16:39Z</time>
      </trkpt>
      <trkpt lat="44.98361" lon="6.14477">
        <ele>1413.3</ele>
        <time>2020-08-23T10:16:57Z</time>
      </trkpt>
      <trkpt lat="44.98363" lon="6.14467">
        <ele>1409.59</ele>
        <time>2020-08-23T10:17:14Z</time>
      </trkpt>
      <trkpt lat="44.98366" lon="6.14449">
        <ele>1407.1</ele>
        <time>2020-08-23T10:17:33Z</time>
      </trkpt>
      <trkpt lat="44.98375" lon="6.14439">
        <ele>1407.16</ele>
        <time>2020-08-23T10:17:49Z</time>
      </trkpt>
      <trkpt lat="44.9838" lon="6.14438">
        <ele>1407.19</ele>
        <time>2020-08-23T10:18:03Z</time>
      </trkpt>
      <trkpt lat="44.98382" lon="6.1443">
        <ele>1409.5</ele>
        <time>2020-08-23T10:18:20Z</time>
      </trkpt>
      <trkpt lat="44.98386" lon="6.14422">
        <ele>1409.5</ele>
        <time>2020-08-23T10:18:33Z</time>
      </trkpt>
      <trkpt lat="44.98391" lon="6.14416">
        <ele>1411.97</ele>
        <time>2020-08-23T10:18:48Z</time>
      </trkpt>
      <trkpt lat="44.98393" lon="6.14414">
        <ele>1412.78</ele>
        <time>2020-08-23T10:19:00Z</time>
      </trkpt>
      <trkpt lat="44.98392" lon="6.14419">
        <ele>1414.62</ele>
        <time>2020-08-23T10:19:14Z</time>
      </trkpt>
      <trkpt lat="44.98392" lon="6.14421">
        <ele>1416.32</ele>
        <time>2020-08-23T10:19:27Z</time>
      </trkpt>
      <trkpt lat="44.98394" lon="6.14418">
        <ele>1418.17</ele>
        <time>2020-08-23T10:19:44Z</time>
      </trkpt>
      <trkpt lat="44.98397" lon="6.14415">
        <ele>1418.94</ele>
        <time>2020-08-23T10:20:01Z</time>
      </trkpt>
      <trkpt lat="44.98401" lon="6.14414">
        <ele>1421.67</ele>
        <time>2020-08-23T10:20:18Z</time>
      </trkpt>
      <trkpt lat="44.98407" lon="6.14413">
        <ele>1424.05</ele>
        <time>2020-08-23T10:20:35Z</time>
      </trkpt>
      <trkpt lat="44.98411" lon="6.14409">
        <ele>1425.57</ele>
        <time>2020-08-23T10:20:48Z</time>
      </trkpt>
      <trkpt lat="44.98417" lon="6.14403">
        <ele>1425.47</ele>
        <time>2020-08-23T10:21:04Z</time>
      </trkpt>
      <trkpt lat="44.98421" lon="6.14403">
        <ele>1425.42</ele>
        <time>2020-08-23T10:21:23Z</time>
      </trkpt>
      <trkpt lat="44.98425" lon="6.14401">
        <ele>1425.38</ele>
        <time>2020-08-23T10:21:43Z</time>
      </trkpt>
      <trkpt lat="44.98429" lon="6.144">
        <ele>1426.95</ele>
        <time>2020-08-23T10:21:58Z</time>
      </trkpt>
      <trkpt lat="44.98431" lon="6.14395">
        <ele>1428.63</ele>
        <time>2020-08-23T10:22:13Z</time>
      </trkpt>
      <trkpt lat="44.98435" lon="6.1439">
        <ele>1431.93</ele>
        <time>2020-08-23T10:22:29Z</time>
      </trkpt>
      <trkpt lat="44.98439" lon="6.14386">
        <ele>1433.53</ele>
        <time>2020-08-23T10:22:47Z</time>
      </trkpt>
      <trkpt lat="44.98441" lon="6.14385">
        <ele>1434.37</ele>
        <time>2020-08-23T10:23:03Z</time>
      </trkpt>
      <trkpt lat="44.98443" lon="6.14383">
        <ele>1436.13</ele>
        <time>2020-08-23T10:23:15Z</time>
      </trkpt>
      <trkpt lat="44.98445" lon="6.14382">
        <ele>1437.87</ele>
        <time>2020-08-23T10:23:29Z</time>
      </trkpt>
      <trkpt lat="44.98449" lon="6.1438">
        <ele>1441.36</ele>
        <time>2020-08-23T10:23:40Z</time>
      </trkpt>
      <trkpt lat="44.98452" lon="6.14372">
        <ele>1443</ele>
        <time>2020-08-23T10:23:54Z</time>
      </trkpt>
      <trkpt lat="44.98456" lon="6.1437">
        <ele>1444.49</ele>
        <time>2020-08-23T10:24:08Z</time>
      </trkpt>
      <trkpt lat="44.98457" lon="6.1437">
        <ele>1445.57</ele>
        <time>2020-08-23T10:24:10Z</time>
      </trkpt>
      <trkpt lat="44.98457" lon="6.14368">
        <ele>1446.25</ele>
        <time>2020-08-23T10:24:19Z</time>
      </trkpt>
      <trkpt lat="44.98458" lon="6.14368">
        <ele>1447.18</ele>
        <time>2020-08-23T10:24:23Z</time>
      </trkpt>
      <trkpt lat="44.9846" lon="6.14367">
        <ele>1447.15</ele>
        <time>2020-08-23T10:24:28Z</time>
      </trkpt>
      <trkpt lat="44.98462" lon="6.14367">
        <ele>1449.48</ele>
        <time>2020-08-23T10:24:36Z</time>
      </trkpt>
      <trkpt lat="44.98463" lon="6.14365">
        <ele>1451.1</ele>
        <time>2020-08-23T10:24:47Z</time>
      </trkpt>
      <trkpt lat="44.98468" lon="6.14361">
        <ele>1452.72</ele>
        <time>2020-08-23T10:25:01Z</time>
      </trkpt>
      <trkpt lat="44.98473" lon="6.14354">
        <ele>1456.21</ele>
        <time>2020-08-23T10:25:15Z</time>
      </trkpt>
      <trkpt lat="44.98476" lon="6.14352">
        <ele>1458.55</ele>
        <time>2020-08-23T10:25:33Z</time>
      </trkpt>
      <trkpt lat="44.98476" lon="6.14359">
        <ele>1461.06</ele>
        <time>2020-08-23T10:25:46Z</time>
      </trkpt>
      <trkpt lat="44.98477" lon="6.1436">
        <ele>1461.73</ele>
        <time>2020-08-23T10:26:00Z</time>
      </trkpt>
      <trkpt lat="44.98478" lon="6.14358">
        <ele>1462.49</ele>
        <time>2020-08-23T10:26:22Z</time>
      </trkpt>
      <trkpt lat="44.98482" lon="6.14352">
        <ele>1464.96</ele>
        <time>2020-08-23T10:26:36Z</time>
      </trkpt>
      <trkpt lat="44.98486" lon="6.1435">
        <ele>1467.39</ele>
        <time>2020-08-23T10:26:51Z</time>
      </trkpt>
      <trkpt lat="44.98487" lon="6.14354">
        <ele>1469.18</ele>
        <time>2020-08-23T10:27:03Z</time>
      </trkpt>
      <trkpt lat="44.9849" lon="6.14352">
        <ele>1471.58</ele>
        <time>2020-08-23T10:27:15Z</time>
      </trkpt>
      <trkpt lat="44.98492" lon="6.14348">
        <ele>1473.11</ele>
        <time>2020-08-23T10:27:28Z</time>
      </trkpt>
      <trkpt lat="44.98495" lon="6.14348">
        <ele>1475.86</ele>
        <time>2020-08-23T10:27:43Z</time>
      </trkpt>
      <trkpt lat="44.98488" lon="6.14356">
        <ele>1478.58</ele>
        <time>2020-08-23T10:27:59Z</time>
      </trkpt>
      <trkpt lat="44.98485" lon="6.14365">
        <ele>1480.27</ele>
        <time>2020-08-23T10:28:15Z</time>
      </trkpt>
      <trkpt lat="44.98484" lon="6.14373">
        <ele>1482.15</ele>
        <time>2020-08-23T10:28:28Z</time>
      </trkpt>
      <trkpt lat="44.98486" lon="6.14375">
        <ele>1484.76</ele>
        <time>2020-08-23T10:28:44Z</time>
      </trkpt>
      <trkpt lat="44.98489" lon="6.14375">
        <ele>1487.44</ele>
        <time>2020-08-23T10:29:00Z</time>
      </trkpt>
      <trkpt lat="44.98489" lon="6.14376">
        <ele>1490.23</ele>
        <time>2020-08-23T10:29:20Z</time>
      </trkpt>
      <trkpt lat="44.9849" lon="6.14383">
        <ele>1492.87</ele>
        <time>2020-08-23T10:29:35Z</time>
      </trkpt>
      <trkpt lat="44.98492" lon="6.14388">
        <ele>1494.37</ele>
        <time>2020-08-23T10:29:49Z</time>
      </trkpt>
      <trkpt lat="44.9849" lon="6.14386">
        <ele>1494.31</ele>
        <time>2020-08-23T10:30:15Z</time>
      </trkpt>
      <trkpt lat="44.98488" lon="6.14385">
        <ele>1494.26</ele>
        <time>2020-08-23T10:30:44Z</time>
      </trkpt>
      <trkpt lat="44.98487" lon="6.14383">
        <ele>1486.76</ele>
        <time>2020-08-23T10:31:00Z</time>
      </trkpt>
      <trkpt lat="44.98487" lon="6.14383">
        <ele>1493.82</ele>
        <time>2020-08-23T10:31:01Z</time>
      </trkpt>
      <trkpt lat="44.98487" lon="6.14383">
        <ele>1496.14</ele>
        <time>2020-08-23T10:31:03Z</time>
      </trkpt>
      <trkpt lat="44.98487" lon="6.14383">
        <ele>1487.09</ele>
        <time>2020-08-23T10:31:05Z</time>
      </trkpt>
      <trkpt lat="44.98488" lon="6.14383">
        <ele>1495.45</ele>
        <time>2020-08-23T10:31:06Z</time>
      </trkpt>
      <trkpt lat="44.98488" lon="6.14383">
        <ele>1489.31</ele>
        <time>2020-08-23T10:31:08Z</time>
      </trkpt>
      <trkpt lat="44.98488" lon="6.14383">
        <ele>1494.45</ele>
        <time>2020-08-23T10:31:09Z</time>
      </trkpt>
      <trkpt lat="44.98489" lon="6.14383">
        <ele>1495.56</ele>
        <time>2020-08-23T10:31:11Z</time>
      </trkpt>
      <trkpt lat="44.98489" lon="6.14382">
        <ele>1495.52</ele>
        <time>2020-08-23T10:31:18Z</time>
      </trkpt>
      <trkpt lat="44.98486" lon="6.14381">
        <ele>1495.5</ele>
        <time>2020-08-23T10:31:47Z</time>
      </trkpt>
      <trkpt lat="44.98482" lon="6.14381">
        <ele>1495.49</ele>
        <time>2020-08-23T10:32:17Z</time>
      </trkpt>
      <trkpt lat="44.98481" lon="6.14381">
        <ele>1495.49</ele>
        <time>2020-08-23T10:32:46Z</time>
      </trkpt>
      <trkpt lat="44.98484" lon="6.1438">
        <ele>1495.51</ele>
        <time>2020-08-23T10:33:14Z</time>
      </trkpt>
      <trkpt lat="44.98486" lon="6.1438">
        <ele>1495.52</ele>
        <time>2020-08-23T10:33:45Z</time>
      </trkpt>
      <trkpt lat="44.98488" lon="6.14383">
        <ele>1495.55</ele>
        <time>2020-08-23T10:34:15Z</time>
      </trkpt>
      <trkpt lat="44.98481" lon="6.14391">
        <ele>1495.58</ele>
        <time>2020-08-23T10:34:35Z</time>
      </trkpt>
      <trkpt lat="44.98481" lon="6.144">
        <ele>1496.55</ele>
        <time>2020-08-23T10:34:50Z</time>
      </trkpt>
      <trkpt lat="44.9848" lon="6.14404">
        <ele>1498.18</ele>
        <time>2020-08-23T10:35:07Z</time>
      </trkpt>
      <trkpt lat="44.98479" lon="6.1441">
        <ele>1500.06</ele>
        <time>2020-08-23T10:35:21Z</time>
      </trkpt>
      <trkpt lat="44.98478" lon="6.14415">
        <ele>1501.67</ele>
        <time>2020-08-23T10:35:36Z</time>
      </trkpt>
      <trkpt lat="44.98478" lon="6.14418">
        <ele>1502.49</ele>
        <time>2020-08-23T10:35:52Z</time>
      </trkpt>
      <trkpt lat="44.98481" lon="6.14419">
        <ele>1503.32</ele>
        <time>2020-08-23T10:36:08Z</time>
      </trkpt>
      <trkpt lat="44.98483" lon="6.14417">
        <ele>1504.99</ele>
        <time>2020-08-23T10:36:23Z</time>
      </trkpt>
      <trkpt lat="44.98486" lon="6.14421">
        <ele>1506</ele>
        <time>2020-08-23T10:36:41Z</time>
      </trkpt>
      <trkpt lat="44.98488" lon="6.14422">
        <ele>1508.64</ele>
        <time>2020-08-23T10:36:56Z</time>
      </trkpt>
      <trkpt lat="44.98489" lon="6.14426">
        <ele>1509.6</ele>
        <time>2020-08-23T10:37:09Z</time>
      </trkpt>
      <trkpt lat="44.98489" lon="6.14432">
        <ele>1511.19</ele>
        <time>2020-08-23T10:37:24Z</time>
      </trkpt>
      <trkpt lat="44.98486" lon="6.14436">
        <ele>1512.93</ele>
        <time>2020-08-23T10:37:40Z</time>
      </trkpt>
      <trkpt lat="44.98485" lon="6.14441">
        <ele>1514.66</ele>
        <time>2020-08-23T10:37:56Z</time>
      </trkpt>
      <trkpt lat="44.98485" lon="6.14448">
        <ele>1516.22</ele>
        <time>2020-08-23T10:38:11Z</time>
      </trkpt>
      <trkpt lat="44.98485" lon="6.1445">
        <ele>1517.02</ele>
        <time>2020-08-23T10:38:32Z</time>
      </trkpt>
      <trkpt lat="44.98487" lon="6.14449">
        <ele>1517.75</ele>
        <time>2020-08-23T10:38:46Z</time>
      </trkpt>
      <trkpt lat="44.98489" lon="6.14445">
        <ele>1519.31</ele>
        <time>2020-08-23T10:39:02Z</time>
      </trkpt>
      <trkpt lat="44.98492" lon="6.14441">
        <ele>1521.04</ele>
        <time>2020-08-23T10:39:15Z</time>
      </trkpt>
      <trkpt lat="44.98496" lon="6.1444">
        <ele>1522.59</ele>
        <time>2020-08-23T10:39:30Z</time>
      </trkpt>
      <trkpt lat="44.98502" lon="6.14436">
        <ele>1524.29</ele>
        <time>2020-08-23T10:39:50Z</time>
      </trkpt>
      <trkpt lat="44.98502" lon="6.14429">
        <ele>1525.83</ele>
        <time>2020-08-23T10:40:02Z</time>
      </trkpt>
      <trkpt lat="44.98503" lon="6.14425">
        <ele>1527.37</ele>
        <time>2020-08-23T10:40:18Z</time>
      </trkpt>
      <trkpt lat="44.98506" lon="6.14429">
        <ele>1529.05</ele>
        <time>2020-08-23T10:40:33Z</time>
      </trkpt>
      <trkpt lat="44.98508" lon="6.14428">
        <ele>1529.8</ele>
        <time>2020-08-23T10:40:48Z</time>
      </trkpt>
      <trkpt lat="44.9851" lon="6.14422">
        <ele>1532.19</ele>
        <time>2020-08-23T10:41:11Z</time>
      </trkpt>
      <trkpt lat="44.98515" lon="6.14416">
        <ele>1533.9</ele>
        <time>2020-08-23T10:41:24Z</time>
      </trkpt>
      <trkpt lat="44.98519" lon="6.1441">
        <ele>1535.43</ele>
        <time>2020-08-23T10:41:41Z</time>
      </trkpt>
      <trkpt lat="44.98523" lon="6.14402">
        <ele>1536.18</ele>
        <time>2020-08-23T10:41:57Z</time>
      </trkpt>
      <trkpt lat="44.98524" lon="6.14395">
        <ele>1537.81</ele>
        <time>2020-08-23T10:42:10Z</time>
      </trkpt>
      <trkpt lat="44.98525" lon="6.14386">
        <ele>1539.54</ele>
        <time>2020-08-23T10:42:27Z</time>
      </trkpt>
      <trkpt lat="44.98525" lon="6.1438">
        <ele>1540.39</ele>
        <time>2020-08-23T10:42:46Z</time>
      </trkpt>
      <trkpt lat="44.98528" lon="6.14374">
        <ele>1541.28</ele>
        <time>2020-08-23T10:43:00Z</time>
      </trkpt>
      <trkpt lat="44.98528" lon="6.14365">
        <ele>1543.65</ele>
        <time>2020-08-23T10:43:17Z</time>
      </trkpt>
      <trkpt lat="44.98529" lon="6.14361">
        <ele>1545.56</ele>
        <time>2020-08-23T10:43:31Z</time>
      </trkpt>
      <trkpt lat="44.98531" lon="6.14357">
        <ele>1546.5</ele>
        <time>2020-08-23T10:43:45Z</time>
      </trkpt>
      <trkpt lat="44.98532" lon="6.14345">
        <ele>1549.07</ele>
        <time>2020-08-23T10:44:03Z</time>
      </trkpt>
      <trkpt lat="44.98533" lon="6.14334">
        <ele>1548.92</ele>
        <time>2020-08-23T10:44:20Z</time>
      </trkpt>
      <trkpt lat="44.98538" lon="6.14325">
        <ele>1549.02</ele>
        <time>2020-08-23T10:44:36Z</time>
      </trkpt>
      <trkpt lat="44.98543" lon="6.14317">
        <ele>1549.09</ele>
        <time>2020-08-23T10:44:51Z</time>
      </trkpt>
      <trkpt lat="44.98547" lon="6.14314">
        <ele>1549.96</ele>
        <time>2020-08-23T10:45:08Z</time>
      </trkpt>
      <trkpt lat="44.98548" lon="6.14315">
        <ele>1550.01</ele>
        <time>2020-08-23T10:45:37Z</time>
      </trkpt>
      <trkpt lat="44.98547" lon="6.14316">
        <ele>1550.05</ele>
        <time>2020-08-23T10:46:02Z</time>
      </trkpt>
      <trkpt lat="44.98551" lon="6.14312">
        <ele>1550.08</ele>
        <time>2020-08-23T10:46:27Z</time>
      </trkpt>
      <trkpt lat="44.98559" lon="6.14308">
        <ele>1550.05</ele>
        <time>2020-08-23T10:46:42Z</time>
      </trkpt>
      <trkpt lat="44.98569" lon="6.14305">
        <ele>1550.15</ele>
        <time>2020-08-23T10:46:58Z</time>
      </trkpt>
      <trkpt lat="44.98578" lon="6.14295">
        <ele>1550.29</ele>
        <time>2020-08-23T10:47:17Z</time>
      </trkpt>
      <trkpt lat="44.98581" lon="6.14292">
        <ele>1552.01</ele>
        <time>2020-08-23T10:47:30Z</time>
      </trkpt>
      <trkpt lat="44.98587" lon="6.14288">
        <ele>1553.68</ele>
        <time>2020-08-23T10:47:46Z</time>
      </trkpt>
      <trkpt lat="44.98591" lon="6.14278">
        <ele>1554.42</ele>
        <time>2020-08-23T10:48:03Z</time>
      </trkpt>
      <trkpt lat="44.98596" lon="6.14273">
        <ele>1556.41</ele>
        <time>2020-08-23T10:48:18Z</time>
      </trkpt>
      <trkpt lat="44.986" lon="6.14266">
        <ele>1557.24</ele>
        <time>2020-08-23T10:48:34Z</time>
      </trkpt>
      <trkpt lat="44.98604" lon="6.14263">
        <ele>1559.85</ele>
        <time>2020-08-23T10:48:46Z</time>
      </trkpt>
      <trkpt lat="44.9861" lon="6.14262">
        <ele>1559.84</ele>
        <time>2020-08-23T10:49:02Z</time>
      </trkpt>
      <trkpt lat="44.98615" lon="6.1426">
        <ele>1559.85</ele>
        <time>2020-08-23T10:49:18Z</time>
      </trkpt>
      <trkpt lat="44.98616" lon="6.14257">
        <ele>1559.9</ele>
        <time>2020-08-23T10:49:38Z</time>
      </trkpt>
      <trkpt lat="44.98616" lon="6.14254">
        <ele>1561.67</ele>
        <time>2020-08-23T10:49:58Z</time>
      </trkpt>
      <trkpt lat="44.98618" lon="6.14251">
        <ele>1563.5</ele>
        <time>2020-08-23T10:50:17Z</time>
      </trkpt>
      <trkpt lat="44.98619" lon="6.14251">
        <ele>1565.09</ele>
        <time>2020-08-23T10:50:34Z</time>
      </trkpt>
      <trkpt lat="44.9862" lon="6.14254">
        <ele>1565.91</ele>
        <time>2020-08-23T10:50:47Z</time>
      </trkpt>
      <trkpt lat="44.98623" lon="6.14253">
        <ele>1566.63</ele>
        <time>2020-08-23T10:51:02Z</time>
      </trkpt>
      <trkpt lat="44.98621" lon="6.14259">
        <ele>1569.15</ele>
        <time>2020-08-23T10:51:22Z</time>
      </trkpt>
      <trkpt lat="44.98624" lon="6.14258">
        <ele>1570.71</ele>
        <time>2020-08-23T10:51:43Z</time>
      </trkpt>
      <trkpt lat="44.98624" lon="6.14252">
        <ele>1573.31</ele>
        <time>2020-08-23T10:51:58Z</time>
      </trkpt>
      <trkpt lat="44.98627" lon="6.14249">
        <ele>1574.79</ele>
        <time>2020-08-23T10:52:13Z</time>
      </trkpt>
      <trkpt lat="44.98627" lon="6.14251">
        <ele>1575.64</ele>
        <time>2020-08-23T10:52:29Z</time>
      </trkpt>
      <trkpt lat="44.9863" lon="6.14249">
        <ele>1577.39</ele>
        <time>2020-08-23T10:52:47Z</time>
      </trkpt>
      <trkpt lat="44.98632" lon="6.14246">
        <ele>1579.77</ele>
        <time>2020-08-23T10:53:04Z</time>
      </trkpt>
      <trkpt lat="44.9863" lon="6.14252">
        <ele>1580.58</ele>
        <time>2020-08-23T10:53:22Z</time>
      </trkpt>
      <trkpt lat="44.98633" lon="6.14251">
        <ele>1582.73</ele>
        <time>2020-08-23T10:53:40Z</time>
      </trkpt>
      <trkpt lat="44.98632" lon="6.14254">
        <ele>1583.59</ele>
        <time>2020-08-23T10:53:52Z</time>
      </trkpt>
      <trkpt lat="44.98634" lon="6.14252">
        <ele>1584.54</ele>
        <time>2020-08-23T10:54:04Z</time>
      </trkpt>
      <trkpt lat="44.98637" lon="6.14246">
        <ele>1586.31</ele>
        <time>2020-08-23T10:54:21Z</time>
      </trkpt>
      <trkpt lat="44.98638" lon="6.14245">
        <ele>1587.04</ele>
        <time>2020-08-23T10:54:37Z</time>
      </trkpt>
      <trkpt lat="44.98639" lon="6.14246">
        <ele>1587.87</ele>
        <time>2020-08-23T10:55:01Z</time>
      </trkpt>
      <trkpt lat="44.98637" lon="6.14246">
        <ele>1587.89</ele>
        <time>2020-08-23T10:55:25Z</time>
      </trkpt>
      <trkpt lat="44.98636" lon="6.14248">
        <ele>1587.93</ele>
        <time>2020-08-23T10:55:58Z</time>
      </trkpt>
      <trkpt lat="44.98634" lon="6.14263">
        <ele>1588.77</ele>
        <time>2020-08-23T10:56:15Z</time>
      </trkpt>
      <trkpt lat="44.98629" lon="6.14275">
        <ele>1589.6</ele>
        <time>2020-08-23T10:56:32Z</time>
      </trkpt>
      <trkpt lat="44.98625" lon="6.14286">
        <ele>1590.52</ele>
        <time>2020-08-23T10:56:48Z</time>
      </trkpt>
      <trkpt lat="44.98623" lon="6.14289">
        <ele>1590.46</ele>
        <time>2020-08-23T10:57:03Z</time>
      </trkpt>
      <trkpt lat="44.98616" lon="6.14292">
        <ele>1590.56</ele>
        <time>2020-08-23T10:57:20Z</time>
      </trkpt>
      <trkpt lat="44.9861" lon="6.1429">
        <ele>1591.38</ele>
        <time>2020-08-23T10:57:32Z</time>
      </trkpt>
      <trkpt lat="44.98602" lon="6.14295">
        <ele>1593.06</ele>
        <time>2020-08-23T10:57:48Z</time>
      </trkpt>
      <trkpt lat="44.986" lon="6.14306">
        <ele>1593.84</ele>
        <time>2020-08-23T10:58:02Z</time>
      </trkpt>
      <trkpt lat="44.98601" lon="6.14309">
        <ele>1594.65</ele>
        <time>2020-08-23T10:58:16Z</time>
      </trkpt>
      <trkpt lat="44.98605" lon="6.14307">
        <ele>1596.49</ele>
        <time>2020-08-23T10:58:29Z</time>
      </trkpt>
      <trkpt lat="44.98607" lon="6.14305">
        <ele>1598.64</ele>
        <time>2020-08-23T10:58:42Z</time>
      </trkpt>
      <trkpt lat="44.9861" lon="6.14303">
        <ele>1600.46</ele>
        <time>2020-08-23T10:58:55Z</time>
      </trkpt>
      <trkpt lat="44.98616" lon="6.14302">
        <ele>1602.19</ele>
        <time>2020-08-23T10:59:20Z</time>
      </trkpt>
      <trkpt lat="44.9862" lon="6.14301">
        <ele>1603.88</ele>
        <time>2020-08-23T10:59:39Z</time>
      </trkpt>
      <trkpt lat="44.98622" lon="6.14302">
        <ele>1604.81</ele>
        <time>2020-08-23T10:59:59Z</time>
      </trkpt>
      <trkpt lat="44.98617" lon="6.14306">
        <ele>1606.73</ele>
        <time>2020-08-23T11:00:14Z</time>
      </trkpt>
      <trkpt lat="44.98615" lon="6.14312">
        <ele>1608.44</ele>
        <time>2020-08-23T11:00:28Z</time>
      </trkpt>
      <trkpt lat="44.98618" lon="6.14311">
        <ele>1609.48</ele>
        <time>2020-08-23T11:00:43Z</time>
      </trkpt>
      <trkpt lat="44.98621" lon="6.1431">
        <ele>1611.09</ele>
        <time>2020-08-23T11:00:56Z</time>
      </trkpt>
      <trkpt lat="44.98617" lon="6.14317">
        <ele>1612.84</ele>
        <time>2020-08-23T11:01:11Z</time>
      </trkpt>
      <trkpt lat="44.98614" lon="6.14323">
        <ele>1614.4</ele>
        <time>2020-08-23T11:01:25Z</time>
      </trkpt>
      <trkpt lat="44.98613" lon="6.14328">
        <ele>1615.33</ele>
        <time>2020-08-23T11:01:38Z</time>
      </trkpt>
      <trkpt lat="44.98618" lon="6.14327">
        <ele>1617.03</ele>
        <time>2020-08-23T11:01:52Z</time>
      </trkpt>
      <trkpt lat="44.98623" lon="6.14325">
        <ele>1618.64</ele>
        <time>2020-08-23T11:02:05Z</time>
      </trkpt>
      <trkpt lat="44.98624" lon="6.14325">
        <ele>1619.37</ele>
        <time>2020-08-23T11:02:31Z</time>
      </trkpt>
      <trkpt lat="44.98621" lon="6.14323">
        <ele>1619.43</ele>
        <time>2020-08-23T11:02:59Z</time>
      </trkpt>
      <trkpt lat="44.98622" lon="6.14321">
        <ele>1619.53</ele>
        <time>2020-08-23T11:03:34Z</time>
      </trkpt>
      <trkpt lat="44.98623" lon="6.14321">
        <ele>1619.66</ele>
        <time>2020-08-23T11:04:16Z</time>
      </trkpt>
      <trkpt lat="44.98629" lon="6.14319">
        <ele>1619.72</ele>
        <time>2020-08-23T11:04:30Z</time>
      </trkpt>
      <trkpt lat="44.98636" lon="6.14314">
        <ele>1620.54</ele>
        <time>2020-08-23T11:04:43Z</time>
      </trkpt>
      <trkpt lat="44.98642" lon="6.14306">
        <ele>1620.6</ele>
        <time>2020-08-23T11:04:58Z</time>
      </trkpt>
      <trkpt lat="44.98643" lon="6.14301">
        <ele>1622.38</ele>
        <time>2020-08-23T11:05:12Z</time>
      </trkpt>
      <trkpt lat="44.98648" lon="6.14296">
        <ele>1624.09</ele>
        <time>2020-08-23T11:05:29Z</time>
      </trkpt>
      <trkpt lat="44.98654" lon="6.14293">
        <ele>1625.99</ele>
        <time>2020-08-23T11:05:46Z</time>
      </trkpt>
      <trkpt lat="44.98656" lon="6.14291">
        <ele>1628.63</ele>
        <time>2020-08-23T11:06:00Z</time>
      </trkpt>
      <trkpt lat="44.98658" lon="6.14289">
        <ele>1630.56</ele>
        <time>2020-08-23T11:06:15Z</time>
      </trkpt>
      <trkpt lat="44.98661" lon="6.14286">
        <ele>1631.69</ele>
        <time>2020-08-23T11:06:34Z</time>
      </trkpt>
      <trkpt lat="44.98664" lon="6.14282">
        <ele>1634.17</ele>
        <time>2020-08-23T11:06:49Z</time>
      </trkpt>
      <trkpt lat="44.98668" lon="6.1428">
        <ele>1635.13</ele>
        <time>2020-08-23T11:07:02Z</time>
      </trkpt>
      <trkpt lat="44.98669" lon="6.14275">
        <ele>1636.74</ele>
        <time>2020-08-23T11:07:19Z</time>
      </trkpt>
      <trkpt lat="44.98672" lon="6.1427">
        <ele>1637.6</ele>
        <time>2020-08-23T11:07:36Z</time>
      </trkpt>
      <trkpt lat="44.98674" lon="6.14265">
        <ele>1641.24</ele>
        <time>2020-08-23T11:07:49Z</time>
      </trkpt>
      <trkpt lat="44.98676" lon="6.14261">
        <ele>1642.03</ele>
        <time>2020-08-23T11:08:05Z</time>
      </trkpt>
      <trkpt lat="44.9868" lon="6.14256">
        <ele>1643.63</ele>
        <time>2020-08-23T11:08:22Z</time>
      </trkpt>
      <trkpt lat="44.98682" lon="6.14254">
        <ele>1645.51</ele>
        <time>2020-08-23T11:08:38Z</time>
      </trkpt>
      <trkpt lat="44.98685" lon="6.14253">
        <ele>1646.38</ele>
        <time>2020-08-23T11:08:53Z</time>
      </trkpt>
      <trkpt lat="44.98686" lon="6.14252">
        <ele>1647.39</ele>
        <time>2020-08-23T11:09:18Z</time>
      </trkpt>
      <trkpt lat="44.98688" lon="6.14251">
        <ele>1648.34</ele>
        <time>2020-08-23T11:09:36Z</time>
      </trkpt>
      <trkpt lat="44.98691" lon="6.14248">
        <ele>1650.97</ele>
        <time>2020-08-23T11:09:52Z</time>
      </trkpt>
      <trkpt lat="44.98694" lon="6.14244">
        <ele>1652.64</ele>
        <time>2020-08-23T11:10:10Z</time>
      </trkpt>
      <trkpt lat="44.98698" lon="6.14243">
        <ele>1654.19</ele>
        <time>2020-08-23T11:10:25Z</time>
      </trkpt>
      <trkpt lat="44.98699" lon="6.14242">
        <ele>1654.99</ele>
        <time>2020-08-23T11:10:43Z</time>
      </trkpt>
      <trkpt lat="44.98701" lon="6.1424">
        <ele>1656.72</ele>
        <time>2020-08-23T11:11:02Z</time>
      </trkpt>
      <trkpt lat="44.98703" lon="6.14237">
        <ele>1657.56</ele>
        <time>2020-08-23T11:11:20Z</time>
      </trkpt>
      <trkpt lat="44.98706" lon="6.14231">
        <ele>1659.31</ele>
        <time>2020-08-23T11:11:37Z</time>
      </trkpt>
      <trkpt lat="44.98707" lon="6.14227">
        <ele>1660.91</ele>
        <time>2020-08-23T11:11:56Z</time>
      </trkpt>
      <trkpt lat="44.98709" lon="6.14224">
        <ele>1663.87</ele>
        <time>2020-08-23T11:12:12Z</time>
      </trkpt>
      <trkpt lat="44.98711" lon="6.14222">
        <ele>1664.62</ele>
        <time>2020-08-23T11:12:26Z</time>
      </trkpt>
      <trkpt lat="44.98714" lon="6.14221">
        <ele>1666.34</ele>
        <time>2020-08-23T11:12:45Z</time>
      </trkpt>
      <trkpt lat="44.98718" lon="6.14216">
        <ele>1668.81</ele>
        <time>2020-08-23T11:13:01Z</time>
      </trkpt>
      <trkpt lat="44.98721" lon="6.14215">
        <ele>1669.53</ele>
        <time>2020-08-23T11:13:15Z</time>
      </trkpt>
      <trkpt lat="44.98724" lon="6.14211">
        <ele>1670.33</ele>
        <time>2020-08-23T11:13:38Z</time>
      </trkpt>
      <trkpt lat="44.98727" lon="6.14207">
        <ele>1671.99</ele>
        <time>2020-08-23T11:13:55Z</time>
      </trkpt>
      <trkpt lat="44.98729" lon="6.14205">
        <ele>1673.71</ele>
        <time>2020-08-23T11:14:07Z</time>
      </trkpt>
      <trkpt lat="44.98732" lon="6.14204">
        <ele>1674.61</ele>
        <time>2020-08-23T11:14:20Z</time>
      </trkpt>
      <trkpt lat="44.98736" lon="6.14202">
        <ele>1676.23</ele>
        <time>2020-08-23T11:14:37Z</time>
      </trkpt>
      <trkpt lat="44.98738" lon="6.14201">
        <ele>1677.01</ele>
        <time>2020-08-23T11:14:49Z</time>
      </trkpt>
      <trkpt lat="44.98742" lon="6.14196">
        <ele>1677.92</ele>
        <time>2020-08-23T11:15:05Z</time>
      </trkpt>
      <trkpt lat="44.98749" lon="6.14193">
        <ele>1680.7</ele>
        <time>2020-08-23T11:15:20Z</time>
      </trkpt>
      <trkpt lat="44.98758" lon="6.14191">
        <ele>1681.64</ele>
        <time>2020-08-23T11:15:37Z</time>
      </trkpt>
      <trkpt lat="44.98763" lon="6.14187">
        <ele>1682.42</ele>
        <time>2020-08-23T11:15:51Z</time>
      </trkpt>
      <trkpt lat="44.98764" lon="6.14184">
        <ele>1682.43</ele>
        <time>2020-08-23T11:16:05Z</time>
      </trkpt>
      <trkpt lat="44.98766" lon="6.14178">
        <ele>1684.2</ele>
        <time>2020-08-23T11:16:28Z</time>
      </trkpt>
      <trkpt lat="44.98768" lon="6.14174">
        <ele>1685.82</ele>
        <time>2020-08-23T11:16:42Z</time>
      </trkpt>
      <trkpt lat="44.9877" lon="6.14168">
        <ele>1687.51</ele>
        <time>2020-08-23T11:17:03Z</time>
      </trkpt>
      <trkpt lat="44.98772" lon="6.14169">
        <ele>1688.66</ele>
        <time>2020-08-23T11:17:21Z</time>
      </trkpt>
      <trkpt lat="44.98773" lon="6.14166">
        <ele>1690.51</ele>
        <time>2020-08-23T11:17:42Z</time>
      </trkpt>
      <trkpt lat="44.98774" lon="6.1416">
        <ele>1692.29</ele>
        <time>2020-08-23T11:18:01Z</time>
      </trkpt>
      <trkpt lat="44.98775" lon="6.14153">
        <ele>1694.14</ele>
        <time>2020-08-23T11:18:20Z</time>
      </trkpt>
      <trkpt lat="44.98777" lon="6.14155">
        <ele>1695.79</ele>
        <time>2020-08-23T11:18:38Z</time>
      </trkpt>
      <trkpt lat="44.98777" lon="6.14154">
        <ele>1696.58</ele>
        <time>2020-08-23T11:18:57Z</time>
      </trkpt>
      <trkpt lat="44.98776" lon="6.14153">
        <ele>1698.14</ele>
        <time>2020-08-23T11:19:21Z</time>
      </trkpt>
      <trkpt lat="44.98778" lon="6.14147">
        <ele>1699</ele>
        <time>2020-08-23T11:19:44Z</time>
      </trkpt>
      <trkpt lat="44.98778" lon="6.14143">
        <ele>1700.3</ele>
        <time>2020-08-23T11:19:52Z</time>
      </trkpt>
      <trkpt lat="44.98782" lon="6.14146">
        <ele>1701.92</ele>
        <time>2020-08-23T11:20:12Z</time>
      </trkpt>
      <trkpt lat="44.9878" lon="6.14144">
        <ele>1702.75</ele>
        <time>2020-08-23T11:20:31Z</time>
      </trkpt>
      <trkpt lat="44.98783" lon="6.14142">
        <ele>1703.58</ele>
        <time>2020-08-23T11:20:57Z</time>
      </trkpt>
      <trkpt lat="44.98782" lon="6.14138">
        <ele>1706.19</ele>
        <time>2020-08-23T11:21:12Z</time>
      </trkpt>
      <trkpt lat="44.98782" lon="6.14134">
        <ele>1708.02</ele>
        <time>2020-08-23T11:21:33Z</time>
      </trkpt>
      <trkpt lat="44.98783" lon="6.1413">
        <ele>1708.83</ele>
        <time>2020-08-23T11:21:51Z</time>
      </trkpt>
      <trkpt lat="44.9878" lon="6.14123">
        <ele>1710.79</ele>
        <time>2020-08-23T11:22:10Z</time>
      </trkpt>
      <trkpt lat="44.98779" lon="6.14116">
        <ele>1712.51</ele>
        <time>2020-08-23T11:22:28Z</time>
      </trkpt>
      <trkpt lat="44.98782" lon="6.14111">
        <ele>1714.58</ele>
        <time>2020-08-23T11:22:47Z</time>
      </trkpt>
      <trkpt lat="44.98783" lon="6.14116">
        <ele>1715.37</ele>
        <time>2020-08-23T11:23:07Z</time>
      </trkpt>
      <trkpt lat="44.98784" lon="6.14108">
        <ele>1717.05</ele>
        <time>2020-08-23T11:23:22Z</time>
      </trkpt>
      <trkpt lat="44.98787" lon="6.14102">
        <ele>1718.71</ele>
        <time>2020-08-23T11:23:36Z</time>
      </trkpt>
      <trkpt lat="44.9879" lon="6.14106">
        <ele>1720.33</ele>
        <time>2020-08-23T11:23:50Z</time>
      </trkpt>
      <trkpt lat="44.98794" lon="6.1411">
        <ele>1720.33</ele>
        <time>2020-08-23T11:24:06Z</time>
      </trkpt>
      <trkpt lat="44.98798" lon="6.14111">
        <ele>1722.03</ele>
        <time>2020-08-23T11:24:27Z</time>
      </trkpt>
      <trkpt lat="44.98801" lon="6.1411">
        <ele>1723.73</ele>
        <time>2020-08-23T11:24:46Z</time>
      </trkpt>
      <trkpt lat="44.98802" lon="6.14104">
        <ele>1724.36</ele>
        <time>2020-08-23T11:25:02Z</time>
      </trkpt>
      <trkpt lat="44.98803" lon="6.14095">
        <ele>1726.86</ele>
        <time>2020-08-23T11:25:22Z</time>
      </trkpt>
      <trkpt lat="44.98804" lon="6.14093">
        <ele>1727.72</ele>
        <time>2020-08-23T11:25:35Z</time>
      </trkpt>
      <trkpt lat="44.98802" lon="6.1409">
        <ele>1730.38</ele>
        <time>2020-08-23T11:25:55Z</time>
      </trkpt>
      <trkpt lat="44.98801" lon="6.14084">
        <ele>1732.06</ele>
        <time>2020-08-23T11:26:15Z</time>
      </trkpt>
      <trkpt lat="44.98803" lon="6.1408">
        <ele>1732.85</ele>
        <time>2020-08-23T11:26:29Z</time>
      </trkpt>
      <trkpt lat="44.98799" lon="6.14074">
        <ele>1735.4</ele>
        <time>2020-08-23T11:26:51Z</time>
      </trkpt>
      <trkpt lat="44.98796" lon="6.14066">
        <ele>1736.92</ele>
        <time>2020-08-23T11:27:09Z</time>
      </trkpt>
      <trkpt lat="44.98793" lon="6.14059">
        <ele>1738.62</ele>
        <time>2020-08-23T11:27:26Z</time>
      </trkpt>
      <trkpt lat="44.98792" lon="6.14058">
        <ele>1738.61</ele>
        <time>2020-08-23T11:27:28Z</time>
      </trkpt>
      <trkpt lat="44.98788" lon="6.14058">
        <ele>1739.37</ele>
        <time>2020-08-23T11:27:42Z</time>
      </trkpt>
      <trkpt lat="44.98787" lon="6.14058">
        <ele>1739.41</ele>
        <time>2020-08-23T11:28:14Z</time>
      </trkpt>
      <trkpt lat="44.98787" lon="6.14057">
        <ele>1739.42</ele>
        <time>2020-08-23T11:28:22Z</time>
      </trkpt>
      <trkpt lat="44.98787" lon="6.14051">
        <ele>1740.21</ele>
        <time>2020-08-23T11:28:33Z</time>
      </trkpt>
      <trkpt lat="44.9879" lon="6.14045">
        <ele>1742.13</ele>
        <time>2020-08-23T11:28:55Z</time>
      </trkpt>
      <trkpt lat="44.9879" lon="6.14041">
        <ele>1744.72</ele>
        <time>2020-08-23T11:29:12Z</time>
      </trkpt>
      <trkpt lat="44.98791" lon="6.14036">
        <ele>1745.43</ele>
        <time>2020-08-23T11:29:26Z</time>
      </trkpt>
      <trkpt lat="44.98791" lon="6.14033">
        <ele>1747.92</ele>
        <time>2020-08-23T11:29:48Z</time>
      </trkpt>
      <trkpt lat="44.98791" lon="6.1403">
        <ele>1749.55</ele>
        <time>2020-08-23T11:30:08Z</time>
      </trkpt>
      <trkpt lat="44.98791" lon="6.14026">
        <ele>1751.73</ele>
        <time>2020-08-23T11:30:28Z</time>
      </trkpt>
      <trkpt lat="44.98786" lon="6.14028">
        <ele>1751.66</ele>
        <time>2020-08-23T11:30:51Z</time>
      </trkpt>
      <trkpt lat="44.98787" lon="6.14027">
        <ele>1752.46</ele>
        <time>2020-08-23T11:31:10Z</time>
      </trkpt>
      <trkpt lat="44.98788" lon="6.14024">
        <ele>1752.56</ele>
        <time>2020-08-23T11:31:45Z</time>
      </trkpt>
      <trkpt lat="44.98786" lon="6.14022">
        <ele>1752.53</ele>
        <time>2020-08-23T11:32:06Z</time>
      </trkpt>
      <trkpt lat="44.98785" lon="6.14019">
        <ele>1752.54</ele>
        <time>2020-08-23T11:32:09Z</time>
      </trkpt>
      <trkpt lat="44.98784" lon="6.14015">
        <ele>1752.55</ele>
        <time>2020-08-23T11:32:14Z</time>
      </trkpt>
      <trkpt lat="44.9878" lon="6.1401">
        <ele>1752.55</ele>
        <time>2020-08-23T11:32:26Z</time>
      </trkpt>
      <trkpt lat="44.98782" lon="6.14007">
        <ele>1752.55</ele>
        <time>2020-08-23T11:32:31Z</time>
      </trkpt>
      <trkpt lat="44.98779" lon="6.14004">
        <ele>1750.09</ele>
        <time>2020-08-23T11:32:36Z</time>
      </trkpt>
      <trkpt lat="44.98782" lon="6.13998">
        <ele>1748.62</ele>
        <time>2020-08-23T11:32:56Z</time>
      </trkpt>
      <trkpt lat="44.98779" lon="6.14">
        <ele>1748.09</ele>
        <time>2020-08-23T11:33:24Z</time>
      </trkpt>
      <trkpt lat="44.98777" lon="6.13999">
        <ele>1748.15</ele>
        <time>2020-08-23T11:33:36Z</time>
      </trkpt>
      <trkpt lat="44.98787" lon="6.13998">
        <ele>1747.37</ele>
        <time>2020-08-23T11:33:49Z</time>
      </trkpt>
      <trkpt lat="44.98792" lon="6.13993">
        <ele>1746.81</ele>
        <time>2020-08-23T11:34:16Z</time>
      </trkpt>
      <trkpt lat="44.98795" lon="6.13989">
        <ele>1746.95</ele>
        <time>2020-08-23T11:34:40Z</time>
      </trkpt>
      <trkpt lat="44.98796" lon="6.13985">
        <ele>1746.96</ele>
        <time>2020-08-23T11:34:44Z</time>
      </trkpt>
      <trkpt lat="44.9878" lon="6.13969">
        <ele>1746.07</ele>
        <time>2020-08-23T11:34:56Z</time>
      </trkpt>
      <trkpt lat="44.9878" lon="6.13969">
        <ele>1746.08</ele>
        <time>2020-08-23T11:35:05Z</time>
      </trkpt>
      <trkpt lat="44.98776" lon="6.13952">
        <ele>1744.09</ele>
        <time>2020-08-23T11:35:16Z</time>
      </trkpt>
      <trkpt lat="44.98785" lon="6.13939">
        <ele>1744.23</ele>
        <time>2020-08-23T11:35:26Z</time>
      </trkpt>
      <trkpt lat="44.9879" lon="6.1392">
        <ele>1741.21</ele>
        <time>2020-08-23T11:35:48Z</time>
      </trkpt>
      <trkpt lat="44.98785" lon="6.1391">
        <ele>1740.53</ele>
        <time>2020-08-23T11:35:56Z</time>
      </trkpt>
      <trkpt lat="44.98775" lon="6.13899">
        <ele>1740.93</ele>
        <time>2020-08-23T11:36:13Z</time>
      </trkpt>
      <trkpt lat="44.98775" lon="6.13897">
        <ele>1743.17</ele>
        <time>2020-08-23T11:36:17Z</time>
      </trkpt>
      <trkpt lat="44.98773" lon="6.13894">
        <ele>1743.27</ele>
        <time>2020-08-23T11:36:30Z</time>
      </trkpt>
      <trkpt lat="44.98775" lon="6.13888">
        <ele>1743.37</ele>
        <time>2020-08-23T11:36:45Z</time>
      </trkpt>
      <trkpt lat="44.98779" lon="6.13888">
        <ele>1744.37</ele>
        <time>2020-08-23T11:36:59Z</time>
      </trkpt>
      <trkpt lat="44.98781" lon="6.13895">
        <ele>1746.96</ele>
        <time>2020-08-23T11:37:14Z</time>
      </trkpt>
      <trkpt lat="44.98784" lon="6.13894">
        <ele>1747.11</ele>
        <time>2020-08-23T11:37:37Z</time>
      </trkpt>
      <trkpt lat="44.98787" lon="6.13878">
        <ele>1750.86</ele>
        <time>2020-08-23T11:37:52Z</time>
      </trkpt>
      <trkpt lat="44.98791" lon="6.1387">
        <ele>1752.51</ele>
        <time>2020-08-23T11:38:10Z</time>
      </trkpt>
      <trkpt lat="44.98792" lon="6.13879">
        <ele>1754.55</ele>
        <time>2020-08-23T11:38:23Z</time>
      </trkpt>
      <trkpt lat="44.98795" lon="6.13891">
        <ele>1756.22</ele>
        <time>2020-08-23T11:38:38Z</time>
      </trkpt>
      <trkpt lat="44.98797" lon="6.13889">
        <ele>1757.79</ele>
        <time>2020-08-23T11:38:52Z</time>
      </trkpt>
      <trkpt lat="44.98798" lon="6.1388">
        <ele>1758.69</ele>
        <time>2020-08-23T11:39:04Z</time>
      </trkpt>
      <trkpt lat="44.988" lon="6.1387">
        <ele>1760.43</ele>
        <time>2020-08-23T11:39:20Z</time>
      </trkpt>
      <trkpt lat="44.98801" lon="6.1388">
        <ele>1762.2</ele>
        <time>2020-08-23T11:39:34Z</time>
      </trkpt>
      <trkpt lat="44.98804" lon="6.13889">
        <ele>1762.97</ele>
        <time>2020-08-23T11:39:48Z</time>
      </trkpt>
      <trkpt lat="44.98805" lon="6.13883">
        <ele>1765.18</ele>
        <time>2020-08-23T11:40:01Z</time>
      </trkpt>
      <trkpt lat="44.98806" lon="6.13872">
        <ele>1766.77</ele>
        <time>2020-08-23T11:40:16Z</time>
      </trkpt>
      <trkpt lat="44.98808" lon="6.1387">
        <ele>1768.54</ele>
        <time>2020-08-23T11:40:31Z</time>
      </trkpt>
      <trkpt lat="44.9881" lon="6.13883">
        <ele>1770.27</ele>
        <time>2020-08-23T11:40:47Z</time>
      </trkpt>
      <trkpt lat="44.98811" lon="6.1388">
        <ele>1771.16</ele>
        <time>2020-08-23T11:41:00Z</time>
      </trkpt>
      <trkpt lat="44.98813" lon="6.1387">
        <ele>1773.84</ele>
        <time>2020-08-23T11:41:16Z</time>
      </trkpt>
      <trkpt lat="44.98816" lon="6.13866">
        <ele>1775.8</ele>
        <time>2020-08-23T11:41:32Z</time>
      </trkpt>
      <trkpt lat="44.98817" lon="6.13877">
        <ele>1776.76</ele>
        <time>2020-08-23T11:41:46Z</time>
      </trkpt>
      <trkpt lat="44.98819" lon="6.13886">
        <ele>1778.59</ele>
        <time>2020-08-23T11:41:59Z</time>
      </trkpt>
      <trkpt lat="44.98821" lon="6.1389">
        <ele>1779.83</ele>
        <time>2020-08-23T11:42:12Z</time>
      </trkpt>
      <trkpt lat="44.98822" lon="6.13881">
        <ele>1781.74</ele>
        <time>2020-08-23T11:42:26Z</time>
      </trkpt>
      <trkpt lat="44.98823" lon="6.13866">
        <ele>1783.56</ele>
        <time>2020-08-23T11:42:44Z</time>
      </trkpt>
      <trkpt lat="44.98827" lon="6.13853">
        <ele>1786.01</ele>
        <time>2020-08-23T11:43:00Z</time>
      </trkpt>
      <trkpt lat="44.9883" lon="6.1384">
        <ele>1787.77</ele>
        <time>2020-08-23T11:43:15Z</time>
      </trkpt>
      <trkpt lat="44.98834" lon="6.1383">
        <ele>1789.58</ele>
        <time>2020-08-23T11:43:30Z</time>
      </trkpt>
      <trkpt lat="44.98839" lon="6.13819">
        <ele>1792.2</ele>
        <time>2020-08-23T11:43:46Z</time>
      </trkpt>
      <trkpt lat="44.98846" lon="6.13811">
        <ele>1793.88</ele>
        <time>2020-08-23T11:44:02Z</time>
      </trkpt>
      <trkpt lat="44.98854" lon="6.13806">
        <ele>1794.85</ele>
        <time>2020-08-23T11:44:17Z</time>
      </trkpt>
      <trkpt lat="44.98863" lon="6.13802">
        <ele>1796.51</ele>
        <time>2020-08-23T11:44:33Z</time>
      </trkpt>
      <trkpt lat="44.98866" lon="6.13799">
        <ele>1797.31</ele>
        <time>2020-08-23T11:44:50Z</time>
      </trkpt>
      <trkpt lat="44.98868" lon="6.13798">
        <ele>1798.24</ele>
        <time>2020-08-23T11:45:08Z</time>
      </trkpt>
      <trkpt lat="44.98875" lon="6.13791">
        <ele>1799.48</ele>
        <time>2020-08-23T11:45:29Z</time>
      </trkpt>
      <trkpt lat="44.98882" lon="6.13771">
        <ele>1801.12</ele>
        <time>2020-08-23T11:45:47Z</time>
      </trkpt>
      <trkpt lat="44.98886" lon="6.13761">
        <ele>1804.45</ele>
        <time>2020-08-23T11:45:59Z</time>
      </trkpt>
      <trkpt lat="44.98895" lon="6.13747">
        <ele>1806.13</ele>
        <time>2020-08-23T11:46:18Z</time>
      </trkpt>
      <trkpt lat="44.98899" lon="6.13739">
        <ele>1807.04</ele>
        <time>2020-08-23T11:46:37Z</time>
      </trkpt>
      <trkpt lat="44.98913" lon="6.1373">
        <ele>1807.09</ele>
        <time>2020-08-23T11:46:54Z</time>
      </trkpt>
      <trkpt lat="44.98925" lon="6.1372">
        <ele>1807.13</ele>
        <time>2020-08-23T11:47:12Z</time>
      </trkpt>
      <trkpt lat="44.98933" lon="6.13715">
        <ele>1804.82</ele>
        <time>2020-08-23T11:47:23Z</time>
      </trkpt>
      <trkpt lat="44.98946" lon="6.13708">
        <ele>1803.31</ele>
        <time>2020-08-23T11:47:40Z</time>
      </trkpt>
      <trkpt lat="44.98955" lon="6.137">
        <ele>1802.59</ele>
        <time>2020-08-23T11:47:53Z</time>
      </trkpt>
      <trkpt lat="44.98969" lon="6.13687">
        <ele>1800.98</ele>
        <time>2020-08-23T11:48:12Z</time>
      </trkpt>
      <trkpt lat="44.98984" lon="6.13676">
        <ele>1798.62</ele>
        <time>2020-08-23T11:48:31Z</time>
      </trkpt>
      <trkpt lat="44.98984" lon="6.13675">
        <ele>1798.62</ele>
        <time>2020-08-23T11:48:32Z</time>
      </trkpt>
      <trkpt lat="44.98995" lon="6.13665">
        <ele>1797.07</ele>
        <time>2020-08-23T11:48:50Z</time>
      </trkpt>
      <trkpt lat="44.99012" lon="6.13659">
        <ele>1795.59</ele>
        <time>2020-08-23T11:49:09Z</time>
      </trkpt>
      <trkpt lat="44.99017" lon="6.13661">
        <ele>1795.64</ele>
        <time>2020-08-23T11:49:15Z</time>
      </trkpt>
      <trkpt lat="44.99031" lon="6.13667">
        <ele>1794.02</ele>
        <time>2020-08-23T11:49:32Z</time>
      </trkpt>
      <trkpt lat="44.99039" lon="6.1367">
        <ele>1793.34</ele>
        <time>2020-08-23T11:49:49Z</time>
      </trkpt>
      <trkpt lat="44.99047" lon="6.13672">
        <ele>1793.42</ele>
        <time>2020-08-23T11:50:04Z</time>
      </trkpt>
      <trkpt lat="44.9905" lon="6.13672">
        <ele>1793.55</ele>
        <time>2020-08-23T11:50:22Z</time>
      </trkpt>
      <trkpt lat="44.99046" lon="6.13669">
        <ele>1793.64</ele>
        <time>2020-08-23T11:50:37Z</time>
      </trkpt>
      <trkpt lat="44.99058" lon="6.13668">
        <ele>1793.74</ele>
        <time>2020-08-23T11:50:51Z</time>
      </trkpt>
      <trkpt lat="44.99068" lon="6.13666">
        <ele>1792.99</ele>
        <time>2020-08-23T11:51:03Z</time>
      </trkpt>
      <trkpt lat="44.99079" lon="6.13653">
        <ele>1793.12</ele>
        <time>2020-08-23T11:51:19Z</time>
      </trkpt>
      <trkpt lat="44.99084" lon="6.13645">
        <ele>1791.51</ele>
        <time>2020-08-23T11:51:38Z</time>
      </trkpt>
      <trkpt lat="44.99086" lon="6.13645">
        <ele>1791.63</ele>
        <time>2020-08-23T11:51:56Z</time>
      </trkpt>
      <trkpt lat="44.99086" lon="6.13645">
        <ele>1791.77</ele>
        <time>2020-08-23T11:52:18Z</time>
      </trkpt>
      <trkpt lat="44.99085" lon="6.13645">
        <ele>1791.08</ele>
        <time>2020-08-23T11:52:33Z</time>
      </trkpt>
      <trkpt lat="44.99084" lon="6.13644">
        <ele>1790.41</ele>
        <time>2020-08-23T11:52:55Z</time>
      </trkpt>
      <trkpt lat="44.99084" lon="6.13644">
        <ele>1790.56</ele>
        <time>2020-08-23T11:53:21Z</time>
      </trkpt>
      <trkpt lat="44.99083" lon="6.13644">
        <ele>1789.53</ele>
        <time>2020-08-23T11:53:49Z</time>
      </trkpt>
      <trkpt lat="44.99082" lon="6.13643">
        <ele>1789.7</ele>
        <time>2020-08-23T11:54:20Z</time>
      </trkpt>
      <trkpt lat="44.99084" lon="6.1364">
        <ele>1789.85</ele>
        <time>2020-08-23T11:54:50Z</time>
      </trkpt>
      <trkpt lat="44.99083" lon="6.13641">
        <ele>1790.01</ele>
        <time>2020-08-23T11:55:22Z</time>
      </trkpt>
      <trkpt lat="44.99082" lon="6.13644">
        <ele>1790.16</ele>
        <time>2020-08-23T11:55:50Z</time>
      </trkpt>
      <trkpt lat="44.99083" lon="6.13644">
        <ele>1790.35</ele>
        <time>2020-08-23T11:56:21Z</time>
      </trkpt>
      <trkpt lat="44.99082" lon="6.13645">
        <ele>1790.52</ele>
        <time>2020-08-23T11:56:51Z</time>
      </trkpt>
      <trkpt lat="44.99083" lon="6.13644">
        <ele>1790.71</ele>
        <time>2020-08-23T11:57:22Z</time>
      </trkpt>
      <trkpt lat="44.99082" lon="6.13646">
        <ele>1790.9</ele>
        <time>2020-08-23T11:57:51Z</time>
      </trkpt>
      <trkpt lat="44.99083" lon="6.13646">
        <ele>1791.11</ele>
        <time>2020-08-23T11:58:23Z</time>
      </trkpt>
      <trkpt lat="44.99082" lon="6.13644">
        <ele>1791.31</ele>
        <time>2020-08-23T11:58:53Z</time>
      </trkpt>
      <trkpt lat="44.99083" lon="6.13644">
        <ele>1791.5</ele>
        <time>2020-08-23T11:59:21Z</time>
      </trkpt>
      <trkpt lat="44.99084" lon="6.13645">
        <ele>1791.7</ele>
        <time>2020-08-23T11:59:48Z</time>
      </trkpt>
      <trkpt lat="44.99085" lon="6.13642">
        <ele>1791.88</ele>
        <time>2020-08-23T12:00:14Z</time>
      </trkpt>
      <trkpt lat="44.99084" lon="6.13643">
        <ele>1792.1</ele>
        <time>2020-08-23T12:00:43Z</time>
      </trkpt>
      <trkpt lat="44.99082" lon="6.13641">
        <ele>1792.29</ele>
        <time>2020-08-23T12:01:11Z</time>
      </trkpt>
      <trkpt lat="44.99082" lon="6.13642">
        <ele>1794.73</ele>
        <time>2020-08-23T12:01:34Z</time>
      </trkpt>
      <trkpt lat="44.99078" lon="6.13644">
        <ele>1794.94</ele>
        <time>2020-08-23T12:02:04Z</time>
      </trkpt>
      <trkpt lat="44.99078" lon="6.13641">
        <ele>1795.14</ele>
        <time>2020-08-23T12:02:33Z</time>
      </trkpt>
      <trkpt lat="44.99083" lon="6.13641">
        <ele>1795.34</ele>
        <time>2020-08-23T12:03:02Z</time>
      </trkpt>
      <trkpt lat="44.99082" lon="6.13641">
        <ele>1795.55</ele>
        <time>2020-08-23T12:03:33Z</time>
      </trkpt>
      <trkpt lat="44.99083" lon="6.13644">
        <ele>1795.74</ele>
        <time>2020-08-23T12:04:03Z</time>
      </trkpt>
      <trkpt lat="44.99081" lon="6.13648">
        <ele>1795.94</ele>
        <time>2020-08-23T12:04:34Z</time>
      </trkpt>
      <trkpt lat="44.99081" lon="6.13649">
        <ele>1796.13</ele>
        <time>2020-08-23T12:05:05Z</time>
      </trkpt>
      <trkpt lat="44.99081" lon="6.13648">
        <ele>1791.45</ele>
        <time>2020-08-23T12:05:19Z</time>
      </trkpt>
      <trkpt lat="44.99081" lon="6.13647">
        <ele>1796.65</ele>
        <time>2020-08-23T12:05:20Z</time>
      </trkpt>
      <trkpt lat="44.99081" lon="6.13647">
        <ele>1799.09</ele>
        <time>2020-08-23T12:05:22Z</time>
      </trkpt>
      <trkpt lat="44.9908" lon="6.13647">
        <ele>1796.44</ele>
        <time>2020-08-23T12:05:25Z</time>
      </trkpt>
      <trkpt lat="44.99083" lon="6.13644">
        <ele>1795.84</ele>
        <time>2020-08-23T12:05:55Z</time>
      </trkpt>
      <trkpt lat="44.99083" lon="6.13646">
        <ele>1796.01</ele>
        <time>2020-08-23T12:06:26Z</time>
      </trkpt>
      <trkpt lat="44.99085" lon="6.13646">
        <ele>1796.17</ele>
        <time>2020-08-23T12:06:54Z</time>
      </trkpt>
      <trkpt lat="44.99085" lon="6.13644">
        <ele>1796.33</ele>
        <time>2020-08-23T12:07:27Z</time>
      </trkpt>
      <trkpt lat="44.99086" lon="6.13642">
        <ele>1796.45</ele>
        <time>2020-08-23T12:07:55Z</time>
      </trkpt>
      <trkpt lat="44.99087" lon="6.13642">
        <ele>1796.56</ele>
        <time>2020-08-23T12:08:26Z</time>
      </trkpt>
      <trkpt lat="44.99087" lon="6.13643">
        <ele>1796.65</ele>
        <time>2020-08-23T12:08:56Z</time>
      </trkpt>
      <trkpt lat="44.99084" lon="6.13643">
        <ele>1796.72</ele>
        <time>2020-08-23T12:09:23Z</time>
      </trkpt>
      <trkpt lat="44.99081" lon="6.1364">
        <ele>1796.79</ele>
        <time>2020-08-23T12:09:48Z</time>
      </trkpt>
      <trkpt lat="44.99083" lon="6.13642">
        <ele>1796.86</ele>
        <time>2020-08-23T12:10:17Z</time>
      </trkpt>
      <trkpt lat="44.99084" lon="6.13645">
        <ele>1796.93</ele>
        <time>2020-08-23T12:10:45Z</time>
      </trkpt>
      <trkpt lat="44.99086" lon="6.13641">
        <ele>1797.01</ele>
        <time>2020-08-23T12:11:14Z</time>
      </trkpt>
      <trkpt lat="44.99083" lon="6.13637">
        <ele>1797.09</ele>
        <time>2020-08-23T12:11:43Z</time>
      </trkpt>
      <trkpt lat="44.99087" lon="6.13646">
        <ele>1797.17</ele>
        <time>2020-08-23T12:12:12Z</time>
      </trkpt>
      <trkpt lat="44.99091" lon="6.13644">
        <ele>1797.29</ele>
        <time>2020-08-23T12:12:40Z</time>
      </trkpt>
      <trkpt lat="44.9909" lon="6.13641">
        <ele>1797.31</ele>
        <time>2020-08-23T12:12:47Z</time>
      </trkpt>
      <trkpt lat="44.99087" lon="6.13639">
        <ele>1797.44</ele>
        <time>2020-08-23T12:13:18Z</time>
      </trkpt>
      <trkpt lat="44.99086" lon="6.13639">
        <ele>1797.56</ele>
        <time>2020-08-23T12:13:48Z</time>
      </trkpt>
      <trkpt lat="44.99087" lon="6.13639">
        <ele>1796.21</ele>
        <time>2020-08-23T12:13:57Z</time>
      </trkpt>
      <trkpt lat="44.99088" lon="6.13643">
        <ele>1796.32</ele>
        <time>2020-08-23T12:14:27Z</time>
      </trkpt>
      <trkpt lat="44.99087" lon="6.13642">
        <ele>1796.41</ele>
        <time>2020-08-23T12:14:51Z</time>
      </trkpt>
      <trkpt lat="44.99088" lon="6.13642">
        <ele>1796.54</ele>
        <time>2020-08-23T12:15:20Z</time>
      </trkpt>
      <trkpt lat="44.99086" lon="6.13647">
        <ele>1796.62</ele>
        <time>2020-08-23T12:15:50Z</time>
      </trkpt>
      <trkpt lat="44.99086" lon="6.13644">
        <ele>1799.4</ele>
        <time>2020-08-23T12:15:56Z</time>
      </trkpt>
      <trkpt lat="44.99086" lon="6.1364">
        <ele>1799.46</ele>
        <time>2020-08-23T12:16:20Z</time>
      </trkpt>
      <trkpt lat="44.99087" lon="6.13643">
        <ele>1799.5</ele>
        <time>2020-08-23T12:16:44Z</time>
      </trkpt>
      <trkpt lat="44.99087" lon="6.13644">
        <ele>1797.16</ele>
        <time>2020-08-23T12:17:07Z</time>
      </trkpt>
      <trkpt lat="44.99087" lon="6.13645">
        <ele>1797.19</ele>
        <time>2020-08-23T12:17:34Z</time>
      </trkpt>
      <trkpt lat="44.99086" lon="6.13647">
        <ele>1797.22</ele>
        <time>2020-08-23T12:18:08Z</time>
      </trkpt>
      <trkpt lat="44.99086" lon="6.13647">
        <ele>1797.27</ele>
        <time>2020-08-23T12:18:57Z</time>
      </trkpt>
      <trkpt lat="44.99086" lon="6.13647">
        <ele>1797.33</ele>
        <time>2020-08-23T12:19:43Z</time>
      </trkpt>
      <trkpt lat="44.99085" lon="6.13646">
        <ele>1797.4</ele>
        <time>2020-08-23T12:20:18Z</time>
      </trkpt>
      <trkpt lat="44.99086" lon="6.13645">
        <ele>1797.44</ele>
        <time>2020-08-23T12:20:40Z</time>
      </trkpt>
      <trkpt lat="44.99086" lon="6.13646">
        <ele>1797.49</ele>
        <time>2020-08-23T12:21:05Z</time>
      </trkpt>
      <trkpt lat="44.99088" lon="6.13647">
        <ele>1797.57</ele>
        <time>2020-08-23T12:21:38Z</time>
      </trkpt>
      <trkpt lat="44.99087" lon="6.13645">
        <ele>1797.63</ele>
        <time>2020-08-23T12:21:59Z</time>
      </trkpt>
      <trkpt lat="44.99091" lon="6.13638">
        <ele>1797.68</ele>
        <time>2020-08-23T12:22:20Z</time>
      </trkpt>
      <trkpt lat="44.99094" lon="6.13635">
        <ele>1797.66</ele>
        <time>2020-08-23T12:22:26Z</time>
      </trkpt>
      <trkpt lat="44.99106" lon="6.13624">
        <ele>1796.86</ele>
        <time>2020-08-23T12:22:40Z</time>
      </trkpt>
      <trkpt lat="44.99115" lon="6.13609">
        <ele>1795.34</ele>
        <time>2020-08-23T12:22:56Z</time>
      </trkpt>
      <trkpt lat="44.99129" lon="6.13587">
        <ele>1794.53</ele>
        <time>2020-08-23T12:23:17Z</time>
      </trkpt>
      <trkpt lat="44.99139" lon="6.13576">
        <ele>1793.74</ele>
        <time>2020-08-23T12:23:32Z</time>
      </trkpt>
      <trkpt lat="44.99157" lon="6.13577">
        <ele>1791.24</ele>
        <time>2020-08-23T12:23:52Z</time>
      </trkpt>
      <trkpt lat="44.99169" lon="6.13576">
        <ele>1789.66</ele>
        <time>2020-08-23T12:24:08Z</time>
      </trkpt>
      <trkpt lat="44.99185" lon="6.13578">
        <ele>1788.92</ele>
        <time>2020-08-23T12:24:24Z</time>
      </trkpt>
      <trkpt lat="44.9919" lon="6.13576">
        <ele>1788.94</ele>
        <time>2020-08-23T12:24:30Z</time>
      </trkpt>
      <trkpt lat="44.99204" lon="6.13569">
        <ele>1788.96</ele>
        <time>2020-08-23T12:24:46Z</time>
      </trkpt>
      <trkpt lat="44.99218" lon="6.13559">
        <ele>1791.32</ele>
        <time>2020-08-23T12:25:03Z</time>
      </trkpt>
      <trkpt lat="44.9922" lon="6.13557">
        <ele>1792.08</ele>
        <time>2020-08-23T12:25:05Z</time>
      </trkpt>
      <trkpt lat="44.99237" lon="6.13536">
        <ele>1792.94</ele>
        <time>2020-08-23T12:25:27Z</time>
      </trkpt>
      <trkpt lat="44.99244" lon="6.13528">
        <ele>1792.9</ele>
        <time>2020-08-23T12:25:41Z</time>
      </trkpt>
      <trkpt lat="44.99252" lon="6.13512">
        <ele>1792.85</ele>
        <time>2020-08-23T12:25:59Z</time>
      </trkpt>
      <trkpt lat="44.99253" lon="6.13505">
        <ele>1792.84</ele>
        <time>2020-08-23T12:26:05Z</time>
      </trkpt>
      <trkpt lat="44.99254" lon="6.13497">
        <ele>1792.8</ele>
        <time>2020-08-23T12:26:10Z</time>
      </trkpt>
      <trkpt lat="44.99263" lon="6.13476">
        <ele>1792.91</ele>
        <time>2020-08-23T12:26:29Z</time>
      </trkpt>
      <trkpt lat="44.99279" lon="6.13454">
        <ele>1793.66</ele>
        <time>2020-08-23T12:26:52Z</time>
      </trkpt>
      <trkpt lat="44.99283" lon="6.13451">
        <ele>1794.42</ele>
        <time>2020-08-23T12:26:58Z</time>
      </trkpt>
      <trkpt lat="44.99284" lon="6.13429">
        <ele>1795.25</ele>
        <time>2020-08-23T12:27:15Z</time>
      </trkpt>
      <trkpt lat="44.99281" lon="6.13406">
        <ele>1795.24</ele>
        <time>2020-08-23T12:27:30Z</time>
      </trkpt>
      <trkpt lat="44.99281" lon="6.13401">
        <ele>1795.25</ele>
        <time>2020-08-23T12:27:33Z</time>
      </trkpt>
      <trkpt lat="44.99281" lon="6.13396">
        <ele>1795.26</ele>
        <time>2020-08-23T12:27:36Z</time>
      </trkpt>
      <trkpt lat="44.99266" lon="6.13383">
        <ele>1796.34</ele>
        <time>2020-08-23T12:27:55Z</time>
      </trkpt>
      <trkpt lat="44.99261" lon="6.13363">
        <ele>1799.41</ele>
        <time>2020-08-23T12:28:13Z</time>
      </trkpt>
      <trkpt lat="44.99257" lon="6.13352">
        <ele>1800.18</ele>
        <time>2020-08-23T12:28:23Z</time>
      </trkpt>
      <trkpt lat="44.99251" lon="6.1335">
        <ele>1801.02</ele>
        <time>2020-08-23T12:28:31Z</time>
      </trkpt>
      <trkpt lat="44.99247" lon="6.13347">
        <ele>1802.73</ele>
        <time>2020-08-23T12:28:47Z</time>
      </trkpt>
      <trkpt lat="44.99261" lon="6.13342">
        <ele>1805.65</ele>
        <time>2020-08-23T12:29:05Z</time>
      </trkpt>
      <trkpt lat="44.99267" lon="6.13344">
        <ele>1807.3</ele>
        <time>2020-08-23T12:29:19Z</time>
      </trkpt>
      <trkpt lat="44.9927" lon="6.1335">
        <ele>1808.22</ele>
        <time>2020-08-23T12:29:35Z</time>
      </trkpt>
      <trkpt lat="44.99279" lon="6.13361">
        <ele>1811.77</ele>
        <time>2020-08-23T12:29:53Z</time>
      </trkpt>
      <trkpt lat="44.99283" lon="6.13363">
        <ele>1813.42</ele>
        <time>2020-08-23T12:30:07Z</time>
      </trkpt>
      <trkpt lat="44.99283" lon="6.13359">
        <ele>1814.27</ele>
        <time>2020-08-23T12:30:27Z</time>
      </trkpt>
      <trkpt lat="44.99282" lon="6.13355">
        <ele>1814.37</ele>
        <time>2020-08-23T12:31:04Z</time>
      </trkpt>
      <trkpt lat="44.99281" lon="6.13351">
        <ele>1814.44</ele>
        <time>2020-08-23T12:31:25Z</time>
      </trkpt>
      <trkpt lat="44.9928" lon="6.13343">
        <ele>1815.43</ele>
        <time>2020-08-23T12:31:40Z</time>
      </trkpt>
      <trkpt lat="44.99277" lon="6.13327">
        <ele>1817.06</ele>
        <time>2020-08-23T12:31:58Z</time>
      </trkpt>
      <trkpt lat="44.99269" lon="6.13317">
        <ele>1818.94</ele>
        <time>2020-08-23T12:32:15Z</time>
      </trkpt>
      <trkpt lat="44.99261" lon="6.13311">
        <ele>1820.67</ele>
        <time>2020-08-23T12:32:29Z</time>
      </trkpt>
      <trkpt lat="44.99262" lon="6.13309">
        <ele>1822.38</ele>
        <time>2020-08-23T12:32:43Z</time>
      </trkpt>
      <trkpt lat="44.99272" lon="6.13312">
        <ele>1824.1</ele>
        <time>2020-08-23T12:32:59Z</time>
      </trkpt>
      <trkpt lat="44.99282" lon="6.13319">
        <ele>1825.72</ele>
        <time>2020-08-23T12:33:16Z</time>
      </trkpt>
      <trkpt lat="44.9929" lon="6.13327">
        <ele>1827.55</ele>
        <time>2020-08-23T12:33:32Z</time>
      </trkpt>
      <trkpt lat="44.993" lon="6.13336">
        <ele>1830.31</ele>
        <time>2020-08-23T12:33:50Z</time>
      </trkpt>
      <trkpt lat="44.99306" lon="6.13347">
        <ele>1831.89</ele>
        <time>2020-08-23T12:34:07Z</time>
      </trkpt>
      <trkpt lat="44.99305" lon="6.13335">
        <ele>1833.54</ele>
        <time>2020-08-23T12:34:20Z</time>
      </trkpt>
      <trkpt lat="44.99299" lon="6.13319">
        <ele>1835.2</ele>
        <time>2020-08-23T12:34:37Z</time>
      </trkpt>
      <trkpt lat="44.99289" lon="6.13301">
        <ele>1835.97</ele>
        <time>2020-08-23T12:34:55Z</time>
      </trkpt>
      <trkpt lat="44.99289" lon="6.13297">
        <ele>1836.91</ele>
        <time>2020-08-23T12:35:12Z</time>
      </trkpt>
      <trkpt lat="44.99303" lon="6.13311">
        <ele>1839.36</ele>
        <time>2020-08-23T12:35:32Z</time>
      </trkpt>
      <trkpt lat="44.99314" lon="6.13328">
        <ele>1841.06</ele>
        <time>2020-08-23T12:35:52Z</time>
      </trkpt>
      <trkpt lat="44.9932" lon="6.13334">
        <ele>1843.63</ele>
        <time>2020-08-23T12:36:11Z</time>
      </trkpt>
      <trkpt lat="44.99315" lon="6.13317">
        <ele>1846.29</ele>
        <time>2020-08-23T12:36:28Z</time>
      </trkpt>
      <trkpt lat="44.99315" lon="6.13316">
        <ele>1846.31</ele>
        <time>2020-08-23T12:36:50Z</time>
      </trkpt>
      <trkpt lat="44.99315" lon="6.13314">
        <ele>1846.43</ele>
        <time>2020-08-23T12:37:24Z</time>
      </trkpt>
      <trkpt lat="44.99314" lon="6.13315">
        <ele>1843.33</ele>
        <time>2020-08-23T12:37:46Z</time>
      </trkpt>
      <trkpt lat="44.99314" lon="6.13315">
        <ele>1843.34</ele>
        <time>2020-08-23T12:37:47Z</time>
      </trkpt>
      <trkpt lat="44.99314" lon="6.13315">
        <ele>1847.02</ele>
        <time>2020-08-23T12:37:48Z</time>
      </trkpt>
      <trkpt lat="44.99314" lon="6.13315">
        <ele>1848.33</ele>
        <time>2020-08-23T12:37:50Z</time>
      </trkpt>
      <trkpt lat="44.99314" lon="6.13315">
        <ele>1835.52</ele>
        <time>2020-08-23T12:37:52Z</time>
      </trkpt>
      <trkpt lat="44.99314" lon="6.13315">
        <ele>1845.95</ele>
        <time>2020-08-23T12:37:53Z</time>
      </trkpt>
      <trkpt lat="44.99314" lon="6.13315">
        <ele>1848.66</ele>
        <time>2020-08-23T12:37:55Z</time>
      </trkpt>
      <trkpt lat="44.99314" lon="6.13314">
        <ele>1845.84</ele>
        <time>2020-08-23T12:37:58Z</time>
      </trkpt>
      <trkpt lat="44.99313" lon="6.13313">
        <ele>1845.91</ele>
        <time>2020-08-23T12:38:24Z</time>
      </trkpt>
      <trkpt lat="44.99313" lon="6.13312">
        <ele>1845.97</ele>
        <time>2020-08-23T12:38:56Z</time>
      </trkpt>
      <trkpt lat="44.99313" lon="6.13312">
        <ele>1845.98</ele>
        <time>2020-08-23T12:39:00Z</time>
      </trkpt>
      <trkpt lat="44.99311" lon="6.13311">
        <ele>1845.99</ele>
        <time>2020-08-23T12:39:05Z</time>
      </trkpt>
      <trkpt lat="44.9931" lon="6.13306">
        <ele>1848.34</ele>
        <time>2020-08-23T12:39:12Z</time>
      </trkpt>
      <trkpt lat="44.99307" lon="6.13294">
        <ele>1850.08</ele>
        <time>2020-08-23T12:39:25Z</time>
      </trkpt>
      <trkpt lat="44.99306" lon="6.13288">
        <ele>1850.09</ele>
        <time>2020-08-23T12:39:31Z</time>
      </trkpt>
      <trkpt lat="44.99306" lon="6.13282">
        <ele>1850.84</ele>
        <time>2020-08-23T12:39:46Z</time>
      </trkpt>
      <trkpt lat="44.99303" lon="6.13274">
        <ele>1851.64</ele>
        <time>2020-08-23T12:40:13Z</time>
      </trkpt>
      <trkpt lat="44.99295" lon="6.13265">
        <ele>1852.46</ele>
        <time>2020-08-23T12:40:26Z</time>
      </trkpt>
      <trkpt lat="44.99282" lon="6.13252">
        <ele>1855.01</ele>
        <time>2020-08-23T12:40:45Z</time>
      </trkpt>
      <trkpt lat="44.99268" lon="6.13243">
        <ele>1857.56</ele>
        <time>2020-08-23T12:41:04Z</time>
      </trkpt>
      <trkpt lat="44.99251" lon="6.13238">
        <ele>1859.97</ele>
        <time>2020-08-23T12:41:24Z</time>
      </trkpt>
      <trkpt lat="44.9924" lon="6.13246">
        <ele>1862.41</ele>
        <time>2020-08-23T12:41:41Z</time>
      </trkpt>
      <trkpt lat="44.99244" lon="6.1324">
        <ele>1863.18</ele>
        <time>2020-08-23T12:41:58Z</time>
      </trkpt>
      <trkpt lat="44.99236" lon="6.13243">
        <ele>1864.94</ele>
        <time>2020-08-23T12:42:10Z</time>
      </trkpt>
      <trkpt lat="44.99228" lon="6.13246">
        <ele>1865.81</ele>
        <time>2020-08-23T12:42:19Z</time>
      </trkpt>
      <trkpt lat="44.99218" lon="6.13243">
        <ele>1867.4</ele>
        <time>2020-08-23T12:42:36Z</time>
      </trkpt>
      <trkpt lat="44.99222" lon="6.13238">
        <ele>1868.3</ele>
        <time>2020-08-23T12:42:48Z</time>
      </trkpt>
      <trkpt lat="44.99222" lon="6.13226">
        <ele>1868.32</ele>
        <time>2020-08-23T12:43:01Z</time>
      </trkpt>
      <trkpt lat="44.99221" lon="6.13207">
        <ele>1870.79</ele>
        <time>2020-08-23T12:43:19Z</time>
      </trkpt>
      <trkpt lat="44.99222" lon="6.13207">
        <ele>1870.74</ele>
        <time>2020-08-23T12:43:51Z</time>
      </trkpt>
      <trkpt lat="44.99223" lon="6.13201">
        <ele>1870.73</ele>
        <time>2020-08-23T12:43:57Z</time>
      </trkpt>
      <trkpt lat="44.99229" lon="6.1318">
        <ele>1872.49</ele>
        <time>2020-08-23T12:44:16Z</time>
      </trkpt>
      <trkpt lat="44.99234" lon="6.13165">
        <ele>1874.03</ele>
        <time>2020-08-23T12:44:32Z</time>
      </trkpt>
      <trkpt lat="44.99236" lon="6.13164">
        <ele>1873.97</ele>
        <time>2020-08-23T12:44:50Z</time>
      </trkpt>
      <trkpt lat="44.99235" lon="6.13163">
        <ele>1873.92</ele>
        <time>2020-08-23T12:45:16Z</time>
      </trkpt>
      <trkpt lat="44.99235" lon="6.13162">
        <ele>1873.88</ele>
        <time>2020-08-23T12:45:36Z</time>
      </trkpt>
      <trkpt lat="44.99236" lon="6.13162">
        <ele>1873.83</ele>
        <time>2020-08-23T12:46:06Z</time>
      </trkpt>
      <trkpt lat="44.99238" lon="6.13156">
        <ele>1873.82</ele>
        <time>2020-08-23T12:46:19Z</time>
      </trkpt>
      <trkpt lat="44.99241" lon="6.13152">
        <ele>1873.78</ele>
        <time>2020-08-23T12:46:34Z</time>
      </trkpt>
      <trkpt lat="44.99239" lon="6.13154">
        <ele>1873.75</ele>
        <time>2020-08-23T12:46:50Z</time>
      </trkpt>
      <trkpt lat="44.99238" lon="6.13153">
        <ele>1873.7</ele>
        <time>2020-08-23T12:47:16Z</time>
      </trkpt>
      <trkpt lat="44.99238" lon="6.13152">
        <ele>1873.65</ele>
        <time>2020-08-23T12:47:42Z</time>
      </trkpt>
      <trkpt lat="44.99238" lon="6.13152">
        <ele>1874.34</ele>
        <time>2020-08-23T12:48:13Z</time>
      </trkpt>
      <trkpt lat="44.99241" lon="6.13149">
        <ele>1874.26</ele>
        <time>2020-08-23T12:48:41Z</time>
      </trkpt>
      <trkpt lat="44.99244" lon="6.13148">
        <ele>1874.25</ele>
        <time>2020-08-23T12:48:44Z</time>
      </trkpt>
      <trkpt lat="44.99259" lon="6.13133">
        <ele>1871.87</ele>
        <time>2020-08-23T12:49:02Z</time>
      </trkpt>
      <trkpt lat="44.99266" lon="6.13106">
        <ele>1869.35</ele>
        <time>2020-08-23T12:49:23Z</time>
      </trkpt>
      <trkpt lat="44.99272" lon="6.13081">
        <ele>1865.64</ele>
        <time>2020-08-23T12:49:44Z</time>
      </trkpt>
      <trkpt lat="44.99284" lon="6.13054">
        <ele>1863.8</ele>
        <time>2020-08-23T12:50:05Z</time>
      </trkpt>
      <trkpt lat="44.99286" lon="6.13047">
        <ele>1863.78</ele>
        <time>2020-08-23T12:50:11Z</time>
      </trkpt>
      <trkpt lat="44.99286" lon="6.13011">
        <ele>1860.19</ele>
        <time>2020-08-23T12:50:35Z</time>
      </trkpt>
      <trkpt lat="44.99295" lon="6.12978">
        <ele>1857.39</ele>
        <time>2020-08-23T12:50:59Z</time>
      </trkpt>
      <trkpt lat="44.99316" lon="6.12956">
        <ele>1854.95</ele>
        <time>2020-08-23T12:51:23Z</time>
      </trkpt>
      <trkpt lat="44.99324" lon="6.1295">
        <ele>1853.28</ele>
        <time>2020-08-23T12:51:34Z</time>
      </trkpt>
      <trkpt lat="44.99324" lon="6.12945">
        <ele>1851.48</ele>
        <time>2020-08-23T12:51:49Z</time>
      </trkpt>
      <trkpt lat="44.99321" lon="6.12943">
        <ele>1851.44</ele>
        <time>2020-08-23T12:52:07Z</time>
      </trkpt>
      <trkpt lat="44.9932" lon="6.12943">
        <ele>1851.41</ele>
        <time>2020-08-23T12:52:28Z</time>
      </trkpt>
      <trkpt lat="44.9932" lon="6.12945">
        <ele>1851.36</ele>
        <time>2020-08-23T12:52:59Z</time>
      </trkpt>
      <trkpt lat="44.9932" lon="6.12941">
        <ele>1851.33</ele>
        <time>2020-08-23T12:53:19Z</time>
      </trkpt>
      <trkpt lat="44.99327" lon="6.12934">
        <ele>1849.6</ele>
        <time>2020-08-23T12:53:34Z</time>
      </trkpt>
      <trkpt lat="44.99341" lon="6.12941">
        <ele>1847.04</ele>
        <time>2020-08-23T12:53:56Z</time>
      </trkpt>
      <trkpt lat="44.99346" lon="6.12949">
        <ele>1846.21</ele>
        <time>2020-08-23T12:54:06Z</time>
      </trkpt>
      <trkpt lat="44.99347" lon="6.12953">
        <ele>1845.35</ele>
        <time>2020-08-23T12:54:23Z</time>
      </trkpt>
      <trkpt lat="44.99347" lon="6.12942">
        <ele>1845.33</ele>
        <time>2020-08-23T12:54:37Z</time>
      </trkpt>
      <trkpt lat="44.99347" lon="6.12943">
        <ele>1845.3</ele>
        <time>2020-08-23T12:54:58Z</time>
      </trkpt>
      <trkpt lat="44.99347" lon="6.12948">
        <ele>1845.28</ele>
        <time>2020-08-23T12:55:11Z</time>
      </trkpt>
      <trkpt lat="44.99348" lon="6.12959">
        <ele>1845.26</ele>
        <time>2020-08-23T12:55:24Z</time>
      </trkpt>
      <trkpt lat="44.99354" lon="6.12963">
        <ele>1842.04</ele>
        <time>2020-08-23T12:55:37Z</time>
      </trkpt>
      <trkpt lat="44.99359" lon="6.1297">
        <ele>1842.01</ele>
        <time>2020-08-23T12:55:52Z</time>
      </trkpt>
      <trkpt lat="44.99368" lon="6.12979">
        <ele>1839.24</ele>
        <time>2020-08-23T12:56:06Z</time>
      </trkpt>
      <trkpt lat="44.99372" lon="6.12984">
        <ele>1838.45</ele>
        <time>2020-08-23T12:56:27Z</time>
      </trkpt>
      <trkpt lat="44.99382" lon="6.12986">
        <ele>1836.87</ele>
        <time>2020-08-23T12:56:39Z</time>
      </trkpt>
      <trkpt lat="44.99384" lon="6.1299">
        <ele>1836.08</ele>
        <time>2020-08-23T12:56:42Z</time>
      </trkpt>
      <trkpt lat="44.99395" lon="6.12994">
        <ele>1834.43</ele>
        <time>2020-08-23T12:56:57Z</time>
      </trkpt>
      <trkpt lat="44.99404" lon="6.12999">
        <ele>1832.72</ele>
        <time>2020-08-23T12:57:08Z</time>
      </trkpt>
      <trkpt lat="44.99412" lon="6.13004">
        <ele>1832.01</ele>
        <time>2020-08-23T12:57:18Z</time>
      </trkpt>
      <trkpt lat="44.99424" lon="6.13006">
        <ele>1829.42</ele>
        <time>2020-08-23T12:57:33Z</time>
      </trkpt>
      <trkpt lat="44.99439" lon="6.13012">
        <ele>1826.6</ele>
        <time>2020-08-23T12:57:50Z</time>
      </trkpt>
      <trkpt lat="44.99452" lon="6.13018">
        <ele>1824.04</ele>
        <time>2020-08-23T12:58:05Z</time>
      </trkpt>
      <trkpt lat="44.99463" lon="6.13021">
        <ele>1822.25</ele>
        <time>2020-08-23T12:58:17Z</time>
      </trkpt>
      <trkpt lat="44.99477" lon="6.13026">
        <ele>1820.64</ele>
        <time>2020-08-23T12:58:30Z</time>
      </trkpt>
      <trkpt lat="44.99488" lon="6.13028">
        <ele>1817.59</ele>
        <time>2020-08-23T12:58:43Z</time>
      </trkpt>
      <trkpt lat="44.99501" lon="6.13033">
        <ele>1815.96</ele>
        <time>2020-08-23T12:58:57Z</time>
      </trkpt>
      <trkpt lat="44.99511" lon="6.13038">
        <ele>1813.31</ele>
        <time>2020-08-23T12:59:12Z</time>
      </trkpt>
      <trkpt lat="44.99522" lon="6.13046">
        <ele>1811.55</ele>
        <time>2020-08-23T12:59:22Z</time>
      </trkpt>
      <trkpt lat="44.99537" lon="6.13052">
        <ele>1809.61</ele>
        <time>2020-08-23T12:59:38Z</time>
      </trkpt>
      <trkpt lat="44.99549" lon="6.13058">
        <ele>1807.07</ele>
        <time>2020-08-23T12:59:51Z</time>
      </trkpt>
      <trkpt lat="44.99559" lon="6.13062">
        <ele>1805.12</ele>
        <time>2020-08-23T13:00:06Z</time>
      </trkpt>
      <trkpt lat="44.99574" lon="6.13065">
        <ele>1802.54</ele>
        <time>2020-08-23T13:00:22Z</time>
      </trkpt>
      <trkpt lat="44.99591" lon="6.13067">
        <ele>1800.04</ele>
        <time>2020-08-23T13:00:38Z</time>
      </trkpt>
      <trkpt lat="44.99607" lon="6.13064">
        <ele>1797.44</ele>
        <time>2020-08-23T13:00:55Z</time>
      </trkpt>
      <trkpt lat="44.99618" lon="6.13061">
        <ele>1795.78</ele>
        <time>2020-08-23T13:01:06Z</time>
      </trkpt>
      <trkpt lat="44.99624" lon="6.13056">
        <ele>1794.94</ele>
        <time>2020-08-23T13:01:24Z</time>
      </trkpt>
      <trkpt lat="44.99627" lon="6.13056">
        <ele>1794.95</ele>
        <time>2020-08-23T13:01:45Z</time>
      </trkpt>
      <trkpt lat="44.99631" lon="6.13053">
        <ele>1794.04</ele>
        <time>2020-08-23T13:01:56Z</time>
      </trkpt>
      <trkpt lat="44.9962" lon="6.13046">
        <ele>1791.41</ele>
        <time>2020-08-23T13:02:09Z</time>
      </trkpt>
      <trkpt lat="44.99609" lon="6.13037">
        <ele>1789.64</ele>
        <time>2020-08-23T13:02:23Z</time>
      </trkpt>
      <trkpt lat="44.99597" lon="6.13027">
        <ele>1787.13</ele>
        <time>2020-08-23T13:02:38Z</time>
      </trkpt>
      <trkpt lat="44.99585" lon="6.13015">
        <ele>1784.26</ele>
        <time>2020-08-23T13:02:55Z</time>
      </trkpt>
      <trkpt lat="44.99572" lon="6.12997">
        <ele>1780.85</ele>
        <time>2020-08-23T13:03:15Z</time>
      </trkpt>
      <trkpt lat="44.99562" lon="6.12984">
        <ele>1779.18</ele>
        <time>2020-08-23T13:03:33Z</time>
      </trkpt>
      <trkpt lat="44.99575" lon="6.12987">
        <ele>1776.49</ele>
        <time>2020-08-23T13:03:51Z</time>
      </trkpt>
      <trkpt lat="44.99578" lon="6.12988">
        <ele>1775.7</ele>
        <time>2020-08-23T13:03:55Z</time>
      </trkpt>
      <trkpt lat="44.99592" lon="6.12994">
        <ele>1772.91</ele>
        <time>2020-08-23T13:04:12Z</time>
      </trkpt>
      <trkpt lat="44.99604" lon="6.12998">
        <ele>1771.18</ele>
        <time>2020-08-23T13:04:29Z</time>
      </trkpt>
      <trkpt lat="44.99614" lon="6.12998">
        <ele>1769.42</ele>
        <time>2020-08-23T13:04:42Z</time>
      </trkpt>
      <trkpt lat="44.99625" lon="6.12998">
        <ele>1767.78</ele>
        <time>2020-08-23T13:04:55Z</time>
      </trkpt>
      <trkpt lat="44.9963" lon="6.12996">
        <ele>1765.34</ele>
        <time>2020-08-23T13:05:10Z</time>
      </trkpt>
      <trkpt lat="44.99618" lon="6.12983">
        <ele>1762.71</ele>
        <time>2020-08-23T13:05:28Z</time>
      </trkpt>
      <trkpt lat="44.99602" lon="6.12963">
        <ele>1759.3</ele>
        <time>2020-08-23T13:05:51Z</time>
      </trkpt>
      <trkpt lat="44.99586" lon="6.12943">
        <ele>1756.48</ele>
        <time>2020-08-23T13:06:12Z</time>
      </trkpt>
      <trkpt lat="44.99574" lon="6.12927">
        <ele>1754.01</ele>
        <time>2020-08-23T13:06:31Z</time>
      </trkpt>
      <trkpt lat="44.99562" lon="6.12912">
        <ele>1751.28</ele>
        <time>2020-08-23T13:06:51Z</time>
      </trkpt>
      <trkpt lat="44.99572" lon="6.12914">
        <ele>1749.46</ele>
        <time>2020-08-23T13:07:05Z</time>
      </trkpt>
      <trkpt lat="44.99582" lon="6.12913">
        <ele>1745.8</ele>
        <time>2020-08-23T13:07:20Z</time>
      </trkpt>
      <trkpt lat="44.99593" lon="6.12913">
        <ele>1744.04</ele>
        <time>2020-08-23T13:07:35Z</time>
      </trkpt>
      <trkpt lat="44.99598" lon="6.12913">
        <ele>1742.46</ele>
        <time>2020-08-23T13:07:54Z</time>
      </trkpt>
      <trkpt lat="44.996" lon="6.12913">
        <ele>1742.43</ele>
        <time>2020-08-23T13:07:57Z</time>
      </trkpt>
      <trkpt lat="44.99608" lon="6.12914">
        <ele>1740.69</ele>
        <time>2020-08-23T13:08:05Z</time>
      </trkpt>
      <trkpt lat="44.996" lon="6.129">
        <ele>1737.69</ele>
        <time>2020-08-23T13:08:17Z</time>
      </trkpt>
      <trkpt lat="44.99597" lon="6.12897">
        <ele>1736.5</ele>
        <time>2020-08-23T13:08:19Z</time>
      </trkpt>
      <trkpt lat="44.99584" lon="6.12884">
        <ele>1734.09</ele>
        <time>2020-08-23T13:08:37Z</time>
      </trkpt>
      <trkpt lat="44.99583" lon="6.1288">
        <ele>1732.5</ele>
        <time>2020-08-23T13:08:52Z</time>
      </trkpt>
      <trkpt lat="44.99591" lon="6.12876">
        <ele>1728.93</ele>
        <time>2020-08-23T13:09:07Z</time>
      </trkpt>
      <trkpt lat="44.99595" lon="6.12876">
        <ele>1727.27</ele>
        <time>2020-08-23T13:09:23Z</time>
      </trkpt>
      <trkpt lat="44.99603" lon="6.12872">
        <ele>1725.51</ele>
        <time>2020-08-23T13:09:47Z</time>
      </trkpt>
      <trkpt lat="44.99609" lon="6.12868">
        <ele>1722.91</ele>
        <time>2020-08-23T13:10:03Z</time>
      </trkpt>
      <trkpt lat="44.99617" lon="6.12868">
        <ele>1720.15</ele>
        <time>2020-08-23T13:10:15Z</time>
      </trkpt>
      <trkpt lat="44.99628" lon="6.12859">
        <ele>1716.48</ele>
        <time>2020-08-23T13:10:31Z</time>
      </trkpt>
      <trkpt lat="44.9963" lon="6.12846">
        <ele>1712.97</ele>
        <time>2020-08-23T13:10:48Z</time>
      </trkpt>
      <trkpt lat="44.99627" lon="6.12833">
        <ele>1710.24</ele>
        <time>2020-08-23T13:11:06Z</time>
      </trkpt>
      <trkpt lat="44.99638" lon="6.12832">
        <ele>1707.6</ele>
        <time>2020-08-23T13:11:22Z</time>
      </trkpt>
      <trkpt lat="44.99651" lon="6.12834">
        <ele>1704.04</ele>
        <time>2020-08-23T13:11:39Z</time>
      </trkpt>
      <trkpt lat="44.99654" lon="6.12836">
        <ele>1704.06</ele>
        <time>2020-08-23T13:11:43Z</time>
      </trkpt>
      <trkpt lat="44.99673" lon="6.12843">
        <ele>1700.38</ele>
        <time>2020-08-23T13:12:06Z</time>
      </trkpt>
      <trkpt lat="44.99681" lon="6.12843">
        <ele>1697.8</ele>
        <time>2020-08-23T13:12:18Z</time>
      </trkpt>
      <trkpt lat="44.99698" lon="6.12848">
        <ele>1694.32</ele>
        <time>2020-08-23T13:12:36Z</time>
      </trkpt>
      <trkpt lat="44.99719" lon="6.12848">
        <ele>1692.77</ele>
        <time>2020-08-23T13:12:58Z</time>
      </trkpt>
      <trkpt lat="44.99737" lon="6.12844">
        <ele>1690.27</ele>
        <time>2020-08-23T13:13:17Z</time>
      </trkpt>
      <trkpt lat="44.99754" lon="6.12844">
        <ele>1690.32</ele>
        <time>2020-08-23T13:13:35Z</time>
      </trkpt>
      <trkpt lat="44.99772" lon="6.12841">
        <ele>1690.13</ele>
        <time>2020-08-23T13:13:56Z</time>
      </trkpt>
      <trkpt lat="44.99783" lon="6.12841">
        <ele>1688.27</ele>
        <time>2020-08-23T13:14:09Z</time>
      </trkpt>
      <trkpt lat="44.99791" lon="6.12854">
        <ele>1685.79</ele>
        <time>2020-08-23T13:14:25Z</time>
      </trkpt>
      <trkpt lat="44.99795" lon="6.12854">
        <ele>1685.77</ele>
        <time>2020-08-23T13:14:29Z</time>
      </trkpt>
      <trkpt lat="44.99814" lon="6.12851">
        <ele>1685.71</ele>
        <time>2020-08-23T13:14:50Z</time>
      </trkpt>
      <trkpt lat="44.99824" lon="6.1285">
        <ele>1684.79</ele>
        <time>2020-08-23T13:15:03Z</time>
      </trkpt>
      <trkpt lat="44.99844" lon="6.12846">
        <ele>1683.09</ele>
        <time>2020-08-23T13:15:23Z</time>
      </trkpt>
      <trkpt lat="44.9985" lon="6.12843">
        <ele>1683.04</ele>
        <time>2020-08-23T13:15:39Z</time>
      </trkpt>
      <trkpt lat="44.99867" lon="6.1284">
        <ele>1680.4</ele>
        <time>2020-08-23T13:15:59Z</time>
      </trkpt>
      <trkpt lat="44.99884" lon="6.12837">
        <ele>1678.45</ele>
        <time>2020-08-23T13:16:18Z</time>
      </trkpt>
      <trkpt lat="44.99895" lon="6.12831">
        <ele>1675.35</ele>
        <time>2020-08-23T13:16:31Z</time>
      </trkpt>
      <trkpt lat="44.99898" lon="6.12828">
        <ele>1675.31</ele>
        <time>2020-08-23T13:16:35Z</time>
      </trkpt>
      <trkpt lat="44.9991" lon="6.12817">
        <ele>1671.83</ele>
        <time>2020-08-23T13:16:51Z</time>
      </trkpt>
      <trkpt lat="44.99913" lon="6.12816">
        <ele>1671.8</ele>
        <time>2020-08-23T13:17:12Z</time>
      </trkpt>
      <trkpt lat="44.99922" lon="6.12809">
        <ele>1668.11</ele>
        <time>2020-08-23T13:17:28Z</time>
      </trkpt>
      <trkpt lat="44.99939" lon="6.12799">
        <ele>1664.47</ele>
        <time>2020-08-23T13:17:49Z</time>
      </trkpt>
      <trkpt lat="44.99953" lon="6.12794">
        <ele>1661.88</ele>
        <time>2020-08-23T13:18:09Z</time>
      </trkpt>
      <trkpt lat="44.99965" lon="6.12791">
        <ele>1660.76</ele>
        <time>2020-08-23T13:18:27Z</time>
      </trkpt>
      <trkpt lat="44.99983" lon="6.12784">
        <ele>1659.09</ele>
        <time>2020-08-23T13:18:46Z</time>
      </trkpt>
      <trkpt lat="44.99998" lon="6.12773">
        <ele>1657.31</ele>
        <time>2020-08-23T13:19:07Z</time>
      </trkpt>
      <trkpt lat="45.00007" lon="6.12771">
        <ele>1655.44</ele>
        <time>2020-08-23T13:19:23Z</time>
      </trkpt>
      <trkpt lat="45.00011" lon="6.12769">
        <ele>1655.44</ele>
        <time>2020-08-23T13:19:28Z</time>
      </trkpt>
      <trkpt lat="45.00018" lon="6.12772">
        <ele>1655.38</ele>
        <time>2020-08-23T13:19:42Z</time>
      </trkpt>
      <trkpt lat="45.00033" lon="6.12771">
        <ele>1655.26</ele>
        <time>2020-08-23T13:19:59Z</time>
      </trkpt>
      <trkpt lat="45.00054" lon="6.12767">
        <ele>1655.16</ele>
        <time>2020-08-23T13:20:20Z</time>
      </trkpt>
      <trkpt lat="45.00071" lon="6.12755">
        <ele>1654.22</ele>
        <time>2020-08-23T13:20:38Z</time>
      </trkpt>
      <trkpt lat="45.0008" lon="6.12748">
        <ele>1653.42</ele>
        <time>2020-08-23T13:20:47Z</time>
      </trkpt>
      <trkpt lat="45.00082" lon="6.12747">
        <ele>1653.42</ele>
        <time>2020-08-23T13:20:49Z</time>
      </trkpt>
      <trkpt lat="45.00097" lon="6.12733">
        <ele>1653.34</ele>
        <time>2020-08-23T13:21:07Z</time>
      </trkpt>
      <trkpt lat="45.00102" lon="6.1272">
        <ele>1653.27</ele>
        <time>2020-08-23T13:21:22Z</time>
      </trkpt>
      <trkpt lat="45.00111" lon="6.12701">
        <ele>1653.18</ele>
        <time>2020-08-23T13:21:39Z</time>
      </trkpt>
      <trkpt lat="45.00128" lon="6.12682">
        <ele>1653.06</ele>
        <time>2020-08-23T13:22:00Z</time>
      </trkpt>
      <trkpt lat="45.00137" lon="6.12673">
        <ele>1653.01</ele>
        <time>2020-08-23T13:22:12Z</time>
      </trkpt>
      <trkpt lat="45.00152" lon="6.12656">
        <ele>1652.92</ele>
        <time>2020-08-23T13:22:31Z</time>
      </trkpt>
      <trkpt lat="45.00158" lon="6.12647">
        <ele>1652.88</ele>
        <time>2020-08-23T13:22:40Z</time>
      </trkpt>
      <trkpt lat="45.00173" lon="6.1263">
        <ele>1652.79</ele>
        <time>2020-08-23T13:22:58Z</time>
      </trkpt>
      <trkpt lat="45.00177" lon="6.12625">
        <ele>1651.93</ele>
        <time>2020-08-23T13:23:13Z</time>
      </trkpt>
      <trkpt lat="45.00185" lon="6.12615">
        <ele>1651.85</ele>
        <time>2020-08-23T13:23:28Z</time>
      </trkpt>
      <trkpt lat="45.00203" lon="6.12598">
        <ele>1650.24</ele>
        <time>2020-08-23T13:23:48Z</time>
      </trkpt>
      <trkpt lat="45.00208" lon="6.1259">
        <ele>1650.21</ele>
        <time>2020-08-23T13:23:55Z</time>
      </trkpt>
      <trkpt lat="45.00211" lon="6.12583">
        <ele>1649.34</ele>
        <time>2020-08-23T13:24:00Z</time>
      </trkpt>
      <trkpt lat="45.00227" lon="6.12559">
        <ele>1648.41</ele>
        <time>2020-08-23T13:24:22Z</time>
      </trkpt>
      <trkpt lat="45.00245" lon="6.12528">
        <ele>1648.33</ele>
        <time>2020-08-23T13:24:47Z</time>
      </trkpt>
      <trkpt lat="45.00259" lon="6.12507">
        <ele>1650.51</ele>
        <time>2020-08-23T13:25:06Z</time>
      </trkpt>
      <trkpt lat="45.00275" lon="6.12488">
        <ele>1651.18</ele>
        <time>2020-08-23T13:25:26Z</time>
      </trkpt>
      <trkpt lat="45.00293" lon="6.12465">
        <ele>1651.1</ele>
        <time>2020-08-23T13:25:48Z</time>
      </trkpt>
      <trkpt lat="45.00307" lon="6.1244">
        <ele>1651.03</ele>
        <time>2020-08-23T13:26:09Z</time>
      </trkpt>
      <trkpt lat="45.00321" lon="6.12418">
        <ele>1650.98</ele>
        <time>2020-08-23T13:26:28Z</time>
      </trkpt>
      <trkpt lat="45.00328" lon="6.12404">
        <ele>1650.94</ele>
        <time>2020-08-23T13:26:43Z</time>
      </trkpt>
      <trkpt lat="45.0033" lon="6.12391">
        <ele>1650.88</ele>
        <time>2020-08-23T13:26:59Z</time>
      </trkpt>
      <trkpt lat="45.0033" lon="6.12379">
        <ele>1650.85</ele>
        <time>2020-08-23T13:27:13Z</time>
      </trkpt>
      <trkpt lat="45.00326" lon="6.12349">
        <ele>1651.59</ele>
        <time>2020-08-23T13:27:35Z</time>
      </trkpt>
      <trkpt lat="45.00324" lon="6.12317">
        <ele>1653.27</ele>
        <time>2020-08-23T13:27:57Z</time>
      </trkpt>
      <trkpt lat="45.00325" lon="6.12288">
        <ele>1654.87</ele>
        <time>2020-08-23T13:28:17Z</time>
      </trkpt>
      <trkpt lat="45.00326" lon="6.12258">
        <ele>1655.62</ele>
        <time>2020-08-23T13:28:36Z</time>
      </trkpt>
      <trkpt lat="45.0033" lon="6.12235">
        <ele>1656.39</ele>
        <time>2020-08-23T13:28:57Z</time>
      </trkpt>
      <trkpt lat="45.00331" lon="6.12223">
        <ele>1656.34</ele>
        <time>2020-08-23T13:29:19Z</time>
      </trkpt>
      <trkpt lat="45.00341" lon="6.12194">
        <ele>1656.29</ele>
        <time>2020-08-23T13:29:41Z</time>
      </trkpt>
      <trkpt lat="45.00353" lon="6.12171">
        <ele>1656.23</ele>
        <time>2020-08-23T13:30:01Z</time>
      </trkpt>
      <trkpt lat="45.00364" lon="6.12147">
        <ele>1656.19</ele>
        <time>2020-08-23T13:30:21Z</time>
      </trkpt>
      <trkpt lat="45.00377" lon="6.12121">
        <ele>1656.12</ele>
        <time>2020-08-23T13:30:42Z</time>
      </trkpt>
      <trkpt lat="45.0038" lon="6.12096">
        <ele>1653.7</ele>
        <time>2020-08-23T13:31:01Z</time>
      </trkpt>
      <trkpt lat="45.00376" lon="6.12069">
        <ele>1652.84</ele>
        <time>2020-08-23T13:31:23Z</time>
      </trkpt>
      <trkpt lat="45.00376" lon="6.12071">
        <ele>1652.84</ele>
        <time>2020-08-23T13:31:51Z</time>
      </trkpt>
      <trkpt lat="45.00374" lon="6.12056">
        <ele>1651.16</ele>
        <time>2020-08-23T13:32:06Z</time>
      </trkpt>
      <trkpt lat="45.00372" lon="6.12029">
        <ele>1648.62</ele>
        <time>2020-08-23T13:32:28Z</time>
      </trkpt>
      <trkpt lat="45.0037" lon="6.12">
        <ele>1646.99</ele>
        <time>2020-08-23T13:32:47Z</time>
      </trkpt>
      <trkpt lat="45.00359" lon="6.11998">
        <ele>1646.98</ele>
        <time>2020-08-23T13:33:05Z</time>
      </trkpt>
      <trkpt lat="45.00345" lon="6.11991">
        <ele>1645.28</ele>
        <time>2020-08-23T13:33:22Z</time>
      </trkpt>
      <trkpt lat="45.0033" lon="6.11986">
        <ele>1644.45</ele>
        <time>2020-08-23T13:33:40Z</time>
      </trkpt>
      <trkpt lat="45.00314" lon="6.11971">
        <ele>1643.69</ele>
        <time>2020-08-23T13:33:57Z</time>
      </trkpt>
      <trkpt lat="45.00304" lon="6.11961">
        <ele>1643.66</ele>
        <time>2020-08-23T13:34:10Z</time>
      </trkpt>
      <trkpt lat="45.00301" lon="6.11959">
        <ele>1642.03</ele>
        <time>2020-08-23T13:34:20Z</time>
      </trkpt>
      <trkpt lat="45.00302" lon="6.11959">
        <ele>1641.91</ele>
        <time>2020-08-23T13:34:58Z</time>
      </trkpt>
      <trkpt lat="45.00302" lon="6.11962">
        <ele>1641.8</ele>
        <time>2020-08-23T13:35:26Z</time>
      </trkpt>
      <trkpt lat="45.00303" lon="6.11962">
        <ele>1641.71</ele>
        <time>2020-08-23T13:35:51Z</time>
      </trkpt>
      <trkpt lat="45.00303" lon="6.11962">
        <ele>1641.65</ele>
        <time>2020-08-23T13:36:06Z</time>
      </trkpt>
      <trkpt lat="45.003" lon="6.11963">
        <ele>1641.58</ele>
        <time>2020-08-23T13:36:28Z</time>
      </trkpt>
      <trkpt lat="45.00284" lon="6.11957">
        <ele>1640.57</ele>
        <time>2020-08-23T13:36:48Z</time>
      </trkpt>
      <trkpt lat="45.00283" lon="6.1196">
        <ele>1640.5</ele>
        <time>2020-08-23T13:37:08Z</time>
      </trkpt>
      <trkpt lat="45.00282" lon="6.11966">
        <ele>1640.41</ele>
        <time>2020-08-23T13:37:32Z</time>
      </trkpt>
      <trkpt lat="45.00283" lon="6.1197">
        <ele>1640.32</ele>
        <time>2020-08-23T13:37:59Z</time>
      </trkpt>
      <trkpt lat="45.00282" lon="6.11974">
        <ele>1640.25</ele>
        <time>2020-08-23T13:38:20Z</time>
      </trkpt>
      <trkpt lat="45.00286" lon="6.11977">
        <ele>1640.19</ele>
        <time>2020-08-23T13:38:48Z</time>
      </trkpt>
      <trkpt lat="45.00287" lon="6.11972">
        <ele>1637.81</ele>
        <time>2020-08-23T13:39:09Z</time>
      </trkpt>
      <trkpt lat="45.00289" lon="6.11972">
        <ele>1637.81</ele>
        <time>2020-08-23T13:39:24Z</time>
      </trkpt>
      <trkpt lat="45.00289" lon="6.11969">
        <ele>1637.79</ele>
        <time>2020-08-23T13:39:46Z</time>
      </trkpt>
      <trkpt lat="45.00294" lon="6.11964">
        <ele>1637.77</ele>
        <time>2020-08-23T13:40:11Z</time>
      </trkpt>
      <trkpt lat="45.00292" lon="6.11962">
        <ele>1637.71</ele>
        <time>2020-08-23T13:40:34Z</time>
      </trkpt>
      <trkpt lat="45.00292" lon="6.11962">
        <ele>1637.76</ele>
        <time>2020-08-23T13:40:36Z</time>
      </trkpt>
      <trkpt lat="45.00284" lon="6.11954">
        <ele>1637.77</ele>
        <time>2020-08-23T13:41:20Z</time>
      </trkpt>
      <trkpt lat="45.00277" lon="6.11958">
        <ele>1637.74</ele>
        <time>2020-08-23T13:41:51Z</time>
      </trkpt>
      <trkpt lat="45.00272" lon="6.11957">
        <ele>1637.72</ele>
        <time>2020-08-23T13:42:21Z</time>
      </trkpt>
      <trkpt lat="45.00278" lon="6.11958">
        <ele>1637.69</ele>
        <time>2020-08-23T13:43:03Z</time>
      </trkpt>
      <trkpt lat="45.00269" lon="6.1196">
        <ele>1637.67</ele>
        <time>2020-08-23T13:43:16Z</time>
      </trkpt>
      <trkpt lat="45.00261" lon="6.11958">
        <ele>1637.7</ele>
        <time>2020-08-23T13:43:18Z</time>
      </trkpt>
      <trkpt lat="45.00257" lon="6.11958">
        <ele>1637.71</ele>
        <time>2020-08-23T13:43:19Z</time>
      </trkpt>
      <trkpt lat="45.00227" lon="6.11943">
        <ele>1633.42</ele>
        <time>2020-08-23T13:43:28Z</time>
      </trkpt>
      <trkpt lat="45.00223" lon="6.11942">
        <ele>1633.42</ele>
        <time>2020-08-23T13:43:29Z</time>
      </trkpt>
      <trkpt lat="45.00217" lon="6.11939">
        <ele>1630.34</ele>
        <time>2020-08-23T13:43:31Z</time>
      </trkpt>
      <trkpt lat="45.0021" lon="6.11937">
        <ele>1626.87</ele>
        <time>2020-08-23T13:43:33Z</time>
      </trkpt>
      <trkpt lat="45.00203" lon="6.11936">
        <ele>1622.95</ele>
        <time>2020-08-23T13:43:35Z</time>
      </trkpt>
      <trkpt lat="45.00197" lon="6.11934">
        <ele>1619.13</ele>
        <time>2020-08-23T13:43:37Z</time>
      </trkpt>
      <trkpt lat="45.00191" lon="6.11933">
        <ele>1615.98</ele>
        <time>2020-08-23T13:43:39Z</time>
      </trkpt>
      <trkpt lat="45.00185" lon="6.11931">
        <ele>1612.88</ele>
        <time>2020-08-23T13:43:41Z</time>
      </trkpt>
      <trkpt lat="45.00176" lon="6.1193">
        <ele>1608.9</ele>
        <time>2020-08-23T13:43:44Z</time>
      </trkpt>
      <trkpt lat="45.00167" lon="6.11928">
        <ele>1604.71</ele>
        <time>2020-08-23T13:43:47Z</time>
      </trkpt>
      <trkpt lat="45.00161" lon="6.11927">
        <ele>1601.43</ele>
        <time>2020-08-23T13:43:49Z</time>
      </trkpt>
      <trkpt lat="45.00152" lon="6.11926">
        <ele>1597.3</ele>
        <time>2020-08-23T13:43:52Z</time>
      </trkpt>
      <trkpt lat="45.00143" lon="6.11923">
        <ele>1593.29</ele>
        <time>2020-08-23T13:43:55Z</time>
      </trkpt>
      <trkpt lat="45.00133" lon="6.11921">
        <ele>1589.38</ele>
        <time>2020-08-23T13:43:58Z</time>
      </trkpt>
      <trkpt lat="45.00124" lon="6.1192">
        <ele>1585.44</ele>
        <time>2020-08-23T13:44:01Z</time>
      </trkpt>
      <trkpt lat="45.00115" lon="6.11918">
        <ele>1582.36</ele>
        <time>2020-08-23T13:44:04Z</time>
      </trkpt>
      <trkpt lat="45.00105" lon="6.11917">
        <ele>1579.07</ele>
        <time>2020-08-23T13:44:07Z</time>
      </trkpt>
      <trkpt lat="45.00096" lon="6.11914">
        <ele>1575.46</ele>
        <time>2020-08-23T13:44:10Z</time>
      </trkpt>
      <trkpt lat="45.0009" lon="6.11912">
        <ele>1571.69</ele>
        <time>2020-08-23T13:44:12Z</time>
      </trkpt>
      <trkpt lat="45.00084" lon="6.11911">
        <ele>1567.92</ele>
        <time>2020-08-23T13:44:14Z</time>
      </trkpt>
      <trkpt lat="45.00078" lon="6.1191">
        <ele>1564.32</ele>
        <time>2020-08-23T13:44:16Z</time>
      </trkpt>
      <trkpt lat="45.00072" lon="6.11907">
        <ele>1560.96</ele>
        <time>2020-08-23T13:44:18Z</time>
      </trkpt>
      <trkpt lat="45.00066" lon="6.11906">
        <ele>1556.77</ele>
        <time>2020-08-23T13:44:20Z</time>
      </trkpt>
      <trkpt lat="45.00059" lon="6.11905">
        <ele>1553.49</ele>
        <time>2020-08-23T13:44:22Z</time>
      </trkpt>
      <trkpt lat="45.00053" lon="6.11904">
        <ele>1550.45</ele>
        <time>2020-08-23T13:44:24Z</time>
      </trkpt>
      <trkpt lat="45.00047" lon="6.11902">
        <ele>1547.35</ele>
        <time>2020-08-23T13:44:26Z</time>
      </trkpt>
      <trkpt lat="45.00038" lon="6.119">
        <ele>1542.78</ele>
        <time>2020-08-23T13:44:29Z</time>
      </trkpt>
      <trkpt lat="45.00032" lon="6.11898">
        <ele>1539.51</ele>
        <time>2020-08-23T13:44:31Z</time>
      </trkpt>
      <trkpt lat="45.00025" lon="6.11897">
        <ele>1536.38</ele>
        <time>2020-08-23T13:44:33Z</time>
      </trkpt>
      <trkpt lat="45.00019" lon="6.11896">
        <ele>1532.94</ele>
        <time>2020-08-23T13:44:35Z</time>
      </trkpt>
      <trkpt lat="45.00011" lon="6.11894">
        <ele>1528.5</ele>
        <time>2020-08-23T13:44:38Z</time>
      </trkpt>
      <trkpt lat="45.00005" lon="6.11894">
        <ele>1525.46</ele>
        <time>2020-08-23T13:44:40Z</time>
      </trkpt>
      <trkpt lat="44.99998" lon="6.11892">
        <ele>1522.37</ele>
        <time>2020-08-23T13:44:42Z</time>
      </trkpt>
      <trkpt lat="44.99989" lon="6.11891">
        <ele>1517.96</ele>
        <time>2020-08-23T13:44:45Z</time>
      </trkpt>
      <trkpt lat="44.9998" lon="6.1189">
        <ele>1513.53</ele>
        <time>2020-08-23T13:44:48Z</time>
      </trkpt>
      <trkpt lat="44.99971" lon="6.11887">
        <ele>1510.02</ele>
        <time>2020-08-23T13:44:51Z</time>
      </trkpt>
      <trkpt lat="44.99961" lon="6.11884">
        <ele>1506.12</ele>
        <time>2020-08-23T13:44:54Z</time>
      </trkpt>
      <trkpt lat="44.99958" lon="6.11883">
        <ele>1506.05</ele>
        <time>2020-08-23T13:44:55Z</time>
      </trkpt>
      <trkpt lat="44.99948" lon="6.11881">
        <ele>1502.2</ele>
        <time>2020-08-23T13:44:58Z</time>
      </trkpt>
      <trkpt lat="44.9994" lon="6.11878">
        <ele>1497.27</ele>
        <time>2020-08-23T13:45:01Z</time>
      </trkpt>
      <trkpt lat="44.99934" lon="6.11877">
        <ele>1493.11</ele>
        <time>2020-08-23T13:45:03Z</time>
      </trkpt>
      <trkpt lat="44.99928" lon="6.11875">
        <ele>1489.07</ele>
        <time>2020-08-23T13:45:05Z</time>
      </trkpt>
      <trkpt lat="44.99921" lon="6.11874">
        <ele>1485.11</ele>
        <time>2020-08-23T13:45:07Z</time>
      </trkpt>
      <trkpt lat="44.99915" lon="6.11872">
        <ele>1480.9</ele>
        <time>2020-08-23T13:45:09Z</time>
      </trkpt>
      <trkpt lat="44.99909" lon="6.11871">
        <ele>1477.07</ele>
        <time>2020-08-23T13:45:11Z</time>
      </trkpt>
      <trkpt lat="44.99903" lon="6.1187">
        <ele>1473.43</ele>
        <time>2020-08-23T13:45:13Z</time>
      </trkpt>
      <trkpt lat="44.99897" lon="6.11869">
        <ele>1470.37</ele>
        <time>2020-08-23T13:45:15Z</time>
      </trkpt>
      <trkpt lat="44.99891" lon="6.11868">
        <ele>1466.96</ele>
        <time>2020-08-23T13:45:17Z</time>
      </trkpt>
      <trkpt lat="44.99886" lon="6.11866">
        <ele>1463.44</ele>
        <time>2020-08-23T13:45:19Z</time>
      </trkpt>
      <trkpt lat="44.9988" lon="6.11864">
        <ele>1459.98</ele>
        <time>2020-08-23T13:45:21Z</time>
      </trkpt>
      <trkpt lat="44.99874" lon="6.11863">
        <ele>1455.33</ele>
        <time>2020-08-23T13:45:23Z</time>
      </trkpt>
      <trkpt lat="44.99868" lon="6.11861">
        <ele>1451.9</ele>
        <time>2020-08-23T13:45:25Z</time>
      </trkpt>
      <trkpt lat="44.99862" lon="6.1186">
        <ele>1448.33</ele>
        <time>2020-08-23T13:45:27Z</time>
      </trkpt>
      <trkpt lat="44.99853" lon="6.11857">
        <ele>1444.28</ele>
        <time>2020-08-23T13:45:30Z</time>
      </trkpt>
      <trkpt lat="44.99847" lon="6.11855">
        <ele>1440.8</ele>
        <time>2020-08-23T13:45:32Z</time>
      </trkpt>
      <trkpt lat="44.9984" lon="6.11854">
        <ele>1437.02</ele>
        <time>2020-08-23T13:45:34Z</time>
      </trkpt>
      <trkpt lat="44.99834" lon="6.11852">
        <ele>1433.7</ele>
        <time>2020-08-23T13:45:36Z</time>
      </trkpt>
      <trkpt lat="44.99825" lon="6.1185">
        <ele>1429.43</ele>
        <time>2020-08-23T13:45:39Z</time>
      </trkpt>
      <trkpt lat="44.99818" lon="6.11849">
        <ele>1426.05</ele>
        <time>2020-08-23T13:45:41Z</time>
      </trkpt>
      <trkpt lat="44.99809" lon="6.11847">
        <ele>1421.71</ele>
        <time>2020-08-23T13:45:44Z</time>
      </trkpt>
      <trkpt lat="44.99801" lon="6.11846">
        <ele>1417.18</ele>
        <time>2020-08-23T13:45:47Z</time>
      </trkpt>
      <trkpt lat="44.99795" lon="6.11845">
        <ele>1413.41</ele>
        <time>2020-08-23T13:45:49Z</time>
      </trkpt>
      <trkpt lat="44.99789" lon="6.11843">
        <ele>1409.85</ele>
        <time>2020-08-23T13:45:51Z</time>
      </trkpt>
      <trkpt lat="44.99783" lon="6.11842">
        <ele>1405.53</ele>
        <time>2020-08-23T13:45:53Z</time>
      </trkpt>
      <trkpt lat="44.99778" lon="6.11841">
        <ele>1401.81</ele>
        <time>2020-08-23T13:45:55Z</time>
      </trkpt>
      <trkpt lat="44.99772" lon="6.1184">
        <ele>1397.85</ele>
        <time>2020-08-23T13:45:57Z</time>
      </trkpt>
      <trkpt lat="44.99766" lon="6.11838">
        <ele>1394</ele>
        <time>2020-08-23T13:45:59Z</time>
      </trkpt>
      <trkpt lat="44.9976" lon="6.11837">
        <ele>1390.36</ele>
        <time>2020-08-23T13:46:01Z</time>
      </trkpt>
      <trkpt lat="44.99754" lon="6.11835">
        <ele>1386.92</ele>
        <time>2020-08-23T13:46:03Z</time>
      </trkpt>
      <trkpt lat="44.99748" lon="6.11834">
        <ele>1383.35</ele>
        <time>2020-08-23T13:46:05Z</time>
      </trkpt>
      <trkpt lat="44.99742" lon="6.11832">
        <ele>1379.96</ele>
        <time>2020-08-23T13:46:07Z</time>
      </trkpt>
      <trkpt lat="44.99736" lon="6.11831">
        <ele>1376.71</ele>
        <time>2020-08-23T13:46:09Z</time>
      </trkpt>
      <trkpt lat="44.9973" lon="6.11829">
        <ele>1372.93</ele>
        <time>2020-08-23T13:46:11Z</time>
      </trkpt>
      <trkpt lat="44.99724" lon="6.11828">
        <ele>1369.86</ele>
        <time>2020-08-23T13:46:13Z</time>
      </trkpt>
      <trkpt lat="44.99718" lon="6.11827">
        <ele>1366.66</ele>
        <time>2020-08-23T13:46:15Z</time>
      </trkpt>
      <trkpt lat="44.99709" lon="6.11825">
        <ele>1361.8</ele>
        <time>2020-08-23T13:46:18Z</time>
      </trkpt>
      <trkpt lat="44.997" lon="6.11823">
        <ele>1357.47</ele>
        <time>2020-08-23T13:46:21Z</time>
      </trkpt>
      <trkpt lat="44.9969" lon="6.11821">
        <ele>1353.57</ele>
        <time>2020-08-23T13:46:24Z</time>
      </trkpt>
      <trkpt lat="44.99684" lon="6.11819">
        <ele>1350.16</ele>
        <time>2020-08-23T13:46:26Z</time>
      </trkpt>
      <trkpt lat="44.99678" lon="6.11818">
        <ele>1346.82</ele>
        <time>2020-08-23T13:46:28Z</time>
      </trkpt>
      <trkpt lat="44.99672" lon="6.11817">
        <ele>1343.19</ele>
        <time>2020-08-23T13:46:30Z</time>
      </trkpt>
      <trkpt lat="44.99665" lon="6.11815">
        <ele>1339.95</ele>
        <time>2020-08-23T13:46:32Z</time>
      </trkpt>
      <trkpt lat="44.99656" lon="6.11813">
        <ele>1336.05</ele>
        <time>2020-08-23T13:46:35Z</time>
      </trkpt>
      <trkpt lat="44.9965" lon="6.11812">
        <ele>1332.87</ele>
        <time>2020-08-23T13:46:37Z</time>
      </trkpt>
      <trkpt lat="44.99644" lon="6.1181">
        <ele>1328.67</ele>
        <time>2020-08-23T13:46:39Z</time>
      </trkpt>
      <trkpt lat="44.99639" lon="6.11809">
        <ele>1324.71</ele>
        <time>2020-08-23T13:46:41Z</time>
      </trkpt>
      <trkpt lat="44.99633" lon="6.11808">
        <ele>1320.69</ele>
        <time>2020-08-23T13:46:43Z</time>
      </trkpt>
      <trkpt lat="44.99628" lon="6.11807">
        <ele>1316.41</ele>
        <time>2020-08-23T13:46:45Z</time>
      </trkpt>
      <trkpt lat="44.99622" lon="6.11806">
        <ele>1311.91</ele>
        <time>2020-08-23T13:46:47Z</time>
      </trkpt>
      <trkpt lat="44.99617" lon="6.11804">
        <ele>1307.25</ele>
        <time>2020-08-23T13:46:49Z</time>
      </trkpt>
      <trkpt lat="44.99611" lon="6.11803">
        <ele>1302.95</ele>
        <time>2020-08-23T13:46:51Z</time>
      </trkpt>
      <trkpt lat="44.99605" lon="6.11802">
        <ele>1298.8</ele>
        <time>2020-08-23T13:46:53Z</time>
      </trkpt>
      <trkpt lat="44.99599" lon="6.118">
        <ele>1295.1</ele>
        <time>2020-08-23T13:46:55Z</time>
      </trkpt>
      <trkpt lat="44.99593" lon="6.11799">
        <ele>1291.67</ele>
        <time>2020-08-23T13:46:57Z</time>
      </trkpt>
      <trkpt lat="44.99587" lon="6.11797">
        <ele>1287.87</ele>
        <time>2020-08-23T13:46:59Z</time>
      </trkpt>
      <trkpt lat="44.99581" lon="6.11796">
        <ele>1284.54</ele>
        <time>2020-08-23T13:47:01Z</time>
      </trkpt>
      <trkpt lat="44.99576" lon="6.11795">
        <ele>1280.39</ele>
        <time>2020-08-23T13:47:03Z</time>
      </trkpt>
      <trkpt lat="44.9957" lon="6.11793">
        <ele>1276.46</ele>
        <time>2020-08-23T13:47:05Z</time>
      </trkpt>
      <trkpt lat="44.99564" lon="6.11792">
        <ele>1272.82</ele>
        <time>2020-08-23T13:47:07Z</time>
      </trkpt>
      <trkpt lat="44.99558" lon="6.1179">
        <ele>1269.44</ele>
        <time>2020-08-23T13:47:09Z</time>
      </trkpt>
      <trkpt lat="44.99552" lon="6.11789">
        <ele>1265.75</ele>
        <time>2020-08-23T13:47:11Z</time>
      </trkpt>
      <trkpt lat="44.99546" lon="6.11787">
        <ele>1262.29</ele>
        <time>2020-08-23T13:47:13Z</time>
      </trkpt>
      <trkpt lat="44.9954" lon="6.11786">
        <ele>1258.68</ele>
        <time>2020-08-23T13:47:15Z</time>
      </trkpt>
      <trkpt lat="44.99534" lon="6.11784">
        <ele>1255.63</ele>
        <time>2020-08-23T13:47:17Z</time>
      </trkpt>
      <trkpt lat="44.99528" lon="6.11783">
        <ele>1252.3</ele>
        <time>2020-08-23T13:47:19Z</time>
      </trkpt>
      <trkpt lat="44.99521" lon="6.11781">
        <ele>1249.02</ele>
        <time>2020-08-23T13:47:21Z</time>
      </trkpt>
      <trkpt lat="44.99515" lon="6.1178">
        <ele>1245.49</ele>
        <time>2020-08-23T13:47:23Z</time>
      </trkpt>
      <trkpt lat="44.99506" lon="6.11778">
        <ele>1241.27</ele>
        <time>2020-08-23T13:47:26Z</time>
      </trkpt>
      <trkpt lat="44.99497" lon="6.11776">
        <ele>1239.12</ele>
        <time>2020-08-23T13:47:29Z</time>
      </trkpt>
      <trkpt lat="44.99491" lon="6.11775">
        <ele>1237.84</ele>
        <time>2020-08-23T13:47:31Z</time>
      </trkpt>
      <trkpt lat="44.9946" lon="6.11767">
        <ele>1234.32</ele>
        <time>2020-08-23T13:47:40Z</time>
      </trkpt>
      <trkpt lat="44.99454" lon="6.11766">
        <ele>1233.61</ele>
        <time>2020-08-23T13:47:42Z</time>
      </trkpt>
      <trkpt lat="44.99379" lon="6.11749">
        <ele>1232.01</ele>
        <time>2020-08-23T13:48:04Z</time>
      </trkpt>
      <trkpt lat="44.99371" lon="6.11749">
        <ele>1227.9</ele>
        <time>2020-08-23T13:48:07Z</time>
      </trkpt>
      <trkpt lat="44.99366" lon="6.11747">
        <ele>1223.33</ele>
        <time>2020-08-23T13:48:09Z</time>
      </trkpt>
      <trkpt lat="44.9936" lon="6.11746">
        <ele>1218.52</ele>
        <time>2020-08-23T13:48:11Z</time>
      </trkpt>
      <trkpt lat="44.99355" lon="6.11745">
        <ele>1212.69</ele>
        <time>2020-08-23T13:48:13Z</time>
      </trkpt>
      <trkpt lat="44.99349" lon="6.11743">
        <ele>1207.74</ele>
        <time>2020-08-23T13:48:15Z</time>
      </trkpt>
      <trkpt lat="44.99344" lon="6.11742">
        <ele>1203.15</ele>
        <time>2020-08-23T13:48:17Z</time>
      </trkpt>
      <trkpt lat="44.99338" lon="6.11741">
        <ele>1199.13</ele>
        <time>2020-08-23T13:48:19Z</time>
      </trkpt>
      <trkpt lat="44.99333" lon="6.1174">
        <ele>1195.28</ele>
        <time>2020-08-23T13:48:21Z</time>
      </trkpt>
      <trkpt lat="44.99328" lon="6.11738">
        <ele>1190.59</ele>
        <time>2020-08-23T13:48:23Z</time>
      </trkpt>
      <trkpt lat="44.99322" lon="6.11737">
        <ele>1185.21</ele>
        <time>2020-08-23T13:48:25Z</time>
      </trkpt>
      <trkpt lat="44.99318" lon="6.11736">
        <ele>1179.41</ele>
        <time>2020-08-23T13:48:27Z</time>
      </trkpt>
      <trkpt lat="44.99312" lon="6.11735">
        <ele>1174.9</ele>
        <time>2020-08-23T13:48:29Z</time>
      </trkpt>
      <trkpt lat="44.99307" lon="6.11734">
        <ele>1169.89</ele>
        <time>2020-08-23T13:48:31Z</time>
      </trkpt>
      <trkpt lat="44.99302" lon="6.11733">
        <ele>1164.98</ele>
        <time>2020-08-23T13:48:33Z</time>
      </trkpt>
      <trkpt lat="44.99297" lon="6.11732">
        <ele>1160.32</ele>
        <time>2020-08-23T13:48:35Z</time>
      </trkpt>
      <trkpt lat="44.99291" lon="6.1173">
        <ele>1155.73</ele>
        <time>2020-08-23T13:48:37Z</time>
      </trkpt>
      <trkpt lat="44.99286" lon="6.11729">
        <ele>1150.51</ele>
        <time>2020-08-23T13:48:39Z</time>
      </trkpt>
      <trkpt lat="44.9928" lon="6.11728">
        <ele>1145.97</ele>
        <time>2020-08-23T13:48:41Z</time>
      </trkpt>
      <trkpt lat="44.99274" lon="6.11726">
        <ele>1141.52</ele>
        <time>2020-08-23T13:48:43Z</time>
      </trkpt>
      <trkpt lat="44.99269" lon="6.11725">
        <ele>1136.72</ele>
        <time>2020-08-23T13:48:45Z</time>
      </trkpt>
      <trkpt lat="44.99264" lon="6.11724">
        <ele>1132.48</ele>
        <time>2020-08-23T13:48:47Z</time>
      </trkpt>
      <trkpt lat="44.99258" lon="6.11723">
        <ele>1128.34</ele>
        <time>2020-08-23T13:48:49Z</time>
      </trkpt>
      <trkpt lat="44.99253" lon="6.11722">
        <ele>1123.42</ele>
        <time>2020-08-23T13:48:51Z</time>
      </trkpt>
      <trkpt lat="44.99247" lon="6.11721">
        <ele>1118.81</ele>
        <time>2020-08-23T13:48:53Z</time>
      </trkpt>
      <trkpt lat="44.99242" lon="6.1172">
        <ele>1114.81</ele>
        <time>2020-08-23T13:48:55Z</time>
      </trkpt>
      <trkpt lat="44.99236" lon="6.11719">
        <ele>1110.65</ele>
        <time>2020-08-23T13:48:57Z</time>
      </trkpt>
      <trkpt lat="44.99231" lon="6.11717">
        <ele>1106.39</ele>
        <time>2020-08-23T13:48:59Z</time>
      </trkpt>
      <trkpt lat="44.99225" lon="6.11716">
        <ele>1102.63</ele>
        <time>2020-08-23T13:49:01Z</time>
      </trkpt>
      <trkpt lat="44.99219" lon="6.11715">
        <ele>1098.93</ele>
        <time>2020-08-23T13:49:03Z</time>
      </trkpt>
      <trkpt lat="44.99213" lon="6.11713">
        <ele>1095.2</ele>
        <time>2020-08-23T13:49:05Z</time>
      </trkpt>
      <trkpt lat="44.99207" lon="6.11713">
        <ele>1091.87</ele>
        <time>2020-08-23T13:49:07Z</time>
      </trkpt>
      <trkpt lat="44.99199" lon="6.11711">
        <ele>1088.12</ele>
        <time>2020-08-23T13:49:10Z</time>
      </trkpt>
      <trkpt lat="44.99189" lon="6.11709">
        <ele>1084.44</ele>
        <time>2020-08-23T13:49:13Z</time>
      </trkpt>
      <trkpt lat="44.99176" lon="6.11706">
        <ele>1080.51</ele>
        <time>2020-08-23T13:49:17Z</time>
      </trkpt>
      <trkpt lat="44.99166" lon="6.11704">
        <ele>1078.63</ele>
        <time>2020-08-23T13:49:20Z</time>
      </trkpt>
      <trkpt lat="44.9916" lon="6.11702">
        <ele>1077.35</ele>
        <time>2020-08-23T13:49:22Z</time>
      </trkpt>
      <trkpt lat="44.99153" lon="6.11701">
        <ele>1076.13</ele>
        <time>2020-08-23T13:49:24Z</time>
      </trkpt>
      <trkpt lat="44.9914" lon="6.11698">
        <ele>1072.93</ele>
        <time>2020-08-23T13:49:28Z</time>
      </trkpt>
      <trkpt lat="44.9913" lon="6.11695">
        <ele>1068.78</ele>
        <time>2020-08-23T13:49:31Z</time>
      </trkpt>
      <trkpt lat="44.9912" lon="6.11693">
        <ele>1065.36</ele>
        <time>2020-08-23T13:49:34Z</time>
      </trkpt>
      <trkpt lat="44.9911" lon="6.1169">
        <ele>1061.86</ele>
        <time>2020-08-23T13:49:37Z</time>
      </trkpt>
      <trkpt lat="44.99097" lon="6.11687">
        <ele>1058.08</ele>
        <time>2020-08-23T13:49:41Z</time>
      </trkpt>
      <trkpt lat="44.9909" lon="6.11685">
        <ele>1057.2</ele>
        <time>2020-08-23T13:49:43Z</time>
      </trkpt>
      <trkpt lat="44.9908" lon="6.11682">
        <ele>1053.99</ele>
        <time>2020-08-23T13:49:46Z</time>
      </trkpt>
      <trkpt lat="44.99073" lon="6.1168">
        <ele>1053.1</ele>
        <time>2020-08-23T13:49:48Z</time>
      </trkpt>
      <trkpt lat="44.99066" lon="6.11679">
        <ele>1051.79</ele>
        <time>2020-08-23T13:49:50Z</time>
      </trkpt>
      <trkpt lat="44.99059" lon="6.11677">
        <ele>1050.66</ele>
        <time>2020-08-23T13:49:52Z</time>
      </trkpt>
      <trkpt lat="44.99052" lon="6.11676">
        <ele>1049.27</ele>
        <time>2020-08-23T13:49:54Z</time>
      </trkpt>
      <trkpt lat="44.99042" lon="6.11673">
        <ele>1046.21</ele>
        <time>2020-08-23T13:49:57Z</time>
      </trkpt>
      <trkpt lat="44.99039" lon="6.11672">
        <ele>1046.25</ele>
        <time>2020-08-23T13:49:58Z</time>
      </trkpt>
      <trkpt lat="44.99025" lon="6.11669">
        <ele>1043.86</ele>
        <time>2020-08-23T13:50:02Z</time>
      </trkpt>
      <trkpt lat="44.99008" lon="6.11665">
        <ele>1040.62</ele>
        <time>2020-08-23T13:50:07Z</time>
      </trkpt>
      <trkpt lat="44.98981" lon="6.11658">
        <ele>1037.31</ele>
        <time>2020-08-23T13:50:15Z</time>
      </trkpt>
      <trkpt lat="44.98972" lon="6.11655">
        <ele>1034.21</ele>
        <time>2020-08-23T13:50:18Z</time>
      </trkpt>
      <trkpt lat="44.98962" lon="6.11653">
        <ele>1030.98</ele>
        <time>2020-08-23T13:50:21Z</time>
      </trkpt>
      <trkpt lat="44.98949" lon="6.1165">
        <ele>1027.28</ele>
        <time>2020-08-23T13:50:25Z</time>
      </trkpt>
      <trkpt lat="44.98945" lon="6.11649">
        <ele>1027.25</ele>
        <time>2020-08-23T13:50:26Z</time>
      </trkpt>
      <trkpt lat="44.98938" lon="6.11647">
        <ele>1025.84</ele>
        <time>2020-08-23T13:50:28Z</time>
      </trkpt>
      <trkpt lat="44.98932" lon="6.11646">
        <ele>1024.41</ele>
        <time>2020-08-23T13:50:30Z</time>
      </trkpt>
      <trkpt lat="44.98921" lon="6.11643">
        <ele>1021.18</ele>
        <time>2020-08-23T13:50:33Z</time>
      </trkpt>
      <trkpt lat="44.98912" lon="6.11641">
        <ele>1019.46</ele>
        <time>2020-08-23T13:50:36Z</time>
      </trkpt>
      <trkpt lat="44.98901" lon="6.11638">
        <ele>1017.14</ele>
        <time>2020-08-23T13:50:39Z</time>
      </trkpt>
      <trkpt lat="44.98888" lon="6.11635">
        <ele>1014.53</ele>
        <time>2020-08-23T13:50:43Z</time>
      </trkpt>
      <trkpt lat="44.98881" lon="6.11634">
        <ele>1013.27</ele>
        <time>2020-08-23T13:50:45Z</time>
      </trkpt>
      <trkpt lat="44.98851" lon="6.11627">
        <ele>1009.66</ele>
        <time>2020-08-23T13:50:54Z</time>
      </trkpt>
      <trkpt lat="44.98838" lon="6.11625">
        <ele>1005.77</ele>
        <time>2020-08-23T13:50:58Z</time>
      </trkpt>
      <trkpt lat="44.98832" lon="6.11624">
        <ele>1002.72</ele>
        <time>2020-08-23T13:51:00Z</time>
      </trkpt>
      <trkpt lat="44.98822" lon="6.11621">
        <ele>998.47</ele>
        <time>2020-08-23T13:51:03Z</time>
      </trkpt>
      <trkpt lat="44.98815" lon="6.11621">
        <ele>995.39</ele>
        <time>2020-08-23T13:51:05Z</time>
      </trkpt>
      <trkpt lat="44.98805" lon="6.11619">
        <ele>991.76</ele>
        <time>2020-08-23T13:51:08Z</time>
      </trkpt>
      <trkpt lat="44.98795" lon="6.11616">
        <ele>987.5</ele>
        <time>2020-08-23T13:51:11Z</time>
      </trkpt>
      <trkpt lat="44.98786" lon="6.11613">
        <ele>985.6</ele>
        <time>2020-08-23T13:51:14Z</time>
      </trkpt>
      <trkpt lat="44.98774" lon="6.1161">
        <ele>985.35</ele>
        <time>2020-08-23T13:51:25Z</time>
      </trkpt>
      <trkpt lat="44.98773" lon="6.11602">
        <ele>984.78</ele>
        <time>2020-08-23T13:51:54Z</time>
      </trkpt>
      <trkpt lat="44.9877" lon="6.11599">
        <ele>984.64</ele>
        <time>2020-08-23T13:52:01Z</time>
      </trkpt>
      <trkpt lat="44.98768" lon="6.11598">
        <ele>984.57</ele>
        <time>2020-08-23T13:52:03Z</time>
      </trkpt>
      <trkpt lat="44.98766" lon="6.11593">
        <ele>984.51</ele>
        <time>2020-08-23T13:52:06Z</time>
      </trkpt>
      <trkpt lat="44.98768" lon="6.11587">
        <ele>984.06</ele>
        <time>2020-08-23T13:52:25Z</time>
      </trkpt>
      <trkpt lat="44.98769" lon="6.11587">
        <ele>984.03</ele>
        <time>2020-08-23T13:52:26Z</time>
      </trkpt>
      <trkpt lat="44.98776" lon="6.11587">
        <ele>983.01</ele>
        <time>2020-08-23T13:52:41Z</time>
      </trkpt>
      <trkpt lat="44.98772" lon="6.11592">
        <ele>982.75</ele>
        <time>2020-08-23T13:52:59Z</time>
      </trkpt>
      <trkpt lat="44.98764" lon="6.11592">
        <ele>982.52</ele>
        <time>2020-08-23T13:53:13Z</time>
      </trkpt>
      <trkpt lat="44.98751" lon="6.11591">
        <ele>981.33</ele>
        <time>2020-08-23T13:53:28Z</time>
      </trkpt>
      <trkpt lat="44.9875" lon="6.11592">
        <ele>980.51</ele>
        <time>2020-08-23T13:53:29Z</time>
      </trkpt>
      <trkpt lat="44.9874" lon="6.11613">
        <ele>980.34</ele>
        <time>2020-08-23T13:53:47Z</time>
      </trkpt>
      <trkpt lat="44.98736" lon="6.11623">
        <ele>980.18</ele>
        <time>2020-08-23T13:54:00Z</time>
      </trkpt>
      <trkpt lat="44.98723" lon="6.11639">
        <ele>979.91</ele>
        <time>2020-08-23T13:54:20Z</time>
      </trkpt>
      <trkpt lat="44.98712" lon="6.1164">
        <ele>978.86</ele>
        <time>2020-08-23T13:54:37Z</time>
      </trkpt>
      <trkpt lat="44.98704" lon="6.1165">
        <ele>978.77</ele>
        <time>2020-08-23T13:54:47Z</time>
      </trkpt>
      <trkpt lat="44.98698" lon="6.11663">
        <ele>977.7</ele>
        <time>2020-08-23T13:55:04Z</time>
      </trkpt>
      <trkpt lat="44.987" lon="6.11661">
        <ele>976.57</ele>
        <time>2020-08-23T13:55:28Z</time>
      </trkpt>
      <trkpt lat="44.987" lon="6.11656">
        <ele>976.22</ele>
        <time>2020-08-23T13:55:56Z</time>
      </trkpt>
      <trkpt lat="44.987" lon="6.11657">
        <ele>975.78</ele>
        <time>2020-08-23T13:56:35Z</time>
      </trkpt>
      <trkpt lat="44.98699" lon="6.11656">
        <ele>973.3</ele>
        <time>2020-08-23T13:56:59Z</time>
      </trkpt>
      <trkpt lat="44.98698" lon="6.11656">
        <ele>975.95</ele>
        <time>2020-08-23T13:57:01Z</time>
      </trkpt>
      <trkpt lat="44.98698" lon="6.11657">
        <ele>977.7</ele>
        <time>2020-08-23T13:57:05Z</time>
      </trkpt>
      <trkpt lat="44.98698" lon="6.11658">
        <ele>1031.77</ele>
        <time>2020-08-23T13:57:07Z</time>
      </trkpt>
    </trkseg>
  </trk>
</gpx>